Warning: Javascript must be enabled to use all the features on this page!


Page Loading - Please Wait...

Click to hideNews Bulletins
Click to hide state-specific text

Welcome to the NWIS-Web for the Arizona Water Science Center


The majority of USGS Gaging Stations are funded though a cooperative program between the USGS other interested agencies.
Follow this link for information on the Cooperative Water Program with the USGS.


Arizona Water Science Center Home Page
Colorado Basin River Forecast Center (CBRFC) - provided by the National Weather Service, AHPS. CBRFC on a esri powered interactive map.
Threatened and Endangered USGS Gaging Stations in Arizona

USGS 09471400 BABOCOMARI RIVER NEAR TOMBSTONE, AZ.

PROVISIONAL DATA SUBJECT TO REVISION

Click to hidestation-specific text
Station operated in cooperation with Cochise County, the Bureau of Land Management, and the U.S. Army at Fort Huachuca.

HIGH DATA RATE (Site data are transmitted & updated hourly)
rainfall Arrow
This station managed by the Tucson Field Office; USGS, AZ-WSC.

Available Parameters Available Period
All 3 Available Parameters for this site
  
00060 Discharge 2007-10-01  2016-02-12
00065 Gage height 2007-10-01  2016-02-12
00045 Precipitation 2015-10-15  2016-02-12

Graph
Graph w/ stats
Graph w/o stats
Graph w/ (up to 3) parms
Table
Tab-separated
Days  (31)
 

  -- or --
Begin date
 

End date
 

Summary of all available data for this site
Instantaneous-data availability statement






Date / Time




Dis-
charge,
ft3/s,




Gage
height,
feet,



Precip-
itation
total,
inches,
01/12/2016 00:00 MST1.1P  0.97P  0.00P  
01/12/2016 00:15 MST1.1P  0.97P  0.00P  
01/12/2016 00:30 MST1.1P  0.96P  0.00P  
01/12/2016 00:45 MST1.1P  0.96P  0.00P  
01/12/2016 01:00 MST1.1P  0.97P  0.00P  
01/12/2016 01:15 MST1.1P  0.97P  0.00P  
01/12/2016 01:30 MST1.1P  0.97P  0.00P  
01/12/2016 01:45 MST1.1P  0.96P  0.00P  
01/12/2016 02:00 MST1.2P  0.99P  0.00P  
01/12/2016 02:15 MST1.2P  0.99P  0.00P  
01/12/2016 02:30 MST1.2P  0.98P  0.00P  
01/12/2016 02:45 MST1.1P  0.96P  0.00P  
01/12/2016 03:00 MST1.2P  0.98P  0.00P  
01/12/2016 03:15 MST1.1P  0.97P  0.00P  
01/12/2016 03:30 MST1.2P  0.98P  0.00P  
01/12/2016 03:45 MST1.2P  0.98P  0.00P  
01/12/2016 04:00 MST1.2P  0.98P  0.00P  
01/12/2016 04:15 MST1.2P  0.98P  0.00P  
01/12/2016 04:30 MST1.1P  0.97P  0.00P  
01/12/2016 04:45 MST1.0P  0.95P  0.00P  
01/12/2016 05:00 MST1.2P  0.98P  0.00P  
01/12/2016 05:15 MST1.0P  0.95P  0.00P  
01/12/2016 05:30 MST1.1P  0.96P  0.00P  
01/12/2016 05:45 MST1.1P  0.97P  0.00P  
01/12/2016 06:00 MST1.1P  0.97P  0.00P  
01/12/2016 06:15 MST1.2P  0.98P  0.00P  
01/12/2016 06:30 MST1.1P  0.96P  0.00P  
01/12/2016 06:45 MST1.1P  0.96P  0.00P  
01/12/2016 07:00 MST1.1P  0.97P  0.00P  
01/12/2016 07:15 MST1.1P  0.96P  0.00P  
01/12/2016 07:30 MST1.1P  0.97P  0.00P  
01/12/2016 07:45 MST1.1P  0.96P  0.00P  
01/12/2016 08:00 MST1.1P  0.96P  0.00P  
01/12/2016 08:15 MST1.1P  0.97P  0.00P  
01/12/2016 08:30 MST1.1P  0.97P  0.00P  
01/12/2016 08:45 MST1.1P  0.97P  0.00P  
01/12/2016 09:00 MST1.1P  0.97P  0.00P  
01/12/2016 09:15 MST1.1P  0.97P  0.00P  
01/12/2016 09:30 MST1.1P  0.96P  0.00P  
01/12/2016 09:45 MST1.1P  0.96P  0.00P  
01/12/2016 10:00 MST1.1P  0.97P  0.00P  
01/12/2016 10:15 MST1.0P  0.95P  0.00P  
01/12/2016 10:30 MST1.1P  0.96P  0.00P  
01/12/2016 10:45 MST1.1P  0.97P  0.00P  
01/12/2016 11:00 MST1.1P  0.97P  0.00P  
01/12/2016 11:15 MST1.1P  0.97P  0.00P  
01/12/2016 11:30 MST1.1P  0.97P  0.00P  
01/12/2016 11:45 MST1.1P  0.96P  0.00P  
01/12/2016 12:00 MST1.0P  0.94P  0.00P  
01/12/2016 12:15 MST1.1P  0.97P  0.00P  
01/12/2016 12:30 MST1.1P  0.96P  0.00P  
01/12/2016 12:45 MST1.0P  0.94P  0.00P  
01/12/2016 13:00 MST1.1P  0.97P  0.00P  
01/12/2016 13:15 MST1.1P  0.97P  0.00P  
01/12/2016 13:30 MST1.1P  0.96P  0.00P  
01/12/2016 13:45 MST1.1P  0.97P  0.00P  
01/12/2016 14:00 MST1.1P  0.97P  0.00P  
01/12/2016 14:15 MST1.1P  0.97P  0.00P  
01/12/2016 14:30 MST1.1P  0.97P  0.00P  
01/12/2016 14:45 MST1.1P  0.96P  0.00P  
01/12/2016 15:00 MST1.1P  0.97P  0.00P  
01/12/2016 15:15 MST1.1P  0.97P  0.00P  
01/12/2016 15:30 MST1.1P  0.97P  0.00P  
01/12/2016 15:45 MST1.1P  0.97P  0.00P  
01/12/2016 16:00 MST1.1P  0.96P  0.00P  
01/12/2016 16:15 MST1.1P  0.97P  0.00P  
01/12/2016 16:30 MST1.1P  0.97P  0.00P  
01/12/2016 16:45 MST1.1P  0.97P  0.00P  
01/12/2016 17:00 MST1.1P  0.97P  0.00P  
01/12/2016 17:15 MST1.1P  0.97P  0.00P  
01/12/2016 17:30 MST1.1P  0.97P  0.00P  
01/12/2016 17:45 MST1.1P  0.97P  0.00P  
01/12/2016 18:00 MST1.1P  0.97P  0.00P  
01/12/2016 18:15 MST1.2P  0.98P  0.00P  
01/12/2016 18:30 MST1.2P  0.98P  0.00P  
01/12/2016 18:45 MST1.1P  0.97P  0.00P  
01/12/2016 19:00 MST1.1P  0.97P  0.00P  
01/12/2016 19:15 MST1.1P  0.97P  0.00P  
01/12/2016 19:30 MST1.1P  0.97P  0.00P  
01/12/2016 19:45 MST1.0P  0.94P  0.00P  
01/12/2016 20:00 MST1.1P  0.97P  0.00P  
01/12/2016 20:15 MST1.1P  0.97P  0.00P  
01/12/2016 20:30 MST1.1P  0.97P  0.00P  
01/12/2016 20:45 MST1.1P  0.97P  0.00P  
01/12/2016 21:00 MST1.1P  0.97P  0.00P  
01/12/2016 21:15 MST1.0P  0.94P  0.00P  
01/12/2016 21:30 MST1.1P  0.97P  0.00P  
01/12/2016 21:45 MST1.1P  0.97P  0.00P  
01/12/2016 22:00 MST1.1P  0.97P  0.00P  
01/12/2016 22:15 MST1.0P  0.95P  0.00P  
01/12/2016 22:30 MST1.2P  0.98P  0.00P  
01/12/2016 22:45 MST1.1P  0.97P  0.00P  
01/12/2016 23:00 MST1.1P  0.97P  0.00P  
01/12/2016 23:15 MST1.1P  0.97P  0.00P  
01/12/2016 23:30 MST1.1P  0.97P  0.00P  
01/12/2016 23:45 MST1.1P  0.97P  0.00P  
01/13/2016 00:00 MST1.1P  0.97P  0.00P  
01/13/2016 00:15 MST1.1P  0.97P  0.00P  
01/13/2016 00:30 MST1.1P  0.97P  0.00P  
01/13/2016 00:45 MST1.1P  0.96P  0.00P  
01/13/2016 01:00 MST1.1P  0.97P  0.00P  
01/13/2016 01:15 MST1.1P  0.97P  0.00P  
01/13/2016 01:30 MST1.1P  0.96P  0.00P  
01/13/2016 01:45 MST1.1P  0.97P  0.00P  
01/13/2016 02:00 MST1.1P  0.97P  0.00P  
01/13/2016 02:15 MST1.1P  0.96P  0.00P  
01/13/2016 02:30 MST1.1P  0.97P  0.00P  
01/13/2016 02:45 MST1.1P  0.97P  0.00P  
01/13/2016 03:00 MST1.1P  0.97P  0.00P  
01/13/2016 03:15 MST1.1P  0.97P  0.00P  
01/13/2016 03:30 MST1.1P  0.97P  0.00P  
01/13/2016 03:45 MST1.1P  0.97P  0.00P  
01/13/2016 04:00 MST1.1P  0.97P  0.00P  
01/13/2016 04:15 MST1.1P  0.96P  0.00P  
01/13/2016 04:30 MST1.1P  0.96P  0.00P  
01/13/2016 04:45 MST1.1P  0.96P  0.00P  
01/13/2016 05:00 MST1.1P  0.96P  0.00P  
01/13/2016 05:15 MST1.1P  0.96P  0.00P  
01/13/2016 05:30 MST1.1P  0.96P  0.00P  
01/13/2016 05:45 MST1.1P  0.96P  0.00P  
01/13/2016 06:00 MST1.0P  0.94P  0.00P  
01/13/2016 06:15 MST1.1P  0.97P  0.00P  
01/13/2016 06:30 MST1.1P  0.96P  0.00P  
01/13/2016 06:45 MST1.1P  0.96P  0.00P  
01/13/2016 07:00 MST1.1P  0.97P  0.00P  
01/13/2016 07:15 MST1.1P  0.96P  0.00P  
01/13/2016 07:30 MST1.1P  0.96P  0.00P  
01/13/2016 07:45 MST1.1P  0.96P  0.00P  
01/13/2016 08:00 MST1.1P  0.96P  0.00P  
01/13/2016 08:15 MST1.1P  0.97P  0.00P  
01/13/2016 08:30 MST1.1P  0.96P  0.00P  
01/13/2016 08:45 MST1.1P  0.97P  0.00P  
01/13/2016 09:00 MST1.1P  0.97P  0.00P  
01/13/2016 09:15 MST1.1P  0.97P  0.00P  
01/13/2016 09:30 MST1.0P  0.95P  0.00P  
01/13/2016 09:45 MST1.1P  0.97P  0.00P  
01/13/2016 10:00 MST1.1P  0.97P  0.00P  
01/13/2016 10:15 MST1.1P  0.97P  0.00P  
01/13/2016 10:30 MST1.2P  0.98P  0.00P  
01/13/2016 10:45 MST1.2P  0.98P  0.00P  
01/13/2016 11:00 MST1.2P  0.98P  0.00P  
01/13/2016 11:15 MST1.2P  0.98P  0.00P  
01/13/2016 11:30 MST1.2P  0.98P  0.00P  
01/13/2016 11:45 MST1.2P  0.98P  0.00P  
01/13/2016 12:00 MST1.2P  0.98P  0.00P  
01/13/2016 12:15 MST1.1P  0.97P  0.00P  
01/13/2016 12:30 MST1.2P  0.98P  0.00P  
01/13/2016 12:45 MST1.1P  0.97P  0.00P  
01/13/2016 13:00 MST1.2P  0.98P  0.00P  
01/13/2016 13:15 MST1.2P  0.99P  0.00P  
01/13/2016 13:30 MST1.1P  0.97P  0.00P  
01/13/2016 13:45 MST1.2P  0.98P  0.00P  
01/13/2016 14:00 MST1.2P  0.98P  0.00P  
01/13/2016 14:15 MST1.2P  0.98P  0.00P  
01/13/2016 14:30 MST1.2P  0.98P  0.00P  
01/13/2016 14:45 MST1.1P  0.97P  0.00P  
01/13/2016 15:00 MST1.1P  0.97P  0.00P  
01/13/2016 15:15 MST1.2P  0.98P  0.00P  
01/13/2016 15:30 MST1.1P  0.97P  0.00P  
01/13/2016 15:45 MST1.2P  0.98P  0.00P  
01/13/2016 16:00 MST1.2P  0.98P  0.00P  
01/13/2016 16:15 MST1.1P  0.96P  0.00P  
01/13/2016 16:30 MST1.2P  0.98P  0.00P  
01/13/2016 16:45 MST1.2P  0.98P  0.00P  
01/13/2016 17:00 MST1.1P  0.97P  0.00P  
01/13/2016 17:15 MST1.1P  0.97P  0.00P  
01/13/2016 17:30 MST1.1P  0.97P  0.00P  
01/13/2016 17:45 MST1.2P  0.98P  0.00P  
01/13/2016 18:00 MST1.1P  0.97P  0.00P  
01/13/2016 18:15 MST1.1P  0.97P  0.00P  
01/13/2016 18:30 MST1.1P  0.96P  0.00P  
01/13/2016 18:45 MST1.0P  0.95P  0.00P  
01/13/2016 19:00 MST1.1P  0.97P  0.00P  
01/13/2016 19:15 MST1.1P  0.97P  0.00P  
01/13/2016 19:30 MST1.2P  0.98P  0.00P  
01/13/2016 19:45 MST1.1P  0.97P  0.00P  
01/13/2016 20:00 MST1.1P  0.97P  0.00P  
01/13/2016 20:15 MST1.2P  0.98P  0.00P  
01/13/2016 20:30 MST1.1P  0.96P  0.00P  
01/13/2016 20:45 MST1.1P  0.97P  0.00P  
01/13/2016 21:00 MST1.1P  0.97P  0.00P  
01/13/2016 21:15 MST1.1P  0.97P  0.00P  
01/13/2016 21:30 MST1.1P  0.97P  0.00P  
01/13/2016 21:45 MST1.1P  0.97P  0.00P  
01/13/2016 22:00 MST1.1P  0.97P  0.00P  
01/13/2016 22:15 MST1.1P  0.97P  0.00P  
01/13/2016 22:30 MST1.1P  0.97P  0.00P  
01/13/2016 22:45 MST1.1P  0.97P  0.00P  
01/13/2016 23:00 MST1.2P  0.98P  0.00P  
01/13/2016 23:15 MST1.1P  0.97P  0.00P  
01/13/2016 23:30 MST1.1P  0.97P  0.00P  
01/13/2016 23:45 MST1.2P  0.99P  0.00P  
01/14/2016 00:00 MST1.1P  0.97P  0.00P  
01/14/2016 00:15 MST1.1P  0.96P  0.00P  
01/14/2016 00:30 MST1.1P  0.97P  0.00P  
01/14/2016 00:45 MST1.2P  0.98P  0.00P  
01/14/2016 01:00 MST1.2P  0.99P  0.00P  
01/14/2016 01:15 MST1.1P  0.97P  0.00P  
01/14/2016 01:30 MST1.2P  0.98P  0.00P  
01/14/2016 01:45 MST1.1P  0.97P  0.00P  
01/14/2016 02:00 MST1.1P  0.97P  0.00P  
01/14/2016 02:15 MST1.1P  0.97P  0.00P  
01/14/2016 02:30 MST1.2P  0.98P  0.00P  
01/14/2016 02:45 MST1.1P  0.97P  0.00P  
01/14/2016 03:00 MST1.1P  0.97P  0.00P  
01/14/2016 03:15 MST1.1P  0.97P  0.00P  
01/14/2016 03:30 MST1.2P  0.98P  0.00P  
01/14/2016 03:45 MST1.1P  0.97P  0.00P  
01/14/2016 04:00 MST1.1P  0.97P  0.00P  
01/14/2016 04:15 MST1.1P  0.96P  0.00P  
01/14/2016 04:30 MST1.1P  0.97P  0.00P  
01/14/2016 04:45 MST1.1P  0.97P  0.00P  
01/14/2016 05:00 MST1.1P  0.97P  0.00P  
01/14/2016 05:15 MST1.1P  0.97P  0.00P  
01/14/2016 05:30 MST1.1P  0.96P  0.00P  
01/14/2016 05:45 MST1.1P  0.96P  0.00P  
01/14/2016 06:00 MST1.1P  0.97P  0.00P  
01/14/2016 06:15 MST1.1P  0.96P  0.00P  
01/14/2016 06:30 MST1.1P  0.96P  0.00P  
01/14/2016 06:45 MST1.1P  0.97P  0.00P  
01/14/2016 07:00 MST1.2P  0.98P  0.00P  
01/14/2016 07:15 MST1.2P  0.98P  0.00P  
01/14/2016 07:30 MST1.2P  0.98P  0.00P  
01/14/2016 07:45 MST1.2P  0.98P  0.00P  
01/14/2016 08:00 MST1.2P  0.98P  0.00P  
01/14/2016 08:15 MST1.0P  0.94P  0.00P  
01/14/2016 08:30 MST1.1P  0.97P  0.00P  
01/14/2016 08:45 MST1.2P  0.98P  0.00P  
01/14/2016 09:00 MST1.2P  0.98P  0.00P  
01/14/2016 09:15 MST1.1P  0.97P  0.00P  
01/14/2016 09:30 MST1.0P  0.95P  0.00P  
01/14/2016 09:45 MST1.2P  0.98P  0.00P  
01/14/2016 10:00 MST1.2P  0.99P  0.00P  
01/14/2016 10:15 MST1.0P  0.95P  0.00P  
01/14/2016 10:30 MST1.1P  0.97P  0.00P  
01/14/2016 10:45 MST1.1P  0.97P  0.00P  
01/14/2016 11:00 MST1.2P  0.99P  0.00P  
01/14/2016 11:15 MST1.2P  0.98P  0.00P  
01/14/2016 11:30 MST1.2P  0.98P  0.00P  
01/14/2016 11:45 MST1.2P  0.98P  0.00P  
01/14/2016 12:00 MST1.2P  0.98P  0.00P  
01/14/2016 12:15 MST1.1P  0.97P  0.00P  
01/14/2016 12:30 MST1.2P  0.98P  0.00P  
01/14/2016 12:45 MST1.2P  0.98P  0.00P  
01/14/2016 13:00 MST1.1P  0.97P  0.00P  
01/14/2016 13:15 MST1.1P  0.97P  0.00P  
01/14/2016 13:30 MST1.2P  0.98P  0.00P  
01/14/2016 13:45 MST1.2P  0.98P  0.00P  
01/14/2016 14:00 MST1.2P  0.98P  0.00P  
01/14/2016 14:15 MST1.2P  0.98P  0.00P  
01/14/2016 14:30 MST1.2P  0.98P  0.00P  
01/14/2016 14:45 MST1.2P  0.99P  0.00P  
01/14/2016 15:00 MST1.1P  0.96P  0.00P  
01/14/2016 15:15 MST1.1P  0.97P  0.00P  
01/14/2016 15:30 MST1.1P  0.97P  0.00P  
01/14/2016 15:45 MST1.2P  0.98P  0.00P  
01/14/2016 16:00 MST1.1P  0.97P  0.00P  
01/14/2016 16:15 MST1.1P  0.97P  0.00P  
01/14/2016 16:30 MST1.2P  0.98P  0.00P  
01/14/2016 16:45 MST1.2P  0.98P  0.00P  
01/14/2016 17:00 MST1.0P  0.95P  0.00P  
01/14/2016 17:15 MST1.2P  0.98P  0.00P  
01/14/2016 17:30 MST1.1P  0.97P  0.00P  
01/14/2016 17:45 MST1.1P  0.97P  0.00P  
01/14/2016 18:00 MST1.2P  0.98P  0.00P  
01/14/2016 18:15 MST1.2P  0.98P  0.00P  
01/14/2016 18:30 MST1.2P  0.98P  0.00P  
01/14/2016 18:45 MST1.1P  0.97P  0.00P  
01/14/2016 19:00 MST1.2P  0.98P  0.00P  
01/14/2016 19:15 MST1.2P  0.98P  0.00P  
01/14/2016 19:30 MST1.2P  0.98P  0.00P  
01/14/2016 19:45 MST1.3P  1.00P  0.00P  
01/14/2016 20:00 MST1.2P  0.98P  0.00P  
01/14/2016 20:15 MST1.2P  0.98P  0.00P  
01/14/2016 20:30 MST1.2P  0.98P  0.00P  
01/14/2016 20:45 MST1.2P  0.99P  0.00P  
01/14/2016 21:00 MST1.1P  0.97P  0.00P  
01/14/2016 21:15 MST1.2P  0.98P  0.00P  
01/14/2016 21:30 MST1.2P  0.99P  0.00P  
01/14/2016 21:45 MST1.2P  0.98P  0.00P  
01/14/2016 22:00 MST1.2P  0.99P  0.00P  
01/14/2016 22:15 MST1.1P  0.97P  0.00P  
01/14/2016 22:30 MST1.2P  0.99P  0.00P  
01/14/2016 22:45 MST1.2P  0.99P  0.00P  
01/14/2016 23:00 MST1.2P  0.99P  0.00P  
01/14/2016 23:15 MST1.2P  0.99P  0.00P  
01/14/2016 23:30 MST1.2P  0.99P  0.00P  
01/14/2016 23:45 MST1.1P  0.97P  0.00P  
01/15/2016 00:00 MST1.2P  0.99P  0.00P  
01/15/2016 00:15 MST1.2P  0.98P  0.00P  
01/15/2016 00:30 MST1.2P  0.99P  0.00P  
01/15/2016 00:45 MST1.2P  0.99P  0.00P  
01/15/2016 01:00 MST1.1P  0.97P  0.00P  
01/15/2016 01:15 MST1.2P  0.98P  0.00P  
01/15/2016 01:30 MST1.2P  0.98P  0.00P  
01/15/2016 01:45 MST1.2P  0.99P  0.00P  
01/15/2016 02:00 MST1.2P  0.98P  0.00P  
01/15/2016 02:15 MST1.2P  0.98P  0.00P  
01/15/2016 02:30 MST1.2P  0.99P  0.00P  
01/15/2016 02:45 MST1.2P  0.98P  0.00P  
01/15/2016 03:00 MST1.2P  0.98P  0.00P  
01/15/2016 03:15 MST1.2P  0.98P  0.00P  
01/15/2016 03:30 MST1.2P  0.98P  0.00P  
01/15/2016 03:45 MST1.3P  1.00P  0.00P  
01/15/2016 04:00 MST1.2P  0.99P  0.00P  
01/15/2016 04:15 MST1.1P  0.96P  0.00P  
01/15/2016 04:30 MST1.1P  0.97P  0.00P  
01/15/2016 04:45 MST1.1P  0.97P  0.00P  
01/15/2016 05:00 MST1.1P  0.97P  0.00P  
01/15/2016 05:15 MST1.1P  0.96P  0.00P  
01/15/2016 05:30 MST1.1P  0.96P  0.00P  
01/15/2016 05:45 MST1.1P  0.96P  0.00P  
01/15/2016 06:00 MST1.1P  0.97P  0.00P  
01/15/2016 06:15 MST1.1P  0.97P  0.00P  
01/15/2016 06:30 MST1.1P  0.96P  0.00P  
01/15/2016 06:45 MST1.1P  0.97P  0.00P  
01/15/2016 07:00 MST1.1P  0.97P  0.00P  
01/15/2016 07:15 MST1.1P  0.96P  0.00P  
01/15/2016 07:30 MST1.1P  0.96P  0.00P  
01/15/2016 07:45 MST1.1P  0.96P  0.00P  
01/15/2016 08:00 MST1.1P  0.97P  0.00P  
01/15/2016 08:15 MST1.1P  0.96P  0.00P  
01/15/2016 08:30 MST1.0P  0.95P  0.00P  
01/15/2016 08:45 MST1.0P  0.95P  0.00P  
01/15/2016 09:00 MST1.1P  0.96P  0.00P  
01/15/2016 09:15 MST1.1P  0.97P  0.00P  
01/15/2016 09:30 MST1.1P  0.96P  0.00P  
01/15/2016 09:45 MST1.1P  0.96P  0.00P  
01/15/2016 10:00 MST1.1P  0.97P  0.00P  
01/15/2016 10:15 MST1.1P  0.97P  0.00P  
01/15/2016 10:30 MST1.1P  0.96P  0.00P  
01/15/2016 10:45 MST1.1P  0.97P  0.00P  
01/15/2016 11:00 MST1.1P  0.97P  0.00P  
01/15/2016 11:15 MST1.1P  0.97P  0.00P  
01/15/2016 11:30 MST1.1P  0.97P  0.00P  
01/15/2016 11:45 MST1.1P  0.97P  0.00P  
01/15/2016 12:00 MST1.1P  0.96P  0.00P  
01/15/2016 12:15 MST1.1P  0.96P  0.00P  
01/15/2016 12:30 MST1.1P  0.96P  0.00P  
01/15/2016 12:45 MST1.1P  0.97P  0.00P  
01/15/2016 13:00 MST1.1P  0.97P  0.00P  
01/15/2016 13:15 MST1.1P  0.96P  0.00P  
01/15/2016 13:30 MST1.1P  0.96P  0.00P  
01/15/2016 13:45 MST1.1P  0.97P  0.00P  
01/15/2016 14:00 MST1.1P  0.97P  0.00P  
01/15/2016 14:15 MST1.1P  0.97P  0.00P  
01/15/2016 14:30 MST1.0P  0.95P  0.00P  
01/15/2016 14:45 MST1.1P  0.96P  0.00P  
01/15/2016 15:00 MST1.1P  0.97P  0.00P  
01/15/2016 15:15 MST1.1P  0.96P  0.00P  
01/15/2016 15:30 MST1.1P  0.96P  0.00P  
01/15/2016 15:45 MST1.1P  0.97P  0.00P  
01/15/2016 16:00 MST1.1P  0.97P  0.00P  
01/15/2016 16:15 MST1.1P  0.96P  0.00P  
01/15/2016 16:30 MST1.1P  0.96P  0.00P  
01/15/2016 16:45 MST1.1P  0.96P  0.00P  
01/15/2016 17:00 MST1.1P  0.96P  0.00P  
01/15/2016 17:15 MST1.1P  0.97P  0.00P  
01/15/2016 17:30 MST1.1P  0.97P  0.00P  
01/15/2016 17:45 MST1.1P  0.96P  0.00P  
01/15/2016 18:00 MST1.1P  0.96P  0.00P  
01/15/2016 18:15 MST1.1P  0.96P  0.00P  
01/15/2016 18:30 MST1.1P  0.96P  0.00P  
01/15/2016 18:45 MST1.1P  0.96P  0.00P  
01/15/2016 19:00 MST1.0P  0.95P  0.00P  
01/15/2016 19:15 MST1.1P  0.96P  0.00P  
01/15/2016 19:30 MST1.1P  0.96P  0.00P  
01/15/2016 19:45 MST1.1P  0.96P  0.00P  
01/15/2016 20:00 MST1.1P  0.97P  0.00P  
01/15/2016 20:15 MST1.1P  0.96P  0.00P  
01/15/2016 20:30 MST1.1P  0.97P  0.00P  
01/15/2016 20:45 MST1.0P  0.95P  0.00P  
01/15/2016 21:00 MST1.1P  0.96P  0.00P  
01/15/2016 21:15 MST1.1P  0.96P  0.00P  
01/15/2016 21:30 MST1.1P  0.96P  0.00P  
01/15/2016 21:45 MST1.1P  0.96P  0.00P  
01/15/2016 22:00 MST1.0P  0.94P  0.00P  
01/15/2016 22:15 MST1.1P  0.96P  0.00P  
01/15/2016 22:30 MST1.1P  0.96P  0.00P  
01/15/2016 22:45 MST1.1P  0.96P  0.00P  
01/15/2016 23:00 MST1.0P  0.95P  0.00P  
01/15/2016 23:15 MST1.0P  0.95P  0.00P  
01/15/2016 23:30 MST1.0P  0.95P  0.00P  
01/15/2016 23:45 MST1.0P  0.95P  0.00P  
01/16/2016 00:00 MST1.0P  0.95P  0.00P  
01/16/2016 00:15 MST1.0P  0.95P  0.00P  
01/16/2016 00:30 MST1.0P  0.95P  0.00P  
01/16/2016 00:45 MST1.0P  0.95P  0.00P  
01/16/2016 01:00 MST1.0P  0.95P  0.00P  
01/16/2016 01:15 MST1.1P  0.96P  0.00P  
01/16/2016 01:30 MST1.0P  0.95P  0.00P  
01/16/2016 01:45 MST1.0P  0.95P  0.00P  
01/16/2016 02:00 MST1.0P  0.95P  0.00P  
01/16/2016 02:15 MST1.0P  0.95P  0.00P  
01/16/2016 02:30 MST0.97P  0.93P  0.00P  
01/16/2016 02:45 MST1.0P  0.95P  0.00P  
01/16/2016 03:00 MST1.0P  0.95P  0.00P  
01/16/2016 03:15 MST1.0P  0.94P  0.00P  
01/16/2016 03:30 MST1.0P  0.95P  0.00P  
01/16/2016 03:45 MST1.0P  0.95P  0.00P  
01/16/2016 04:00 MST1.0P  0.95P  0.00P  
01/16/2016 04:15 MST1.1P  0.96P  0.00P  
01/16/2016 04:30 MST1.0P  0.95P  0.00P  
01/16/2016 04:45 MST1.1P  0.96P  0.00P  
01/16/2016 05:00 MST1.1P  0.96P  0.00P  
01/16/2016 05:15 MST1.0P  0.95P  0.00P  
01/16/2016 05:30 MST1.0P  0.95P  0.00P  
01/16/2016 05:45 MST1.0P  0.95P  0.00P  
01/16/2016 06:00 MST1.0P  0.95P  0.00P  
01/16/2016 06:15 MST0.97P  0.93P  0.00P  
01/16/2016 06:30 MST1.0P  0.95P  0.00P  
01/16/2016 06:45 MST1.0P  0.95P  0.00P  
01/16/2016 07:00 MST1.0P  0.95P  0.00P  
01/16/2016 07:15 MST1.0P  0.95P  0.00P  
01/16/2016 07:30 MST1.0P  0.95P  0.00P  
01/16/2016 07:45 MST1.0P  0.95P  0.00P  
01/16/2016 08:00 MST1.0P  0.95P  0.00P  
01/16/2016 08:15 MST1.0P  0.95P  0.00P  
01/16/2016 08:30 MST1.0P  0.95P  0.00P  
01/16/2016 08:45 MST1.0P  0.95P  0.00P  
01/16/2016 09:00 MST1.1P  0.96P  0.00P  
01/16/2016 09:15 MST1.0P  0.95P  0.00P  
01/16/2016 09:30 MST1.1P  0.97P  0.00P  
01/16/2016 09:45 MST1.0P  0.95P  0.00P  
01/16/2016 10:00 MST1.0P  0.95P  0.00P  
01/16/2016 10:15 MST1.0P  0.95P  0.00P  
01/16/2016 10:30 MST1.0P  0.95P  0.00P  
01/16/2016 10:45 MST1.0P  0.95P  0.00P  
01/16/2016 11:00 MST1.0P  0.95P  0.00P  
01/16/2016 11:15 MST1.1P  0.96P  0.00P  
01/16/2016 11:30 MST1.0P  0.94P  0.00P  
01/16/2016 11:45 MST1.0P  0.95P  0.00P  
01/16/2016 12:00 MST1.1P  0.96P  0.00P  
01/16/2016 12:15 MST1.1P  0.96P  0.00P  
01/16/2016 12:30 MST1.0P  0.94P  0.00P  
01/16/2016 12:45 MST1.0P  0.95P  0.00P  
01/16/2016 13:00 MST1.0P  0.94P  0.00P  
01/16/2016 13:15 MST1.1P  0.96P  0.00P  
01/16/2016 13:30 MST1.1P  0.96P  0.00P  
01/16/2016 13:45 MST1.0P  0.95P  0.00P  
01/16/2016 14:00 MST1.0P  0.95P  0.00P  
01/16/2016 14:15 MST1.1P  0.96P  0.00P  
01/16/2016 14:30 MST1.0P  0.95P  0.00P  
01/16/2016 14:45 MST1.1P  0.97P  0.00P  
01/16/2016 15:00 MST1.0P  0.95P  0.00P  
01/16/2016 15:15 MST1.1P  0.97P  0.00P  
01/16/2016 15:30 MST1.1P  0.97P  0.00P  
01/16/2016 15:45 MST1.1P  0.96P  0.00P  
01/16/2016 16:00 MST1.1P  0.96P  0.00P  
01/16/2016 16:15 MST1.1P  0.96P  0.00P  
01/16/2016 16:30 MST1.0P  0.95P  0.00P  
01/16/2016 16:45 MST1.1P  0.96P  0.00P  
01/16/2016 17:00 MST1.0P  0.95P  0.00P  
01/16/2016 17:15 MST1.0P  0.95P  0.00P  
01/16/2016 17:30 MST1.0P  0.95P  0.00P  
01/16/2016 17:45 MST1.1P  0.96P  0.00P  
01/16/2016 18:00 MST1.0P  0.94P  0.00P  
01/16/2016 18:15 MST1.1P  0.96P  0.00P  
01/16/2016 18:30 MST1.1P  0.97P  0.00P  
01/16/2016 18:45 MST1.1P  0.96P  0.00P  
01/16/2016 19:00 MST1.1P  0.97P  0.00P  
01/16/2016 19:15 MST1.1P  0.96P  0.00P  
01/16/2016 19:30 MST1.1P  0.97P  0.00P  
01/16/2016 19:45 MST1.1P  0.96P  0.00P  
01/16/2016 20:00 MST1.1P  0.97P  0.00P  
01/16/2016 20:15 MST1.1P  0.97P  0.00P  
01/16/2016 20:30 MST1.1P  0.96P  0.00P  
01/16/2016 20:45 MST1.1P  0.96P  0.00P  
01/16/2016 21:00 MST1.0P  0.95P  0.00P  
01/16/2016 21:15 MST1.1P  0.96P  0.00P  
01/16/2016 21:30 MST1.1P  0.97P  0.00P  
01/16/2016 21:45 MST1.1P  0.97P  0.00P  
01/16/2016 22:00 MST1.1P  0.96P  0.00P  
01/16/2016 22:15 MST1.1P  0.96P  0.00P  
01/16/2016 22:30 MST1.1P  0.96P  0.00P  
01/16/2016 22:45 MST1.2P  0.98P  0.00P  
01/16/2016 23:00 MST1.1P  0.96P  0.00P  
01/16/2016 23:15 MST1.0P  0.94P  0.00P  
01/16/2016 23:30 MST1.1P  0.96P  0.00P  
01/16/2016 23:45 MST1.1P  0.96P  0.00P  
01/17/2016 00:00 MST1.1P  0.96P  0.00P  
01/17/2016 00:15 MST1.1P  0.96P  0.00P  
01/17/2016 00:30 MST1.1P  0.96P  0.00P  
01/17/2016 00:45 MST1.1P  0.96P  0.00P  
01/17/2016 01:00 MST1.1P  0.97P  0.00P  
01/17/2016 01:15 MST1.1P  0.96P  0.00P  
01/17/2016 01:30 MST1.1P  0.96P  0.00P  
01/17/2016 01:45 MST1.2P  0.98P  0.00P  
01/17/2016 02:00 MST1.1P  0.96P  0.00P  
01/17/2016 02:15 MST1.1P  0.96P  0.00P  
01/17/2016 02:30 MST1.1P  0.97P  0.00P  
01/17/2016 02:45 MST1.2P  0.98P  0.00P  
01/17/2016 03:00 MST1.1P  0.96P  0.00P  
01/17/2016 03:15 MST1.0P  0.95P  0.00P  
01/17/2016 03:30 MST1.0P  0.95P  0.00P  
01/17/2016 03:45 MST1.1P  0.96P  0.00P  
01/17/2016 04:00 MST1.1P  0.96P  0.00P  
01/17/2016 04:15 MST1.1P  0.96P  0.00P  
01/17/2016 04:30 MST1.1P  0.97P  0.00P  
01/17/2016 04:45 MST1.2P  0.99P  0.00P  
01/17/2016 05:00 MST1.1P  0.97P  0.00P  
01/17/2016 05:15 MST1.1P  0.96P  0.00P  
01/17/2016 05:30 MST1.0P  0.95P  0.00P  
01/17/2016 05:45 MST1.1P  0.96P  0.00P  
01/17/2016 06:00 MST1.0P  0.95P  0.00P  
01/17/2016 06:15 MST1.1P  0.96P  0.00P  
01/17/2016 06:30 MST1.1P  0.96P  0.00P  
01/17/2016 06:45 MST1.1P  0.97P  0.00P  
01/17/2016 07:00 MST1.1P  0.96P  0.00P  
01/17/2016 07:15 MST1.1P  0.96P  0.00P  
01/17/2016 07:30 MST1.0P  0.94P  0.00P  
01/17/2016 07:45 MST1.1P  0.96P  0.00P  
01/17/2016 08:00 MST1.1P  0.96P  0.00P  
01/17/2016 08:15 MST1.0P  0.95P  0.00P  
01/17/2016 08:30 MST1.0P  0.95P  0.00P  
01/17/2016 08:45 MST1.0P  0.95P  0.00P  
01/17/2016 09:00 MST1.0P  0.95P  0.00P  
01/17/2016 09:15 MST1.0P  0.95P  0.00P  
01/17/2016 09:30 MST1.1P  0.96P  0.00P  
01/17/2016 09:45 MST1.1P  0.96P  0.00P  
01/17/2016 10:00 MST1.0P  0.95P  0.00P  
01/17/2016 10:15 MST1.1P  0.96P  0.00P  
01/17/2016 10:30 MST1.0P  0.94P  0.00P  
01/17/2016 10:45 MST1.0P  0.95P  0.00P  
01/17/2016 11:00 MST1.0P  0.95P  0.00P  
01/17/2016 11:15 MST1.1P  0.96P  0.00P  
01/17/2016 11:30 MST1.1P  0.96P  0.00P  
01/17/2016 11:45 MST1.0P  0.95P  0.00P  
01/17/2016 12:00 MST1.1P  0.97P  0.00P  
01/17/2016 12:15 MST1.1P  0.97P  0.00P  
01/17/2016 12:30 MST1.1P  0.97P  0.00P  
01/17/2016 12:45 MST1.0P  0.95P  0.00P  
01/17/2016 13:00 MST1.0P  0.95P  0.00P  
01/17/2016 13:15 MST1.1P  0.97P  0.00P  
01/17/2016 13:30 MST1.0P  0.95P  0.00P  
01/17/2016 13:45 MST1.0P  0.94P  0.00P  
01/17/2016 14:00 MST1.1P  0.96P  0.00P  
01/17/2016 14:15 MST1.1P  0.97P  0.00P  
01/17/2016 14:30 MST1.1P  0.96P  0.00P  
01/17/2016 14:45 MST1.0P  0.95P  0.00P  
01/17/2016 15:00 MST1.1P  0.97P  0.00P  
01/17/2016 15:15 MST1.0P  0.94P  0.00P  
01/17/2016 15:30 MST1.0P  0.95P  0.00P  
01/17/2016 15:45 MST1.1P  0.96P  0.00P  
01/17/2016 16:00 MST1.1P  0.96P  0.00P  
01/17/2016 16:15 MST1.1P  0.97P  0.00P  
01/17/2016 16:30 MST1.0P  0.94P  0.00P  
01/17/2016 16:45 MST1.0P  0.95P  0.00P  
01/17/2016 17:00 MST1.1P  0.96P  0.00P  
01/17/2016 17:15 MST1.1P  0.96P  0.00P  
01/17/2016 17:30 MST1.1P  0.97P  0.00P  
01/17/2016 17:45 MST1.1P  0.96P  0.00P  
01/17/2016 18:00 MST1.0P  0.94P  0.00P  
01/17/2016 18:15 MST1.0P  0.95P  0.00P  
01/17/2016 18:30 MST1.0P  0.95P  0.00P  
01/17/2016 18:45 MST1.0P  0.95P  0.00P  
01/17/2016 19:00 MST1.0P  0.95P  0.00P  
01/17/2016 19:15 MST1.0P  0.95P  0.00P  
01/17/2016 19:30 MST1.0P  0.95P  0.00P  
01/17/2016 19:45 MST1.1P  0.97P  0.00P  
01/17/2016 20:00 MST1.1P  0.97P  0.00P  
01/17/2016 20:15 MST1.1P  0.97P  0.00P  
01/17/2016 20:30 MST1.0P  0.94P  0.00P  
01/17/2016 20:45 MST1.0P  0.95P  0.00P  
01/17/2016 21:00 MST1.0P  0.95P  0.00P  
01/17/2016 21:15 MST1.1P  0.97P  0.00P  
01/17/2016 21:30 MST1.0P  0.95P  0.00P  
01/17/2016 21:45 MST1.1P  0.96P  0.00P  
01/17/2016 22:00 MST1.1P  0.96P  0.00P  
01/17/2016 22:15 MST1.0P  0.95P  0.00P  
01/17/2016 22:30 MST1.0P  0.94P  0.00P  
01/17/2016 22:45 MST1.1P  0.97P  0.00P  
01/17/2016 23:00 MST1.1P  0.96P  0.00P  
01/17/2016 23:15 MST1.1P  0.97P  0.00P  
01/17/2016 23:30 MST1.0P  0.95P  0.00P  
01/17/2016 23:45 MST1.1P  0.96P  0.00P  
01/18/2016 00:00 MST1.0P  0.95P  0.00P  
01/18/2016 00:15 MST1.0P  0.95P  0.00P  
01/18/2016 00:30 MST1.1P  0.96P  0.00P  
01/18/2016 00:45 MST1.0P  0.95P  0.00P  
01/18/2016 01:00 MST1.1P  0.96P  0.00P  
01/18/2016 01:15 MST1.1P  0.96P  0.00P  
01/18/2016 01:30 MST1.1P  0.96P  0.00P  
01/18/2016 01:45 MST1.1P  0.96P  0.00P  
01/18/2016 02:00 MST1.1P  0.96P  0.00P  
01/18/2016 02:15 MST1.1P  0.96P  0.00P  
01/18/2016 02:30 MST1.1P  0.96P  0.00P  
01/18/2016 02:45 MST1.1P  0.96P  0.00P  
01/18/2016 03:00 MST1.1P  0.96P  0.00P  
01/18/2016 03:15 MST1.1P  0.96P  0.00P  
01/18/2016 03:30 MST1.1P  0.96P  0.00P  
01/18/2016 03:45 MST1.0P  0.95P  0.00P  
01/18/2016 04:00 MST1.1P  0.96P  0.00P  
01/18/2016 04:15 MST1.1P  0.96P  0.00P  
01/18/2016 04:30 MST1.1P  0.96P  0.00P  
01/18/2016 04:45 MST1.0P  0.95P  0.00P  
01/18/2016 05:00 MST1.0P  0.95P  0.00P  
01/18/2016 05:15 MST1.0P  0.95P  0.00P  
01/18/2016 05:30 MST1.1P  0.97P  0.00P  
01/18/2016 05:45 MST1.1P  0.96P  0.00P  
01/18/2016 06:00 MST1.1P  0.96P  0.00P  
01/18/2016 06:15 MST1.0P  0.95P  0.00P  
01/18/2016 06:30 MST1.1P  0.96P  0.00P  
01/18/2016 06:45 MST1.0P  0.95P  0.00P  
01/18/2016 07:00 MST1.0P  0.95P  0.00P  
01/18/2016 07:15 MST1.1P  0.96P  0.00P  
01/18/2016 07:30 MST1.0P  0.94P  0.00P  
01/18/2016 07:45 MST1.1P  0.96P  0.00P  
01/18/2016 08:00 MST1.0P  0.95P  0.00P  
01/18/2016 08:15 MST1.1P  0.96P  0.00P  
01/18/2016 08:30 MST1.1P  0.96P  0.00P  
01/18/2016 08:45 MST1.1P  0.96P  0.00P  
01/18/2016 09:00 MST1.1P  0.96P  0.00P  
01/18/2016 09:15 MST1.0P  0.95P  0.00P  
01/18/2016 09:30 MST1.1P  0.96P  0.00P  
01/18/2016 09:45 MST1.1P  0.96P  0.00P  
01/18/2016 10:00 MST1.0P  0.95P  0.00P  
01/18/2016 10:15 MST1.1P  0.96P  0.00P  
01/18/2016 10:30 MST1.1P  0.96P  0.00P  
01/18/2016 10:45 MST1.0P  0.95P  0.00P  
01/18/2016 11:00 MST1.0P  0.95P  0.00P  
01/18/2016 11:15 MST1.1P  0.96P  0.00P  
01/18/2016 11:30 MST1.0P  0.95P  0.00P  
01/18/2016 11:45 MST1.1P  0.97P  0.00P  
01/18/2016 12:00 MST1.1P  0.96P  0.00P  
01/18/2016 12:15 MST1.0P  0.95P  0.00P  
01/18/2016 12:30 MST1.1P  0.96P  0.00P  
01/18/2016 12:45 MST1.1P  0.96P  0.00P  
01/18/2016 13:00 MST1.1P  0.96P  0.00P  
01/18/2016 13:15 MST1.1P  0.97P  0.00P  
01/18/2016 13:30 MST1.1P  0.97P  0.00P  
01/18/2016 13:45 MST1.1P  0.97P  0.00P  
01/18/2016 14:00 MST1.1P  0.97P  0.00P  
01/18/2016 14:15 MST1.1P  0.97P  0.00P  
01/18/2016 14:30 MST1.1P  0.97P  0.00P  
01/18/2016 14:45 MST1.1P  0.96P  0.00P  
01/18/2016 15:00 MST1.1P  0.96P  0.00P  
01/18/2016 15:15 MST1.1P  0.96P  0.00P  
01/18/2016 15:30 MST1.0P  0.95P  0.00P  
01/18/2016 15:45 MST1.1P  0.96P  0.00P  
01/18/2016 16:00 MST1.1P  0.96P  0.00P  
01/18/2016 16:15 MST1.1P  0.96P  0.00P  
01/18/2016 16:30 MST1.1P  0.96P  0.00P  
01/18/2016 16:45 MST1.0P  0.95P  0.00P  
01/18/2016 17:00 MST1.1P  0.96P  0.00P  
01/18/2016 17:15 MST1.1P  0.96P  0.00P  
01/18/2016 17:30 MST1.1P  0.96P  0.00P  
01/18/2016 17:45 MST1.1P  0.96P  0.00P  
01/18/2016 18:00 MST1.1P  0.96P  0.00P  
01/18/2016 18:15 MST1.1P  0.96P  0.00P  
01/18/2016 18:30 MST1.1P  0.96P  0.00P  
01/18/2016 18:45 MST1.0P  0.95P  0.00P  
01/18/2016 19:00 MST1.0P  0.95P  0.00P  
01/18/2016 19:15 MST1.0P  0.95P  0.00P  
01/18/2016 19:30 MST1.0P  0.95P  0.00P  
01/18/2016 19:45 MST1.0P  0.94P  0.00P  
01/18/2016 20:00 MST1.0P  0.95P  0.00P  
01/18/2016 20:15 MST1.0P  0.95P  0.00P  
01/18/2016 20:30 MST1.0P  0.95P  0.00P  
01/18/2016 20:45 MST1.1P  0.96P  0.00P  
01/18/2016 21:00 MST1.0P  0.95P  0.00P  
01/18/2016 21:15 MST1.0P  0.95P  0.00P  
01/18/2016 21:30 MST1.1P  0.96P  0.00P  
01/18/2016 21:45 MST1.0P  0.95P  0.00P  
01/18/2016 22:00 MST1.0P  0.95P  0.00P  
01/18/2016 22:15 MST1.1P  0.96P  0.00P  
01/18/2016 22:30 MST1.1P  0.97P  0.00P  
01/18/2016 22:45 MST1.1P  0.96P  0.00P  
01/18/2016 23:00 MST1.1P  0.96P  0.00P  
01/18/2016 23:15 MST1.1P  0.96P  0.00P  
01/18/2016 23:30 MST1.1P  0.96P  0.00P  
01/18/2016 23:45 MST1.1P  0.97P  0.00P  
01/19/2016 00:00 MST1.1P  0.97P  0.00P  
01/19/2016 00:15 MST1.1P  0.97P  0.00P  
01/19/2016 00:30 MST1.1P  0.97P  0.00P  
01/19/2016 00:45 MST1.1P  0.97P  0.00P  
01/19/2016 01:00 MST1.1P  0.97P  0.00P  
01/19/2016 01:15 MST1.1P  0.97P  0.00P  
01/19/2016 01:30 MST1.1P  0.97P  0.00P  
01/19/2016 01:45 MST1.1P  0.96P  0.00P  
01/19/2016 02:00 MST1.1P  0.96P  0.00P  
01/19/2016 02:15 MST1.1P  0.97P  0.00P  
01/19/2016 02:30 MST1.1P  0.97P  0.00P  
01/19/2016 02:45 MST1.1P  0.97P  0.00P  
01/19/2016 03:00 MST1.1P  0.97P  0.00P  
01/19/2016 03:15 MST1.1P  0.97P  0.00P  
01/19/2016 03:30 MST1.1P  0.96P  0.00P  
01/19/2016 03:45 MST1.1P  0.97P  0.00P  
01/19/2016 04:00 MST1.1P  0.97P  0.00P  
01/19/2016 04:15 MST1.1P  0.97P  0.00P  
01/19/2016 04:30 MST1.1P  0.97P  0.00P  
01/19/2016 04:45 MST1.1P  0.97P  0.00P  
01/19/2016 05:00 MST1.1P  0.97P  0.00P  
01/19/2016 05:15 MST1.1P  0.97P  0.00P  
01/19/2016 05:30 MST1.1P  0.97P  0.00P  
01/19/2016 05:45 MST1.1P  0.97P  0.00P  
01/19/2016 06:00 MST1.1P  0.97P  0.00P  
01/19/2016 06:15 MST1.2P  0.98P  0.00P  
01/19/2016 06:30 MST1.1P  0.97P  0.00P  
01/19/2016 06:45 MST1.0P  0.95P  0.00P  
01/19/2016 07:00 MST1.2P  0.99P  0.00P  
01/19/2016 07:15 MST1.1P  0.97P  0.00P  
01/19/2016 07:30 MST1.1P  0.97P  0.00P  
01/19/2016 07:45 MST1.1P  0.96P  0.00P  
01/19/2016 08:00 MST1.1P  0.97P  0.00P  
01/19/2016 08:15 MST1.2P  0.99P  0.00P  
01/19/2016 08:30 MST1.1P  0.97P  0.00P  
01/19/2016 08:45 MST1.1P  0.97P  0.00P  
01/19/2016 09:00 MST1.1P  0.97P  0.00P  
01/19/2016 09:15 MST1.1P  0.96P  0.00P  
01/19/2016 09:30 MST1.0P  0.95P  0.00P  
01/19/2016 09:45 MST1.1P  0.97P  0.00P  
01/19/2016 10:00 MST1.2P  0.98P  0.00P  
01/19/2016 10:15 MST1.1P  0.96P  0.00P  
01/19/2016 10:30 MST1.1P  0.97P  0.00P  
01/19/2016 10:45 MST1.2P  0.99P  0.00P  
01/19/2016 11:00 MST1.2P  0.99P  0.00P  
01/19/2016 11:15 MST1.3P  1.00P  0.00P  
01/19/2016 11:30 MST1.1P  0.97P  0.00P  
01/19/2016 11:45 MST1.2P  0.98P  0.00P  
01/19/2016 12:00 MST1.2P  0.98P  0.00P  
01/19/2016 12:15 MST1.2P  0.99P  0.00P  
01/19/2016 12:30 MST1.2P  0.98P  0.00P  
01/19/2016 12:45 MST1.2P  0.99P  0.00P  
01/19/2016 13:00 MST1.1P  0.97P  0.00P  
01/19/2016 13:15 MST1.2P  0.98P  0.00P  
01/19/2016 13:30 MST1.2P  0.98P  0.00P  
01/19/2016 13:45 MST1.2P  0.98P  0.00P  
01/19/2016 14:00 MST1.1P  0.97P  0.00P  
01/19/2016 14:15 MST1.2P  0.98P  0.00P  
01/19/2016 14:30 MST1.3P  1.00P  0.00P  
01/19/2016 14:45 MST1.3P  1.00P  0.00P  
01/19/2016 15:00 MST1.1P  0.96P  0.00P  
01/19/2016 15:15 MST1.3P  1.00P  0.00P  
01/19/2016 15:30 MST1.1P  0.97P  0.00P  
01/19/2016 15:45 MST1.1P  0.97P  0.00P  
01/19/2016 16:00 MST1.1P  0.97P  0.00P  
01/19/2016 16:15 MST1.2P  0.98P  0.00P  
01/19/2016 16:30 MST1.1P  0.97P  0.00P  
01/19/2016 16:45 MST1.2P  0.98P  0.00P  
01/19/2016 17:00 MST1.2P  0.98P  0.00P  
01/19/2016 17:15 MST1.2P  0.98P  0.00P  
01/19/2016 17:30 MST1.1P  0.97P  0.00P  
01/19/2016 17:45 MST1.1P  0.97P  0.00P  
01/19/2016 18:00 MST1.1P  0.97P  0.00P  
01/19/2016 18:15 MST1.2P  0.98P  0.00P  
01/19/2016 18:30 MST1.2P  0.98P  0.00P  
01/19/2016 18:45 MST1.1P  0.97P  0.00P  
01/19/2016 19:00 MST1.2P  0.98P  0.00P  
01/19/2016 19:15 MST1.1P  0.97P  0.00P  
01/19/2016 19:30 MST1.2P  0.99P  0.00P  
01/19/2016 19:45 MST1.2P  0.99P  0.00P  
01/19/2016 20:00 MST1.2P  0.99P  0.00P  
01/19/2016 20:15 MST1.2P  0.99P  0.00P  
01/19/2016 20:30 MST1.2P  0.99P  0.00P  
01/19/2016 20:45 MST1.2P  0.99P  0.00P  
01/19/2016 21:00 MST1.2P  0.99P  0.00P  
01/19/2016 21:15 MST1.3P  1.00P  0.00P  
01/19/2016 21:30 MST1.3P  1.00P  0.00P  
01/19/2016 21:45 MST1.3P  1.00P  0.00P  
01/19/2016 22:00 MST1.3P  1.00P  0.00P  
01/19/2016 22:15 MST1.2P  0.99P  0.00P  
01/19/2016 22:30 MST1.3P  1.00P  0.00P  
01/19/2016 22:45 MST1.3P  1.00P  0.00P  
01/19/2016 23:00 MST1.3P  1.00P  0.00P  
01/19/2016 23:15 MST1.2P  0.99P  0.00P  
01/19/2016 23:30 MST1.3P  1.00P  0.00P  
01/19/2016 23:45 MST1.2P  0.98P  0.00P  
01/20/2016 00:00 MST1.2P  0.99P  0.00P  
01/20/2016 00:15 MST1.3P  1.00P  0.00P  
01/20/2016 00:30 MST1.2P  0.99P  0.00P  
01/20/2016 00:45 MST1.3P  1.00P  0.00P  
01/20/2016 01:00 MST1.3P  1.00P  0.00P  
01/20/2016 01:15 MST1.3P  1.00P  0.00P  
01/20/2016 01:30 MST1.1P  0.96P  0.00P  
01/20/2016 01:45 MST1.1P  0.96P  0.00P  
01/20/2016 02:00 MST1.2P  0.98P  0.00P  
01/20/2016 02:15 MST1.2P  0.99P  0.00P  
01/20/2016 02:30 MST1.2P  0.99P  0.00P  
01/20/2016 02:45 MST1.3P  1.00P  0.00P  
01/20/2016 03:00 MST1.3P  1.00P  0.00P  
01/20/2016 03:15 MST1.3P  1.00P  0.00P  
01/20/2016 03:30 MST1.2P  0.99P  0.00P  
01/20/2016 03:45 MST1.3P  1.00P  0.00P  
01/20/2016 04:00 MST1.1P  0.96P  0.00P  
01/20/2016 04:15 MST1.3P  1.00P  0.00P  
01/20/2016 04:30 MST1.2P  0.99P  0.00P  
01/20/2016 04:45 MST1.2P  0.99P  0.00P  
01/20/2016 05:00 MST1.3P  1.00P  0.00P  
01/20/2016 05:15 MST1.1P  0.97P  0.00P  
01/20/2016 05:30 MST1.1P  0.97P  0.00P  
01/20/2016 05:45 MST1.1P  0.96P  0.00P  
01/20/2016 06:00 MST1.2P  0.99P  0.00P  
01/20/2016 06:15 MST1.2P  0.98P  0.00P  
01/20/2016 06:30 MST1.2P  0.98P  0.00P  
01/20/2016 06:45 MST1.3P  1.00P  0.00P  
01/20/2016 07:00 MST1.1P  0.97P  0.00P  
01/20/2016 07:15 MST1.1P  0.97P  0.00P  
01/20/2016 07:30 MST1.3P  1.00P  0.00P  
01/20/2016 07:45 MST1.3P  1.00P  0.00P  
01/20/2016 08:00 MST1.3P  1.00P  0.00P  
01/20/2016 08:15 MST1.3P  1.01P  0.00P  
01/20/2016 08:30 MST1.1P  0.96P  0.00P  
01/20/2016 08:45 MST1.1P  0.97P  0.00P  
01/20/2016 09:00 MST1.1P  0.97P  0.00P  
01/20/2016 09:15 MST1.1P  0.97P  0.00P  
01/20/2016 09:30 MST1.2P  0.98P  0.00P  
01/20/2016 09:45 MST1.1P  0.96P  0.00P  
01/20/2016 10:00 MST1.1P  0.97P  0.00P  
01/20/2016 10:15 MST1.3P  1.00P  0.00P  
01/20/2016 10:30 MST1.1P  0.97P  0.00P  
01/20/2016 10:45 MST1.1P  0.96P  0.00P  
01/20/2016 11:00 MST1.1P  0.97P  0.00P  
01/20/2016 11:15 MST1.1P  0.96P  0.00P  
01/20/2016 11:30 MST1.1P  0.96P  0.00P  
01/20/2016 11:45 MST1.1P  0.96P  0.00P  
01/20/2016 12:00 MST1.1P  0.97P  0.00P  
01/20/2016 12:15 MST1.3P  1.00P  0.00P  
01/20/2016 12:30 MST1.1P  0.96P  0.00P  
01/20/2016 12:45 MST1.1P  0.96P  0.00P  
01/20/2016 13:00 MST1.1P  0.96P  0.00P  
01/20/2016 13:15 MST1.1P  0.96P  0.00P  
01/20/2016 13:30 MST1.1P  0.97P  0.00P  
01/20/2016 13:45 MST1.1P  0.97P  0.00P  
01/20/2016 14:00 MST1.1P  0.97P  0.00P  
01/20/2016 14:15 MST1.2P  0.98P  0.00P  
01/20/2016 14:30 MST1.1P  0.97P  0.00P  
01/20/2016 14:45 MST1.2P  0.98P  0.00P  
01/20/2016 15:00 MST1.1P  0.96P  0.00P  
01/20/2016 15:15 MST1.1P  0.97P  0.00P  
01/20/2016 15:30 MST1.1P  0.97P  0.00P  
01/20/2016 15:45 MST1.1P  0.96P  0.00P  
01/20/2016 16:00 MST1.3P  1.00P  0.00P  
01/20/2016 16:15 MST1.1P  0.97P  0.00P  
01/20/2016 16:30 MST1.1P  0.96P  0.00P  
01/20/2016 16:45 MST1.1P  0.96P  0.00P  
01/20/2016 17:00 MST1.1P  0.96P  0.00P  
01/20/2016 17:15 MST1.1P  0.96P  0.00P  
01/20/2016 17:30 MST1.1P  0.97P  0.00P  
01/20/2016 17:45 MST1.0P  0.95P  0.00P  
01/20/2016 18:00 MST1.1P  0.96P  0.00P  
01/20/2016 18:15 MST1.0P  0.95P  0.00P  
01/20/2016 18:30 MST1.1P  0.96P  0.00P  
01/20/2016 18:45 MST1.2P  0.98P  0.00P  
01/20/2016 19:00 MST1.2P  0.98P  0.00P  
01/20/2016 19:15 MST1.1P  0.96P  0.00P  
01/20/2016 19:30 MST1.1P  0.97P  0.00P  
01/20/2016 19:45 MST1.0P  0.95P  0.00P  
01/20/2016 20:00 MST1.1P  0.97P  0.00P  
01/20/2016 20:15 MST1.0P  0.94P  0.00P  
01/20/2016 20:30 MST1.2P  0.98P  0.00P  
01/20/2016 20:45 MST1.1P  0.96P  0.00P  
01/20/2016 21:00 MST1.1P  0.96P  0.00P  
01/20/2016 21:15 MST1.0P  0.95P  0.00P  
01/20/2016 21:30 MST1.0P  0.95P  0.00P  
01/20/2016 21:45 MST1.0P  0.95P  0.00P  
01/20/2016 22:00 MST1.0P  0.95P  0.00P  
01/20/2016 22:15 MST1.1P  0.96P  0.00P  
01/20/2016 22:30 MST1.1P  0.96P  0.00P  
01/20/2016 22:45 MST1.1P  0.97P  0.00P  
01/20/2016 23:00 MST1.1P  0.97P  0.00P  
01/20/2016 23:15 MST1.0P  0.95P  0.00P  
01/20/2016 23:30 MST1.1P  0.97P  0.00P  
01/20/2016 23:45 MST1.1P  0.96P  0.00P  
01/21/2016 00:00 MST1.1P  0.96P  0.00P  
01/21/2016 00:15 MST1.1P  0.97P  0.00P  
01/21/2016 00:30 MST1.1P  0.97P  0.00P  
01/21/2016 00:45 MST1.1P  0.97P  0.00P  
01/21/2016 01:00 MST1.1P  0.97P  0.00P  
01/21/2016 01:15 MST1.2P  0.98P  0.00P  
01/21/2016 01:30 MST1.1P  0.97P  0.00P  
01/21/2016 01:45 MST1.2P  0.98P  0.00P  
01/21/2016 02:00 MST1.1P  0.97P  0.00P  
01/21/2016 02:15 MST1.1P  0.97P  0.00P  
01/21/2016 02:30 MST1.2P  0.98P  0.00P  
01/21/2016 02:45 MST1.1P  0.97P  0.00P  
01/21/2016 03:00 MST1.1P  0.96P  0.00P  
01/21/2016 03:15 MST1.1P  0.97P  0.00P  
01/21/2016 03:30 MST1.2P  0.98P  0.00P  
01/21/2016 03:45 MST1.2P  0.98P  0.00P  
01/21/2016 04:00 MST1.2P  0.98P  0.00P  
01/21/2016 04:15 MST1.1P  0.97P  0.00P  
01/21/2016 04:30 MST1.2P  0.98P  0.00P  
01/21/2016 04:45 MST1.2P  0.98P  0.00P  
01/21/2016 05:00 MST1.1P  0.97P  0.00P  
01/21/2016 05:15 MST1.1P  0.97P  0.00P  
01/21/2016 05:30 MST1.1P  0.97P  0.00P  
01/21/2016 05:45 MST1.1P  0.97P  0.00P  
01/21/2016 06:00 MST1.2P  0.98P  0.00P  
01/21/2016 06:15 MST1.2P  0.98P  0.00P  
01/21/2016 06:30 MST1.2P  0.99P  0.00P  
01/21/2016 06:45 MST1.2P  0.99P  0.00P  
01/21/2016 07:00 MST1.0P  0.94P  0.00P  
01/21/2016 07:15 MST1.2P  0.99P  0.00P  
01/21/2016 07:30 MST1.2P  0.99P  0.00P  
01/21/2016 07:45 MST1.2P  0.99P  0.00P  
01/21/2016 08:00 MST1.2P  0.99P  0.00P  
01/21/2016 08:15 MST1.2P  0.98P  0.00P  
01/21/2016 08:30 MST1.2P  0.99P  0.00P  
01/21/2016 08:45 MST1.1P  0.96P  0.00P  
01/21/2016 09:00 MST1.2P  0.98P  0.00P  
01/21/2016 09:15 MST1.2P  0.98P  0.00P  
01/21/2016 09:30 MST1.2P  0.99P  0.00P  
01/21/2016 09:45 MST1.1P  0.97P  0.00P  
01/21/2016 10:00 MST1.2P  0.98P  0.00P  
01/21/2016 10:15 MST1.2P  0.99P  0.00P  
01/21/2016 10:30 MST1.2P  0.98P  0.00P  
01/21/2016 10:45 MST1.2P  0.98P  0.00P  
01/21/2016 11:00 MST1.2P  0.98P  0.00P  
01/21/2016 11:15 MST1.2P  0.98P  0.00P  
01/21/2016 11:30 MST1.2P  0.98P  0.00P  
01/21/2016 11:45 MST1.2P  0.98P  0.00P  
01/21/2016 12:00 MST1.1P  0.97P  0.00P  
01/21/2016 12:15 MST1.2P  0.99P  0.00P  
01/21/2016 12:30 MST1.2P  0.98P  0.00P  
01/21/2016 12:45 MST1.2P  0.99P  0.00P  
01/21/2016 13:00 MST1.3P  1.00P  0.00P  
01/21/2016 13:15 MST1.2P  0.98P  0.00P  
01/21/2016 13:30 MST1.0P  0.95P  0.00P  
01/21/2016 13:45 MST1.1P  0.97P  0.00P  
01/21/2016 14:00 MST1.2P  0.98P  0.00P  
01/21/2016 14:15 MST1.1P  0.97P  0.00P  
01/21/2016 14:30 MST1.1P  0.96P  0.00P  
01/21/2016 14:45 MST1.1P  0.97P  0.00P  
01/21/2016 15:00 MST1.2P  0.98P  0.00P  
01/21/2016 15:15 MST1.2P  0.99P  0.00P  
01/21/2016 15:30 MST1.1P  0.96P  0.00P  
01/21/2016 15:45 MST1.1P  0.97P  0.00P  
01/21/2016 16:00 MST1.2P  0.98P  0.00P  
01/21/2016 16:15 MST1.2P  0.98P  0.00P  
01/21/2016 16:30 MST1.2P  0.99P  0.00P  
01/21/2016 16:45 MST1.3P  1.00P  0.00P  
01/21/2016 17:00 MST1.0P  0.94P  0.00P  
01/21/2016 17:15 MST1.1P  0.96P  0.00P  
01/21/2016 17:30 MST1.1P  0.97P  0.00P  
01/21/2016 17:45 MST1.3P  1.00P  0.00P  
01/21/2016 18:00 MST1.3P  1.00P  0.00P  
01/21/2016 18:15 MST1.1P  0.97P  0.00P  
01/21/2016 18:30 MST1.2P  0.98P  0.00P  
01/21/2016 18:45 MST1.2P  0.99P  0.00P  
01/21/2016 19:00 MST1.2P  0.99P  0.00P  
01/21/2016 19:15 MST1.2P  0.99P  0.00P  
01/21/2016 19:30 MST1.2P  0.99P  0.00P  
01/21/2016 19:45 MST1.2P  0.99P  0.00P  
01/21/2016 20:00 MST1.2P  0.99P  0.00P  
01/21/2016 20:15 MST1.2P  0.99P  0.00P  
01/21/2016 20:30 MST1.1P  0.96P  0.00P  
01/21/2016 20:45 MST1.1P  0.96P  0.00P  
01/21/2016 21:00 MST1.1P  0.97P  0.00P  
01/21/2016 21:15 MST1.1P  0.97P  0.00P  
01/21/2016 21:30 MST1.2P  0.98P  0.00P  
01/21/2016 21:45 MST1.2P  0.99P  0.00P  
01/21/2016 22:00 MST1.2P  0.98P  0.00P  
01/21/2016 22:15 MST1.1P  0.97P  0.00P  
01/21/2016 22:30 MST1.1P  0.97P  0.00P  
01/21/2016 22:45 MST1.1P  0.97P  0.00P  
01/21/2016 23:00 MST1.1P  0.97P  0.00P  
01/21/2016 23:15 MST1.2P  0.98P  0.00P  
01/21/2016 23:30 MST1.2P  0.98P  0.00P  
01/21/2016 23:45 MST1.0P  0.95P  0.00P  
01/22/2016 00:00 MST1.2P  0.98P  0.00P  
01/22/2016 00:15 MST1.2P  0.98P  0.00P  
01/22/2016 00:30 MST1.2P  0.98P  0.00P  
01/22/2016 00:45 MST1.2P  0.98P  0.00P  
01/22/2016 01:00 MST1.2P  0.98P  0.00P  
01/22/2016 01:15 MST1.2P  0.98P  0.00P  
01/22/2016 01:30 MST1.1P  0.97P  0.00P  
01/22/2016 01:45 MST1.1P  0.97P  0.00P  
01/22/2016 02:00 MST1.2P  0.98P  0.00P  
01/22/2016 02:15 MST1.2P  0.98P  0.00P  
01/22/2016 02:30 MST1.2P  0.98P  0.00P  
01/22/2016 02:45 MST1.1P  0.97P  0.00P  
01/22/2016 03:00 MST1.2P  0.99P  0.00P  
01/22/2016 03:15 MST1.2P  0.98P  0.00P  
01/22/2016 03:30 MST1.2P  0.98P  0.00P  
01/22/2016 03:45 MST1.2P  0.98P  0.00P  
01/22/2016 04:00 MST1.1P  0.97P  0.00P  
01/22/2016 04:15 MST1.2P  0.98P  0.00P  
01/22/2016 04:30 MST1.2P  0.98P  0.00P  
01/22/2016 04:45 MST1.2P  0.99P  0.00P  
01/22/2016 05:00 MST1.2P  0.98P  0.00P  
01/22/2016 05:15 MST1.1P  0.97P  0.00P  
01/22/2016 05:30 MST1.2P  0.98P  0.00P  
01/22/2016 05:45 MST1.2P  0.98P  0.00P  
01/22/2016 06:00 MST1.2P  0.98P  0.00P  
01/22/2016 06:15 MST1.2P  0.98P  0.00P  
01/22/2016 06:30 MST1.2P  0.98P  0.00P  
01/22/2016 06:45 MST1.2P  0.98P  0.00P  
01/22/2016 07:00 MST1.2P  0.98P  0.00P  
01/22/2016 07:15 MST1.2P  0.98P  0.00P  
01/22/2016 07:30 MST1.2P  0.98P  0.00P  
01/22/2016 07:45 MST1.2P  0.98P  0.00P  
01/22/2016 08:00 MST1.2P  0.98P  0.00P  
01/22/2016 08:15 MST1.1P  0.97P  0.00P  
01/22/2016 08:30 MST1.2P  0.98P  0.00P  
01/22/2016 08:45 MST1.2P  0.98P  0.00P  
01/22/2016 09:00 MST1.2P  0.98P  0.00P  
01/22/2016 09:15 MST1.2P  0.98P  0.00P  
01/22/2016 09:30 MST1.2P  0.98P  0.00P  
01/22/2016 09:45 MST1.2P  0.98P  0.00P  
01/22/2016 10:00 MST1.2P  0.98P  0.00P  
01/22/2016 10:15 MST1.2P  0.98P  0.00P  
01/22/2016 10:30 MST1.2P  0.98P  0.00P  
01/22/2016 10:45 MST1.2P  0.98P  0.00P  
01/22/2016 11:00 MST1.2P  0.98P  0.00P  
01/22/2016 11:15 MST1.2P  0.98P  0.00P  
01/22/2016 11:30 MST1.2P  0.99P  0.00P  
01/22/2016 11:45 MST1.2P  0.98P  0.00P  
01/22/2016 12:00 MST1.2P  0.98P  0.00P  
01/22/2016 12:15 MST1.2P  0.98P  0.00P  
01/22/2016 12:30 MST1.2P  0.98P  0.00P  
01/22/2016 12:45 MST1.2P  0.99P  0.00P  
01/22/2016 13:00 MST1.2P  0.98P  0.00P  
01/22/2016 13:15 MST1.2P  0.98P  0.00P  
01/22/2016 13:30 MST1.2P  0.99P  0.00P  
01/22/2016 13:45 MST1.2P  0.99P  0.00P  
01/22/2016 14:00 MST1.2P  0.98P  0.00P  
01/22/2016 14:15 MST1.2P  0.99P  0.00P  
01/22/2016 14:30 MST1.2P  0.98P  0.00P  
01/22/2016 14:45 MST1.2P  0.98P  0.00P  
01/22/2016 15:00 MST1.2P  0.99P  0.00P  
01/22/2016 15:15 MST1.2P  0.98P  0.00P  
01/22/2016 15:30 MST1.1P  0.96P  0.00P  
01/22/2016 15:45 MST1.2P  0.98P  0.00P  
01/22/2016 16:00 MST1.2P  0.98P  0.00P  
01/22/2016 16:15 MST1.2P  0.98P  0.00P  
01/22/2016 16:30 MST1.2P  0.98P  0.00P  
01/22/2016 16:45 MST1.2P  0.98P  0.00P  
01/22/2016 17:00 MST1.2P  0.98P  0.00P  
01/22/2016 17:15 MST1.2P  0.98P  0.00P  
01/22/2016 17:30 MST1.1P  0.97P  0.00P  
01/22/2016 17:45 MST1.2P  0.98P  0.00P  
01/22/2016 18:00 MST1.2P  0.98P  0.00P  
01/22/2016 18:15 MST1.2P  0.98P  0.00P  
01/22/2016 18:30 MST1.2P  0.98P  0.00P  
01/22/2016 18:45 MST1.2P  0.98P  0.00P  
01/22/2016 19:00 MST1.2P  0.98P  0.00P  
01/22/2016 19:15 MST1.1P  0.97P  0.00P  
01/22/2016 19:30 MST1.3P  1.00P  0.00P  
01/22/2016 19:45 MST1.2P  0.99P  0.00P  
01/22/2016 20:00 MST1.1P  0.97P  0.00P  
01/22/2016 20:15 MST1.1P  0.97P  0.00P  
01/22/2016 20:30 MST1.2P  0.98P  0.00P  
01/22/2016 20:45 MST1.2P  0.98P  0.00P  
01/22/2016 21:00 MST1.0P  0.95P  0.00P  
01/22/2016 21:15 MST1.1P  0.96P  0.00P  
01/22/2016 21:30 MST1.0P  0.95P  0.00P  
01/22/2016 21:45 MST1.2P  0.98P  0.00P  
01/22/2016 22:00 MST1.2P  0.98P  0.00P  
01/22/2016 22:15 MST1.2P  0.98P  0.00P  
01/22/2016 22:30 MST1.2P  0.98P  0.00P  
01/22/2016 22:45 MST1.2P  0.98P  0.00P  
01/22/2016 23:00 MST1.2P  0.98P  0.00P  
01/22/2016 23:15 MST1.2P  0.98P  0.00P  
01/22/2016 23:30 MST1.1P  0.97P  0.00P  
01/22/2016 23:45 MST1.1P  0.97P  0.00P  
01/23/2016 00:00 MST1.1P  0.97P  0.00P  
01/23/2016 00:15 MST1.1P  0.97P  0.00P  
01/23/2016 00:30 MST1.1P  0.97P  0.00P  
01/23/2016 00:45 MST1.1P  0.96P  0.00P  
01/23/2016 01:00 MST1.2P  0.98P  0.00P  
01/23/2016 01:15 MST1.2P  0.98P  0.00P  
01/23/2016 01:30 MST1.1P  0.97P  0.00P  
01/23/2016 01:45 MST1.1P  0.97P  0.00P  
01/23/2016 02:00 MST1.2P  0.98P  0.00P  
01/23/2016 02:15 MST1.2P  0.98P  0.00P  
01/23/2016 02:30 MST1.1P  0.97P  0.00P  
01/23/2016 02:45 MST1.1P  0.97P  0.00P  
01/23/2016 03:00 MST1.1P  0.97P  0.00P  
01/23/2016 03:15 MST1.2P  0.98P  0.00P  
01/23/2016 03:30 MST1.2P  0.98P  0.00P  
01/23/2016 03:45 MST1.2P  0.99P  0.00P  
01/23/2016 04:00 MST1.1P  0.97P  0.00P  
01/23/2016 04:15 MST1.1P  0.97P  0.00P  
01/23/2016 04:30 MST1.1P  0.97P  0.00P  
01/23/2016 04:45 MST1.1P  0.97P  0.00P  
01/23/2016 05:00 MST1.2P  0.98P  0.00P  
01/23/2016 05:15 MST1.1P  0.97P  0.00P  
01/23/2016 05:30 MST1.1P  0.97P  0.00P  
01/23/2016 05:45 MST1.2P  0.98P  0.00P  
01/23/2016 06:00 MST1.1P  0.97P  0.00P  
01/23/2016 06:15 MST1.0P  0.95P  0.00P  
01/23/2016 06:30 MST1.1P  0.97P  0.00P  
01/23/2016 06:45 MST1.1P  0.97P  0.00P  
01/23/2016 07:00 MST1.1P  0.96P  0.00P  
01/23/2016 07:15 MST1.1P  0.96P  0.00P  
01/23/2016 07:30 MST1.1P  0.96P  0.00P  
01/23/2016 07:45 MST1.1P  0.96P  0.00P  
01/23/2016 08:00 MST1.1P  0.96P  0.00P  
01/23/2016 08:15 MST1.1P  0.96P  0.00P  
01/23/2016 08:30 MST1.1P  0.96P  0.00P  
01/23/2016 08:45 MST1.1P  0.96P  0.00P  
01/23/2016 09:00 MST1.1P  0.96P  0.00P  
01/23/2016 09:15 MST1.1P  0.96P  0.00P  
01/23/2016 09:30 MST1.1P  0.96P  0.00P  
01/23/2016 09:45 MST1.2P  0.98P  0.00P  
01/23/2016 10:00 MST1.1P  0.96P  0.00P  
01/23/2016 10:15 MST1.1P  0.96P  0.00P  
01/23/2016 10:30 MST1.1P  0.96P  0.00P  
01/23/2016 10:45 MST1.1P  0.96P  0.00P  
01/23/2016 11:00 MST1.1P  0.96P  0.00P  
01/23/2016 11:15 MST1.1P  0.96P  0.00P  
01/23/2016 11:30 MST1.1P  0.97P  0.00P  
01/23/2016 11:45 MST1.1P  0.96P  0.00P  
01/23/2016 12:00 MST1.1P  0.97P  0.00P  
01/23/2016 12:15 MST1.1P  0.96P  0.00P  
01/23/2016 12:30 MST1.1P  0.96P  0.00P  
01/23/2016 12:45 MST1.1P  0.96P  0.00P  
01/23/2016 13:00 MST1.1P  0.97P  0.00P  
01/23/2016 13:15 MST1.1P  0.96P  0.00P  
01/23/2016 13:30 MST1.1P  0.97P  0.00P  
01/23/2016 13:45 MST1.1P  0.97P  0.00P  
01/23/2016 14:00 MST1.1P  0.97P  0.00P  
01/23/2016 14:15 MST1.1P  0.97P  0.00P  
01/23/2016 14:30 MST1.1P  0.97P  0.00P  
01/23/2016 14:45 MST1.1P  0.97P  0.00P  
01/23/2016 15:00 MST1.1P  0.97P  0.00P  
01/23/2016 15:15 MST1.1P  0.97P  0.00P  
01/23/2016 15:30 MST1.1P  0.97P  0.00P  
01/23/2016 15:45 MST1.1P  0.97P  0.00P  
01/23/2016 16:00 MST1.1P  0.97P  0.00P  
01/23/2016 16:15 MST1.1P  0.97P  0.00P  
01/23/2016 16:30 MST1.1P  0.97P  0.00P  
01/23/2016 16:45 MST1.1P  0.97P  0.00P  
01/23/2016 17:00 MST1.1P  0.97P  0.00P  
01/23/2016 17:15 MST1.1P  0.97P  0.00P  
01/23/2016 17:30 MST1.1P  0.97P  0.00P  
01/23/2016 17:45 MST1.1P  0.97P  0.00P  
01/23/2016 18:00 MST1.1P  0.97P  0.00P  
01/23/2016 18:15 MST1.1P  0.97P  0.00P  
01/23/2016 18:30 MST1.1P  0.97P  0.00P  
01/23/2016 18:45 MST1.1P  0.96P  0.00P  
01/23/2016 19:00 MST1.1P  0.97P  0.00P  
01/23/2016 19:15 MST1.1P  0.97P  0.00P  
01/23/2016 19:30 MST1.1P  0.97P  0.00P  
01/23/2016 19:45 MST1.1P  0.96P  0.00P  
01/23/2016 20:00 MST1.1P  0.96P  0.00P  
01/23/2016 20:15 MST1.1P  0.96P  0.00P  
01/23/2016 20:30 MST1.0P  0.95P  0.00P  
01/23/2016 20:45 MST1.1P  0.96P  0.00P  
01/23/2016 21:00 MST1.1P  0.96P  0.00P  
01/23/2016 21:15 MST1.1P  0.97P  0.00P  
01/23/2016 21:30 MST1.1P  0.97P  0.00P  
01/23/2016 21:45 MST1.1P  0.96P  0.00P  
01/23/2016 22:00 MST1.1P  0.96P  0.00P  
01/23/2016 22:15 MST1.1P  0.96P  0.00P  
01/23/2016 22:30 MST1.1P  0.96P  0.00P  
01/23/2016 22:45 MST1.1P  0.96P  0.00P  
01/23/2016 23:00 MST1.1P  0.96P  0.00P  
01/23/2016 23:15 MST1.1P  0.96P  0.00P  
01/23/2016 23:30 MST1.1P  0.96P  0.00P  
01/23/2016 23:45 MST1.1P  0.97P  0.00P  
01/24/2016 00:00 MST1.1P  0.96P  0.00P  
01/24/2016 00:15 MST1.1P  0.96P  0.00P  
01/24/2016 00:30 MST1.1P  0.96P  0.00P  
01/24/2016 00:45 MST1.2P  0.98P  0.00P  
01/24/2016 01:00 MST1.1P  0.97P  0.00P  
01/24/2016 01:15 MST1.1P  0.97P  0.00P  
01/24/2016 01:30 MST1.1P  0.97P  0.00P  
01/24/2016 01:45 MST1.2P  0.98P  0.00P  
01/24/2016 02:00 MST1.1P  0.97P  0.00P  
01/24/2016 02:15 MST1.1P  0.97P  0.00P  
01/24/2016 02:30 MST1.1P  0.97P  0.00P  
01/24/2016 02:45 MST1.1P  0.97P  0.00P  
01/24/2016 03:00 MST1.2P  0.98P  0.00P  
01/24/2016 03:15 MST1.1P  0.97P  0.00P  
01/24/2016 03:30 MST1.1P  0.97P  0.00P  
01/24/2016 03:45 MST1.1P  0.97P  0.00P  
01/24/2016 04:00 MST1.2P  0.98P  0.00P  
01/24/2016 04:15 MST1.2P  0.99P  0.00P  
01/24/2016 04:30 MST1.3P  1.00P  0.00P  
01/24/2016 04:45 MST1.3P  1.00P  0.00P  
01/24/2016 05:00 MST1.2P  0.99P  0.00P  
01/24/2016 05:15 MST1.0P  0.95P  0.00P  
01/24/2016 05:30 MST1.1P  0.96P  0.00P  
01/24/2016 05:45 MST1.2P  0.98P  0.00P  
01/24/2016 06:00 MST1.1P  0.97P  0.00P  
01/24/2016 06:15 MST1.2P  0.98P  0.00P  
01/24/2016 06:30 MST1.1P  0.96P  0.00P  
01/24/2016 06:45 MST1.1P  0.97P  0.00P  
01/24/2016 07:00 MST1.2P  0.98P  0.00P  
01/24/2016 07:15 MST1.2P  0.98P  0.00P  
01/24/2016 07:30 MST1.2P  0.98P  0.00P  
01/24/2016 07:45 MST1.2P  0.98P  0.00P  
01/24/2016 08:00 MST1.2P  0.98P  0.00P  
01/24/2016 08:15 MST1.2P  0.98P  0.00P  
01/24/2016 08:30 MST1.2P  0.98P  0.00P  
01/24/2016 08:45 MST1.1P  0.97P  0.00P  
01/24/2016 09:00 MST1.1P  0.97P  0.00P  
01/24/2016 09:15 MST1.1P  0.97P  0.00P  
01/24/2016 09:30 MST1.1P  0.97P  0.00P  
01/24/2016 09:45 MST1.1P  0.97P  0.00P  
01/24/2016 10:00 MST1.2P  0.98P  0.00P  
01/24/2016 10:15 MST1.2P  0.98P  0.00P  
01/24/2016 10:30 MST1.0P  0.95P  0.00P  
01/24/2016 10:45 MST1.1P  0.96P  0.00P  
01/24/2016 11:00 MST1.1P  0.96P  0.00P  
01/24/2016 11:15 MST1.1P  0.96P  0.00P  
01/24/2016 11:30 MST1.1P  0.96P  0.00P  
01/24/2016 11:45 MST1.1P  0.96P  0.00P  
01/24/2016 12:00 MST1.1P  0.97P  0.00P  
01/24/2016 12:15 MST1.1P  0.96P  0.00P  
01/24/2016 12:30 MST1.1P  0.96P  0.00P  
01/24/2016 12:45 MST1.1P  0.97P  0.00P  
01/24/2016 13:00 MST1.1P  0.97P  0.00P  
01/24/2016 13:15 MST1.1P  0.96P  0.00P  
01/24/2016 13:30 MST1.1P  0.97P  0.00P  
01/24/2016 13:45 MST1.1P  0.97P  0.00P  
01/24/2016 14:00 MST1.1P  0.96P  0.00P  
01/24/2016 14:15 MST1.1P  0.97P  0.00P  
01/24/2016 14:30 MST1.0P  0.95P  0.00P  
01/24/2016 14:45 MST1.2P  0.98P  0.00P  
01/24/2016 15:00 MST1.1P  0.97P  0.00P  
01/24/2016 15:15 MST1.1P  0.97P  0.00P  
01/24/2016 15:30 MST1.1P  0.96P  0.00P  
01/24/2016 15:45 MST1.1P  0.96P  0.00P  
01/24/2016 16:00 MST1.1P  0.96P  0.00P  
01/24/2016 16:15 MST1.1P  0.97P  0.00P  
01/24/2016 16:30 MST1.1P  0.97P  0.00P  
01/24/2016 16:45 MST1.1P  0.97P  0.00P  
01/24/2016 17:00 MST1.1P  0.97P  0.00P  
01/24/2016 17:15 MST1.1P  0.97P  0.00P  
01/24/2016 17:30 MST1.1P  0.97P  0.00P  
01/24/2016 17:45 MST1.1P  0.97P  0.00P  
01/24/2016 18:00 MST1.1P  0.97P  0.00P  
01/24/2016 18:15 MST1.1P  0.97P  0.00P  
01/24/2016 18:30 MST1.1P  0.97P  0.00P  
01/24/2016 18:45 MST1.1P  0.97P  0.00P  
01/24/2016 19:00 MST1.1P  0.97P  0.00P  
01/24/2016 19:15 MST1.1P  0.97P  0.00P  
01/24/2016 19:30 MST1.1P  0.97P  0.00P  
01/24/2016 19:45 MST1.1P  0.97P  0.00P  
01/24/2016 20:00 MST1.1P  0.97P  0.00P  
01/24/2016 20:15 MST1.1P  0.97P  0.00P  
01/24/2016 20:30 MST1.1P  0.97P  0.00P  
01/24/2016 20:45 MST1.1P  0.97P  0.00P  
01/24/2016 21:00 MST1.1P  0.96P  0.00P  
01/24/2016 21:15 MST1.1P  0.96P  0.00P  
01/24/2016 21:30 MST1.1P  0.96P  0.00P  
01/24/2016 21:45 MST1.1P  0.96P  0.00P  
01/24/2016 22:00 MST1.0P  0.95P  0.00P  
01/24/2016 22:15 MST1.0P  0.94P  0.00P  
01/24/2016 22:30 MST1.0P  0.95P  0.00P  
01/24/2016 22:45 MST1.1P  0.96P  0.00P  
01/24/2016 23:00 MST1.0P  0.94P  0.00P  
01/24/2016 23:15 MST1.0P  0.95P  0.00P  
01/24/2016 23:30 MST1.0P  0.95P  0.00P  
01/24/2016 23:45 MST1.0P  0.94P  0.00P  
01/25/2016 00:00 MST1.0P  0.94P  0.00P  
01/25/2016 00:15 MST1.0P  0.94P  0.00P  
01/25/2016 00:30 MST1.0P  0.95P  0.00P  
01/25/2016 00:45 MST1.0P  0.95P  0.00P  
01/25/2016 01:00 MST1.1P  0.97P  0.00P  
01/25/2016 01:15 MST1.1P  0.97P  0.00P  
01/25/2016 01:30 MST1.0P  0.95P  0.00P  
01/25/2016 01:45 MST1.2P  0.98P  0.00P  
01/25/2016 02:00 MST1.1P  0.97P  0.00P  
01/25/2016 02:15 MST1.0P  0.95P  0.00P  
01/25/2016 02:30 MST1.1P  0.96P  0.00P  
01/25/2016 02:45 MST1.1P  0.96P  0.00P  
01/25/2016 03:00 MST1.1P  0.97P  0.00P  
01/25/2016 03:15 MST1.0P  0.94P  0.00P  
01/25/2016 03:30 MST1.1P  0.97P  0.00P  
01/25/2016 03:45 MST1.1P  0.96P  0.00P  
01/25/2016 04:00 MST1.2P  0.98P  0.00P  
01/25/2016 04:15 MST1.1P  0.97P  0.00P  
01/25/2016 04:30 MST1.1P  0.97P  0.00P  
01/25/2016 04:45 MST1.2P  0.98P  0.00P  
01/25/2016 05:00 MST1.1P  0.97P  0.00P  
01/25/2016 05:15 MST1.0P  0.95P  0.00P  
01/25/2016 05:30 MST1.1P  0.96P  0.00P  
01/25/2016 05:45 MST1.0P  0.95P  0.00P  
01/25/2016 06:00 MST1.0P  0.94P  0.00P  
01/25/2016 06:15 MST1.0P  0.94P  0.00P  
01/25/2016 06:30 MST1.0P  0.94P  0.00P  
01/25/2016 06:45 MST1.0P  0.94P  0.00P  
01/25/2016 07:00 MST1.0P  0.94P  0.00P  
01/25/2016 07:15 MST0.97P  0.93P  0.00P  
01/25/2016 07:30 MST1.0P  0.94P  0.00P  
01/25/2016 07:45 MST1.0P  0.94P  0.00P  
01/25/2016 08:00 MST1.0P  0.95P  0.00P  
01/25/2016 08:15 MST1.0P  0.95P  0.00P  
01/25/2016 08:30 MST1.0P  0.94P  0.00P  
01/25/2016 08:45 MST1.0P  0.95P  0.00P  
01/25/2016 09:00 MST1.0P  0.94P  0.00P  
01/25/2016 09:15 MST1.0P  0.95P  0.00P  
01/25/2016 09:30 MST1.0P  0.95P  0.00P  
01/25/2016 09:45 MST1.1P  0.96P  0.00P  
01/25/2016 10:00 MST0.93P  0.92P  0.00P  
01/25/2016 10:15 MST1.0P  0.95P  0.00P  
01/25/2016 10:30 MST1.0P  0.95P  0.00P  
01/25/2016 10:45 MST1.0P  0.95P  0.00P  
01/25/2016 11:00 MST1.1P  0.96P  0.00P  
01/25/2016 11:15 MST1.0P  0.95P  0.00P  
01/25/2016 11:30 MST1.0P  0.95P  0.00P  
01/25/2016 11:45 MST1.0P  0.95P  0.00P  
01/25/2016 12:00 MST1.0P  0.95P  0.00P  
01/25/2016 12:15 MST1.1P  0.96P  0.00P  
01/25/2016 12:30 MST1.1P  0.96P  0.00P  
01/25/2016 12:45 MST1.1P  0.96P  0.00P  
01/25/2016 13:00 MST1.1P  0.96P  0.00P  
01/25/2016 13:15 MST1.1P  0.96P  0.00P  
01/25/2016 13:30 MST1.1P  0.96P  0.00P  
01/25/2016 13:45 MST1.0P  0.95P  0.00P  
01/25/2016 14:00 MST1.1P  0.96P  0.00P  
01/25/2016 14:15 MST1.2P  0.99P  0.00P  
01/25/2016 14:30 MST1.1P  0.97P  0.00P  
01/25/2016 14:45 MST1.1P  0.96P  0.00P  
01/25/2016 15:00 MST1.1P  0.96P  0.00P  
01/25/2016 15:15 MST1.1P  0.96P  0.00P  
01/25/2016 15:30 MST1.1P  0.96P  0.00P  
01/25/2016 15:45 MST1.1P  0.96P  0.00P  
01/25/2016 16:00 MST1.1P  0.96P  0.00P  
01/25/2016 16:15 MST1.1P  0.96P  0.00P  
01/25/2016 16:30 MST1.1P  0.96P  0.00P  
01/25/2016 16:45 MST1.1P  0.97P  0.00P  
01/25/2016 17:00 MST1.1P  0.96P  0.00P  
01/25/2016 17:15 MST1.1P  0.97P  0.00P  
01/25/2016 17:30 MST1.1P  0.96P  0.00P  
01/25/2016 17:45 MST1.1P  0.96P  0.00P  
01/25/2016 18:00 MST1.1P  0.96P  0.00P  
01/25/2016 18:15 MST1.1P  0.96P  0.00P  
01/25/2016 18:30 MST1.1P  0.96P  0.00P  
01/25/2016 18:45 MST0.97P  0.93P  0.00P  
01/25/2016 19:00 MST1.0P  0.95P  0.00P  
01/25/2016 19:15 MST0.97P  0.93P  0.00P  
01/25/2016 19:30 MST1.1P  0.96P  0.00P  
01/25/2016 19:45 MST1.1P  0.96P  0.00P  
01/25/2016 20:00 MST1.1P  0.96P  0.00P  
01/25/2016 20:15 MST1.1P  0.96P  0.00P  
01/25/2016 20:30 MST1.1P  0.96P  0.00P  
01/25/2016 20:45 MST1.1P  0.96P  0.00P  
01/25/2016 21:00 MST1.1P  0.96P  0.00P  
01/25/2016 21:15 MST1.1P  0.96P  0.00P  
01/25/2016 21:30 MST1.1P  0.96P  0.00P  
01/25/2016 21:45 MST1.1P  0.97P  0.00P  
01/25/2016 22:00 MST1.1P  0.96P  0.00P  
01/25/2016 22:15 MST1.1P  0.96P  0.00P  
01/25/2016 22:30 MST1.1P  0.96P  0.00P  
01/25/2016 22:45 MST1.0P  0.95P  0.00P  
01/25/2016 23:00 MST1.1P  0.96P  0.00P  
01/25/2016 23:15 MST1.1P  0.96P  0.00P  
01/25/2016 23:30 MST1.1P  0.96P  0.00P  
01/25/2016 23:45 MST1.1P  0.96P  0.00P  
01/26/2016 00:00 MST1.1P  0.96P  0.00P  
01/26/2016 00:15 MST1.1P  0.96P  0.00P  
01/26/2016 00:30 MST1.1P  0.96P  0.00P  
01/26/2016 00:45 MST1.1P  0.96P  0.00P  
01/26/2016 01:00 MST1.1P  0.96P  0.00P  
01/26/2016 01:15 MST1.1P  0.96P  0.00P  
01/26/2016 01:30 MST1.1P  0.96P  0.00P  
01/26/2016 01:45 MST1.1P  0.96P  0.00P  
01/26/2016 02:00 MST1.1P  0.96P  0.00P  
01/26/2016 02:15 MST1.1P  0.97P  0.00P  
01/26/2016 02:30 MST1.1P  0.97P  0.00P  
01/26/2016 02:45 MST1.1P  0.96P  0.00P  
01/26/2016 03:00 MST1.0P  0.95P  0.00P  
01/26/2016 03:15 MST1.1P  0.96P  0.00P  
01/26/2016 03:30 MST1.1P  0.96P  0.00P  
01/26/2016 03:45 MST1.1P  0.96P  0.00P  
01/26/2016 04:00 MST1.1P  0.96P  0.00P  
01/26/2016 04:15 MST1.1P  0.96P  0.00P  
01/26/2016 04:30 MST1.1P  0.96P  0.00P  
01/26/2016 04:45 MST1.0P  0.95P  0.00P  
01/26/2016 05:00 MST1.0P  0.94P  0.00P  
01/26/2016 05:15 MST1.1P  0.96P  0.00P  
01/26/2016 05:30 MST1.0P  0.95P  0.00P  
01/26/2016 05:45 MST1.1P  0.96P  0.00P  
01/26/2016 06:00 MST1.0P  0.95P  0.00P  
01/26/2016 06:15 MST1.0P  0.95P  0.00P  
01/26/2016 06:30 MST1.0P  0.95P  0.00P  
01/26/2016 06:45 MST1.0P  0.95P  0.00P  
01/26/2016 07:00 MST1.0P  0.95P  0.00P  
01/26/2016 07:15 MST1.0P  0.95P  0.00P  
01/26/2016 07:30 MST1.0P  0.95P  0.00P  
01/26/2016 07:45 MST1.0P  0.95P  0.00P  
01/26/2016 08:00 MST1.0P  0.94P  0.00P  
01/26/2016 08:15 MST1.0P  0.95P  0.00P  
01/26/2016 08:30 MST1.0P  0.95P  0.00P  
01/26/2016 08:45 MST1.0P  0.95P  0.00P  
01/26/2016 09:00 MST1.0P  0.94P  0.00P  
01/26/2016 09:15 MST1.0P  0.95P  0.00P  
01/26/2016 09:30 MST1.0P  0.95P  0.00P  
01/26/2016 09:45 MST1.0P  0.95P  0.00P  
01/26/2016 10:00 MST1.1P  0.96P  0.00P  
01/26/2016 10:15 MST1.1P  0.97P  0.00P  
01/26/2016 10:30 MST1.0P  0.95P  0.00P  
01/26/2016 10:45 MST1.0P  0.95P  0.00P  
01/26/2016 11:00 MST1.0P  0.95P  0.00P  
01/26/2016 11:15 MST1.1P  0.96P  0.00P  
01/26/2016 11:30 MST1.0P  0.95P  0.00P  
01/26/2016 11:45 MST1.0P  0.95P  0.00P  
01/26/2016 12:00 MST1.0P  0.95P  0.00P  
01/26/2016 12:15 MST1.0P  0.95P  0.00P  
01/26/2016 12:30 MST1.0P  0.95P  0.00P  
01/26/2016 12:45 MST1.0P  0.94P  0.00P  
01/26/2016 13:00 MST1.0P  0.95P  0.00P  
01/26/2016 13:15 MST1.0P  0.95P  0.00P  
01/26/2016 13:30 MST1.0P  0.94P  0.00P  
01/26/2016 13:45 MST1.1P  0.96P  0.00P  
01/26/2016 14:00 MST1.0P  0.95P  0.00P  
01/26/2016 14:15 MST1.0P  0.95P  0.00P  
01/26/2016 14:30 MST1.0P  0.95P  0.00P  
01/26/2016 14:45 MST1.0P  0.95P  0.00P  
01/26/2016 15:00 MST1.0P  0.95P  0.00P  
01/26/2016 15:15 MST1.0P  0.95P  0.00P  
01/26/2016 15:30 MST1.0P  0.95P  0.00P  
01/26/2016 15:45 MST1.1P  0.96P  0.00P  
01/26/2016 16:00 MST1.0P  0.95P  0.00P  
01/26/2016 16:15 MST0.97P  0.93P  0.00P  
01/26/2016 16:30 MST1.1P  0.96P  0.00P  
01/26/2016 16:45 MST1.0P  0.95P  0.00P  
01/26/2016 17:00 MST1.0P  0.95P  0.00P  
01/26/2016 17:15 MST1.0P  0.95P  0.00P  
01/26/2016 17:30 MST1.0P  0.95P  0.00P  
01/26/2016 17:45 MST1.0P  0.95P  0.00P  
01/26/2016 18:00 MST1.0P  0.94P  0.00P  
01/26/2016 18:15 MST1.0P  0.95P  0.00P  
01/26/2016 18:30 MST1.0P  0.94P  0.00P  
01/26/2016 18:45 MST1.0P  0.95P  0.00P  
01/26/2016 19:00 MST1.0P  0.95P  0.00P  
01/26/2016 19:15 MST1.0P  0.95P  0.00P  
01/26/2016 19:30 MST1.1P  0.96P  0.00P  
01/26/2016 19:45 MST1.0P  0.95P  0.00P  
01/26/2016 20:00 MST1.0P  0.95P  0.00P  
01/26/2016 20:15 MST1.0P  0.95P  0.00P  
01/26/2016 20:30 MST1.0P  0.95P  0.00P  
01/26/2016 20:45 MST1.0P  0.94P  0.00P  
01/26/2016 21:00 MST1.0P  0.94P  0.00P  
01/26/2016 21:15 MST1.0P  0.94P  0.00P  
01/26/2016 21:30 MST1.0P  0.95P  0.00P  
01/26/2016 21:45 MST1.0P  0.95P  0.00P  
01/26/2016 22:00 MST1.0P  0.95P  0.00P  
01/26/2016 22:15 MST1.0P  0.95P  0.00P  
01/26/2016 22:30 MST1.0P  0.95P  0.00P  
01/26/2016 22:45 MST1.1P  0.96P  0.00P  
01/26/2016 23:00 MST1.2P  0.98P  0.00P  
01/26/2016 23:15 MST1.0P  0.95P  0.00P  
01/26/2016 23:30 MST1.0P  0.95P  0.00P  
01/26/2016 23:45 MST1.1P  0.97P  0.00P  
01/27/2016 00:00 MST1.1P  0.97P  0.00P  
01/27/2016 00:15 MST1.1P  0.97P  0.00P  
01/27/2016 00:30 MST1.1P  0.97P  0.00P  
01/27/2016 00:45 MST1.2P  0.99P  0.00P  
01/27/2016 01:00 MST1.2P  0.98P  0.00P  
01/27/2016 01:15 MST1.3P  1.00P  0.00P  
01/27/2016 01:30 MST1.2P  0.98P  0.00P  
01/27/2016 01:45 MST1.2P  0.99P  0.00P  
01/27/2016 02:00 MST1.2P  0.99P  0.00P  
01/27/2016 02:15 MST1.2P  0.98P  0.00P  
01/27/2016 02:30 MST1.2P  0.98P  0.00P  
01/27/2016 02:45 MST1.2P  0.98P  0.00P  
01/27/2016 03:00 MST1.3P  1.00P  0.00P  
01/27/2016 03:15 MST1.3P  1.00P  0.00P  
01/27/2016 03:30 MST1.2P  0.98P  0.00P  
01/27/2016 03:45 MST1.2P  0.98P  0.00P  
01/27/2016 04:00 MST1.2P  0.98P  0.00P  
01/27/2016 04:15 MST1.2P  0.98P  0.00P  
01/27/2016 04:30 MST1.2P  0.98P  0.00P  
01/27/2016 04:45 MST1.2P  0.98P  0.00P  
01/27/2016 05:00 MST1.2P  0.98P  0.00P  
01/27/2016 05:15 MST1.2P  0.98P  0.00P  
01/27/2016 05:30 MST1.2P  0.98P  0.00P  
01/27/2016 05:45 MST1.2P  0.98P  0.00P  
01/27/2016 06:00 MST1.1P  0.97P  0.00P  
01/27/2016 06:15 MST1.2P  0.98P  0.00P  
01/27/2016 06:30 MST1.1P  0.96P  0.00P  
01/27/2016 06:45 MST1.2P  0.98P  0.00P  
01/27/2016 07:00 MST1.1P  0.97P  0.00P  
01/27/2016 07:15 MST1.1P  0.97P  0.00P  
01/27/2016 07:30 MST1.2P  0.98P  0.00P  
01/27/2016 07:45 MST1.1P  0.97P  0.00P  
01/27/2016 08:00 MST1.2P  0.98P  0.00P  
01/27/2016 08:15 MST1.1P  0.97P  0.00P  
01/27/2016 08:30 MST1.1P  0.97P  0.00P  
01/27/2016 08:45 MST1.1P  0.97P  0.00P  
01/27/2016 09:00 MST1.0P  0.95P  0.00P  
01/27/2016 09:15 MST1.1P  0.97P  0.00P  
01/27/2016 09:30 MST1.2P  0.98P  0.00P  
01/27/2016 09:45 MST1.1P  0.97P  0.00P  
01/27/2016 10:00 MST1.1P  0.97P  0.00P  
01/27/2016 10:15 MST1.1P  0.97P  0.00P  
01/27/2016 10:30 MST1.2P  0.98P  0.00P  
01/27/2016 10:45 MST1.2P  0.98P  0.00P  
01/27/2016 11:00 MST1.1P  0.97P  0.00P  
01/27/2016 11:15 MST1.2P  0.99P  0.00P  
01/27/2016 11:30 MST1.2P  0.99P  0.00P  
01/27/2016 11:45 MST1.2P  0.98P  0.00P  
01/27/2016 12:00 MST1.2P  0.98P  0.00P  
01/27/2016 12:15 MST1.2P  0.99P  0.00P  
01/27/2016 12:30 MST1.2P  0.98P  0.00P  
01/27/2016 12:45 MST1.2P  0.98P  0.00P  
01/27/2016 13:00 MST1.2P  0.99P  0.00P  
01/27/2016 13:15 MST1.2P  0.98P  0.00P  
01/27/2016 13:30 MST1.2P  0.98P  0.00P  
01/27/2016 13:45 MST1.1P  0.96P  0.00P  
01/27/2016 14:00 MST1.2P  0.98P  0.00P  
01/27/2016 14:15 MST1.2P  0.98P  0.00P  
01/27/2016 14:30 MST1.2P  0.99P  0.00P  
01/27/2016 14:45 MST1.1P  0.97P  0.00P  
01/27/2016 15:00 MST1.2P  0.98P  0.00P  
01/27/2016 15:15 MST1.2P  0.98P  0.00P  
01/27/2016 15:30 MST1.2P  0.99P  0.00P  
01/27/2016 15:45 MST1.2P  0.98P  0.00P  
01/27/2016 16:00 MST1.2P  0.98P  0.00P  
01/27/2016 16:15 MST1.2P  0.99P  0.00P  
01/27/2016 16:30 MST1.2P  0.99P  0.00P  
01/27/2016 16:45 MST1.2P  0.98P  0.00P  
01/27/2016 17:00 MST1.2P  0.98P  0.00P  
01/27/2016 17:15 MST1.2P  0.98P  0.00P  
01/27/2016 17:30 MST1.2P  0.98P  0.00P  
01/27/2016 17:45 MST1.2P  0.98P  0.00P  
01/27/2016 18:00 MST1.2P  0.98P  0.00P  
01/27/2016 18:15 MST1.2P  0.98P  0.00P  
01/27/2016 18:30 MST1.2P  0.98P  0.00P  
01/27/2016 18:45 MST1.1P  0.97P  0.00P  
01/27/2016 19:00 MST1.2P  0.98P  0.00P  
01/27/2016 19:15 MST1.2P  0.98P  0.00P  
01/27/2016 19:30 MST1.2P  0.98P  0.00P  
01/27/2016 19:45 MST1.2P  0.98P  0.00P  
01/27/2016 20:00 MST1.2P  0.98P  0.00P  
01/27/2016 20:15 MST1.2P  0.98P  0.00P  
01/27/2016 20:30 MST1.2P  0.98P  0.00P  
01/27/2016 20:45 MST1.2P  0.98P  0.00P  
01/27/2016 21:00 MST1.3P  1.00P  0.00P  
01/27/2016 21:15 MST1.2P  0.99P  0.00P  
01/27/2016 21:30 MST1.2P  0.99P  0.00P  
01/27/2016 21:45 MST1.2P  0.98P  0.00P  
01/27/2016 22:00 MST1.2P  0.98P  0.00P  
01/27/2016 22:15 MST1.2P  0.98P  0.00P  
01/27/2016 22:30 MST1.2P  0.98P  0.00P  
01/27/2016 22:45 MST1.1P  0.97P  0.00P  
01/27/2016 23:00 MST1.2P  0.98P  0.00P  
01/27/2016 23:15 MST1.2P  0.98P  0.00P  
01/27/2016 23:30 MST1.2P  0.98P  0.00P  
01/27/2016 23:45 MST1.2P  0.99P  0.00P  
01/28/2016 00:00 MST1.1P  0.97P  0.00P  
01/28/2016 00:15 MST1.2P  0.98P  0.00P  
01/28/2016 00:30 MST1.1P  0.97P  0.00P  
01/28/2016 00:45 MST1.1P  0.97P  0.00P  
01/28/2016 01:00 MST1.1P  0.96P  0.00P  
01/28/2016 01:15 MST1.1P  0.97P  0.00P  
01/28/2016 01:30 MST1.1P  0.97P  0.00P  
01/28/2016 01:45 MST1.1P  0.97P  0.00P  
01/28/2016 02:00 MST1.2P  0.99P  0.00P  
01/28/2016 02:15 MST1.2P  0.98P  0.00P  
01/28/2016 02:30 MST1.1P  0.97P  0.00P  
01/28/2016 02:45 MST1.2P  0.99P  0.00P  
01/28/2016 03:00 MST1.1P  0.97P  0.00P  
01/28/2016 03:15 MST1.1P  0.97P  0.00P  
01/28/2016 03:30 MST1.1P  0.97P  0.00P  
01/28/2016 03:45 MST1.2P  0.98P  0.00P  
01/28/2016 04:00 MST1.2P  0.99P  0.00P  
01/28/2016 04:15 MST1.1P  0.97P  0.00P  
01/28/2016 04:30 MST1.2P  0.98P  0.00P  
01/28/2016 04:45 MST1.2P  0.99P  0.00P  
01/28/2016 05:00 MST1.2P  0.99P  0.00P  
01/28/2016 05:15 MST1.1P  0.96P  0.00P  
01/28/2016 05:30 MST1.2P  0.98P  0.00P  
01/28/2016 05:45 MST1.1P  0.96P  0.00P  
01/28/2016 06:00 MST1.1P  0.97P  0.00P  
01/28/2016 06:15 MST1.2P  0.98P  0.00P  
01/28/2016 06:30 MST1.2P  0.99P  0.00P  
01/28/2016 06:45 MST1.1P  0.97P  0.00P  
01/28/2016 07:00 MST1.1P  0.97P  0.00P  
01/28/2016 07:15 MST1.1P  0.97P  0.00P  
01/28/2016 07:30 MST1.1P  0.97P  0.00P  
01/28/2016 07:45 MST1.1P  0.97P  0.00P  
01/28/2016 08:00 MST1.1P  0.97P  0.00P  
01/28/2016 08:15 MST1.1P  0.96P  0.00P  
01/28/2016 08:30 MST1.1P  0.97P  0.00P  
01/28/2016 08:45 MST1.1P  0.97P  0.00P  
01/28/2016 09:00 MST1.1P  0.96P  0.00P  
01/28/2016 09:15 MST1.1P  0.97P  0.00P  
01/28/2016 09:30 MST1.1P  0.96P  0.00P  
01/28/2016 09:45 MST1.1P  0.96P  0.00P  
01/28/2016 10:00 MST1.1P  0.97P  0.00P  
01/28/2016 10:15 MST1.1P  0.97P  0.00P  
01/28/2016 10:30 MST1.1P  0.97P  0.00P  
01/28/2016 10:45 MST1.1P  0.97P  0.00P  
01/28/2016 11:00 MST1.0P  0.95P  0.00P  
01/28/2016 11:15 MST1.1P  0.97P  0.00P  
01/28/2016 11:30 MST1.1P  0.97P  0.00P  
01/28/2016 11:45 MST1.2P  0.98P  0.00P  
01/28/2016 12:00 MST1.1P  0.97P  0.00P  
01/28/2016 12:15 MST1.1P  0.97P  0.00P  
01/28/2016 12:30 MST1.2P  0.98P  0.00P  
01/28/2016 12:45 MST1.1P  0.97P  0.00P  
01/28/2016 13:00 MST1.2P  0.99P  0.00P  
01/28/2016 13:15 MST1.1P  0.97P  0.00P  
01/28/2016 13:30 MST1.2P  0.98P  0.00P  
01/28/2016 13:45 MST1.2P  0.98P  0.00P  
01/28/2016 14:00 MST1.2P  0.98P  0.00P  
01/28/2016 14:15 MST1.2P  0.98P  0.00P  
01/28/2016 14:30 MST1.2P  0.99P  0.00P  
01/28/2016 14:45 MST1.3P  1.01P  0.00P  
01/28/2016 15:00 MST1.2P  0.99P  0.00P  
01/28/2016 15:15 MST1.3P  1.00P  0.00P  
01/28/2016 15:30 MST1.3P  1.00P  0.00P  
01/28/2016 15:45 MST1.3P  1.00P  0.00P  
01/28/2016 16:00 MST1.2P  0.99P  0.00P  
01/28/2016 16:15 MST1.1P  0.97P  0.00P  
01/28/2016 16:30 MST1.1P  0.96P  0.00P  
01/28/2016 16:45 MST1.2P  0.98P  0.00P  
01/28/2016 17:00 MST1.3P  1.00P  0.00P  
01/28/2016 17:15 MST1.1P  0.97P  0.00P  
01/28/2016 17:30 MST1.2P  0.98P  0.00P  
01/28/2016 17:45 MST1.3P  1.01P  0.00P  
01/28/2016 18:00 MST1.3P  1.01P  0.00P  
01/28/2016 18:15 MST1.3P  1.01P  0.00P  
01/28/2016 18:30 MST1.5P  1.05P  0.00P  
01/28/2016 18:45 MST1.3P  1.01P  0.00P  
01/28/2016 19:00 MST1.2P  0.99P  0.00P  
01/28/2016 19:15 MST1.3P  1.01P  0.00P  
01/28/2016 19:30 MST1.3P  1.00P  0.00P  
01/28/2016 19:45 MST1.3P  1.01P  0.00P  
01/28/2016 20:00 MST1.3P  1.01P  0.00P  
01/28/2016 20:15 MST1.3P  1.01P  0.00P  
01/28/2016 20:30 MST1.3P  1.01P  0.00P  
01/28/2016 20:45 MST1.1P  0.97P  0.00P  
01/28/2016 21:00 MST1.1P  0.97P  0.00P  
01/28/2016 21:15 MST1.1P  0.97P  0.00P  
01/28/2016 21:30 MST1.2P  0.98P  0.00P  
01/28/2016 21:45 MST1.1P  0.97P  0.00P  
01/28/2016 22:00 MST1.1P  0.96P  0.00P  
01/28/2016 22:15 MST1.2P  0.98P  0.00P  
01/28/2016 22:30 MST1.3P  1.00P  0.00P  
01/28/2016 22:45 MST1.2P  0.99P  0.00P  
01/28/2016 23:00 MST1.2P  0.99P  0.00P  
01/28/2016 23:15 MST1.2P  0.99P  0.00P  
01/28/2016 23:30 MST1.2P  0.98P  0.00P  
01/28/2016 23:45 MST1.3P  1.00P  0.00P  
01/29/2016 00:00 MST1.1P  0.97P  0.00P  
01/29/2016 00:15 MST1.1P  0.97P  0.00P  
01/29/2016 00:30 MST1.1P  0.97P  0.00P  
01/29/2016 00:45 MST1.1P  0.97P  0.00P  
01/29/2016 01:00 MST1.1P  0.97P  0.00P  
01/29/2016 01:15 MST1.1P  0.97P  0.00P  
01/29/2016 01:30 MST1.1P  0.97P  0.00P  
01/29/2016 01:45 MST1.1P  0.97P  0.00P  
01/29/2016 02:00 MST1.1P  0.97P  0.00P  
01/29/2016 02:15 MST1.1P  0.97P  0.00P  
01/29/2016 02:30 MST1.2P  0.99P  0.00P  
01/29/2016 02:45 MST1.2P  0.98P  0.00P  
01/29/2016 03:00 MST1.4P  1.02P  0.00P  
01/29/2016 03:15 MST1.3P  1.00P  0.00P  
01/29/2016 03:30 MST1.2P  0.99P  0.00P  
01/29/2016 03:45 MST1.3P  1.00P  0.00P  
01/29/2016 04:00 MST1.3P  1.01P  0.00P  
01/29/2016 04:15 MST1.3P  1.00P  0.00P  
01/29/2016 04:30 MST1.3P  1.01P  0.00P  
01/29/2016 04:45 MST1.3P  1.00P  0.00P  
01/29/2016 05:00 MST1.3P  1.01P  0.00P  
01/29/2016 05:15 MST1.2P  0.98P  0.00P  
01/29/2016 05:30 MST1.1P  0.97P  0.00P  
01/29/2016 05:45 MST1.2P  0.98P  0.00P  
01/29/2016 06:00 MST1.1P  0.97P  0.00P  
01/29/2016 06:15 MST1.1P  0.97P  0.00P  
01/29/2016 06:30 MST1.1P  0.97P  0.00P  
01/29/2016 06:45 MST1.1P  0.97P  0.00P  
01/29/2016 07:00 MST1.1P  0.96P  0.00P  
01/29/2016 07:15 MST1.1P  0.96P  0.00P  
01/29/2016 07:30 MST1.1P  0.97P  0.00P  
01/29/2016 07:45 MST1.1P  0.97P  0.00P  
01/29/2016 08:00 MST1.1P  0.96P  0.00P  
01/29/2016 08:15 MST1.2P  0.98P  0.00P  
01/29/2016 08:30 MST1.1P  0.96P  0.00P  
01/29/2016 08:45 MST1.1P  0.96P  0.00P  
01/29/2016 09:00 MST1.1P  0.97P  0.00P  
01/29/2016 09:15 MST1.1P  0.96P  0.00P  
01/29/2016 09:30 MST1.1P  0.97P  0.00P  
01/29/2016 09:45 MST1.1P  0.97P  0.00P  
01/29/2016 10:00 MST1.2P  0.98P  0.00P  
01/29/2016 10:15 MST1.1P  0.97P  0.00P  
01/29/2016 10:30 MST1.3P  1.00P  0.00P  
01/29/2016 10:45 MST1.2P  0.99P  0.00P  
01/29/2016 11:00 MST1.2P  0.99P  0.00P  
01/29/2016 11:15 MST1.2P  0.98P  0.00P  
01/29/2016 11:30 MST1.3P  1.00P  0.00P  
01/29/2016 11:45 MST1.2P  0.99P  0.00P  
01/29/2016 12:00 MST1.0P  0.95P  0.00P  
01/29/2016 12:15 MST1.3P  1.00P  0.00P  
01/29/2016 12:30 MST1.3P  1.00P  0.00P  
01/29/2016 12:45 MST1.3P  1.00P  0.00P  
01/29/2016 13:00 MST1.2P  0.99P  0.00P  
01/29/2016 13:15 MST1.2P  0.98P  0.00P  
01/29/2016 13:30 MST1.1P  0.96P  0.00P  
01/29/2016 13:45 MST1.2P  0.98P  0.00P  
01/29/2016 14:00 MST1.2P  0.98P  0.00P  
01/29/2016 14:15 MST1.1P  0.96P  0.00P  
01/29/2016 14:30 MST1.2P  0.98P  0.00P  
01/29/2016 14:45 MST1.2P  0.98P  0.00P  
01/29/2016 15:00 MST1.2P  0.98P  0.00P  
01/29/2016 15:15 MST1.2P  0.98P  0.00P  
01/29/2016 15:30 MST1.2P  0.98P  0.00P  
01/29/2016 15:45 MST1.1P  0.97P  0.00P  
01/29/2016 16:00 MST1.3P  1.00P  0.00P  
01/29/2016 16:15 MST1.2P  0.98P  0.00P  
01/29/2016 16:30 MST1.2P  0.98P  0.00P  
01/29/2016 16:45 MST1.2P  0.98P  0.00P  
01/29/2016 17:00 MST1.1P  0.97P  0.00P  
01/29/2016 17:15 MST1.3P  1.00P  0.00P  
01/29/2016 17:30 MST1.2P  0.98P  0.00P  
01/29/2016 17:45 MST1.2P  0.98P  0.00P  
01/29/2016 18:00 MST1.2P  0.99P  0.00P  
01/29/2016 18:15 MST1.2P  0.98P  0.00P  
01/29/2016 18:30 MST1.2P  0.98P  0.00P  
01/29/2016 18:45 MST1.1P  0.96P  0.00P  
01/29/2016 19:00 MST1.2P  0.98P  0.00P  
01/29/2016 19:15 MST1.2P  0.98P  0.00P  
01/29/2016 19:30 MST1.2P  0.98P  0.00P  
01/29/2016 19:45 MST1.2P  0.98P  0.00P  
01/29/2016 20:00 MST1.2P  0.98P  0.00P  
01/29/2016 20:15 MST1.2P  0.98P  0.00P  
01/29/2016 20:30 MST1.2P  0.98P  0.00P  
01/29/2016 20:45 MST1.2P  0.98P  0.00P  
01/29/2016 21:00 MST1.2P  0.98P  0.00P  
01/29/2016 21:15 MST1.2P  0.98P  0.00P  
01/29/2016 21:30 MST1.2P  0.98P  0.00P  
01/29/2016 21:45 MST1.2P  0.98P  0.00P  
01/29/2016 22:00 MST1.2P  0.98P  0.00P  
01/29/2016 22:15 MST1.2P  0.98P  0.00P  
01/29/2016 22:30 MST1.2P  0.98P  0.00P  
01/29/2016 22:45 MST1.2P  0.98P  0.00P  
01/29/2016 23:00 MST1.2P  0.98P  0.00P  
01/29/2016 23:15 MST1.2P  0.98P  0.00P  
01/29/2016 23:30 MST1.2P  0.98P  0.00P  
01/29/2016 23:45 MST1.2P  0.98P  0.00P  
01/30/2016 00:00 MST1.2P  0.98P  0.00P  
01/30/2016 00:15 MST1.2P  0.98P  0.00P  
01/30/2016 00:30 MST1.2P  0.98P  0.00P  
01/30/2016 00:45 MST1.2P  0.98P  0.00P  
01/30/2016 01:00 MST1.2P  0.98P  0.00P  
01/30/2016 01:15 MST1.2P  0.98P  0.00P  
01/30/2016 01:30 MST1.2P  0.98P  0.00P  
01/30/2016 01:45 MST1.2P  0.98P  0.00P  
01/30/2016 02:00 MST1.2P  0.98P  0.00P  
01/30/2016 02:15 MST1.2P  0.98P  0.00P  
01/30/2016 02:30 MST1.2P  0.98P  0.00P  
01/30/2016 02:45 MST1.2P  0.98P  0.00P  
01/30/2016 03:00 MST1.2P  0.98P  0.00P  
01/30/2016 03:15 MST1.0P  0.95P  0.00P  
01/30/2016 03:30 MST1.2P  0.98P  0.00P  
01/30/2016 03:45 MST1.2P  0.98P  0.00P  
01/30/2016 04:00 MST1.2P  0.98P  0.00P  
01/30/2016 04:15 MST1.2P  0.98P  0.00P  
01/30/2016 04:30 MST1.2P  0.98P  0.00P  
01/30/2016 04:45 MST1.3P  1.00P  0.00P  
01/30/2016 05:00 MST1.2P  0.98P  0.00P  
01/30/2016 05:15 MST1.2P  0.98P  0.00P  
01/30/2016 05:30 MST1.2P  0.98P  0.00P  
01/30/2016 05:45 MST1.2P  0.98P  0.00P  
01/30/2016 06:00 MST1.2P  0.98P  0.00P  
01/30/2016 06:15 MST1.0P  0.95P  0.00P  
01/30/2016 06:30 MST1.1P  0.97P  0.00P  
01/30/2016 06:45 MST1.0P  0.95P  0.00P  
01/30/2016 07:00 MST1.1P  0.97P  0.00P  
01/30/2016 07:15 MST1.1P  0.97P  0.00P  
01/30/2016 07:30 MST1.1P  0.96P  0.00P  
01/30/2016 07:45 MST1.1P  0.97P  0.00P  
01/30/2016 08:00 MST1.2P  0.98P  0.00P  
01/30/2016 08:15 MST1.0P  0.95P  0.00P  
01/30/2016 08:30 MST1.1P  0.97P  0.00P  
01/30/2016 08:45 MST1.1P  0.97P  0.00P  
01/30/2016 09:00 MST1.1P  0.97P  0.00P  
01/30/2016 09:15 MST1.2P  0.98P  0.00P  
01/30/2016 09:30 MST1.2P  0.98P  0.00P  
01/30/2016 09:45 MST1.1P  0.97P  0.00P  
01/30/2016 10:00 MST1.2P  0.98P  0.00P  
01/30/2016 10:15 MST1.1P  0.97P  0.00P  
01/30/2016 10:30 MST1.1P  0.97P  0.00P  
01/30/2016 10:45 MST1.1P  0.97P  0.00P  
01/30/2016 11:00 MST1.2P  0.98P  0.00P  
01/30/2016 11:15 MST1.1P  0.97P  0.00P  
01/30/2016 11:30 MST1.1P  0.97P  0.00P  
01/30/2016 11:45 MST1.0P  0.94P  0.00P  
01/30/2016 12:00 MST1.1P  0.97P  0.00P  
01/30/2016 12:15 MST1.1P  0.97P  0.00P  
01/30/2016 12:30 MST1.2P  0.98P  0.00P  
01/30/2016 12:45 MST1.1P  0.97P  0.00P  
01/30/2016 13:00 MST1.1P  0.97P  0.00P  
01/30/2016 13:15 MST1.1P  0.97P  0.00P  
01/30/2016 13:30 MST1.0P  0.95P  0.00P  
01/30/2016 13:45 MST1.1P  0.97P  0.00P  
01/30/2016 14:00 MST1.1P  0.97P  0.00P  
01/30/2016 14:15 MST1.1P  0.97P  0.00P  
01/30/2016 14:30 MST1.2P  0.98P  0.00P  
01/30/2016 14:45 MST1.1P  0.97P  0.00P  
01/30/2016 15:00 MST1.1P  0.97P  0.00P  
01/30/2016 15:15 MST1.1P  0.97P  0.00P  
01/30/2016 15:30 MST1.1P  0.97P  0.00P  
01/30/2016 15:45 MST1.1P  0.96P  0.00P  
01/30/2016 16:00 MST1.0P  0.95P  0.00P  
01/30/2016 16:15 MST1.1P  0.97P  0.00P  
01/30/2016 16:30 MST1.1P  0.97P  0.00P  
01/30/2016 16:45 MST1.1P  0.97P  0.00P  
01/30/2016 17:00 MST1.1P  0.96P  0.00P  
01/30/2016 17:15 MST1.1P  0.97P  0.00P  
01/30/2016 17:30 MST1.1P  0.97P  0.00P  
01/30/2016 17:45 MST1.1P  0.97P  0.00P  
01/30/2016 18:00 MST1.1P  0.97P  0.00P  
01/30/2016 18:15 MST1.1P  0.97P  0.00P  
01/30/2016 18:30 MST1.1P  0.97P  0.00P  
01/30/2016 18:45 MST1.1P  0.97P  0.00P  
01/30/2016 19:00 MST1.1P  0.97P  0.00P  
01/30/2016 19:15 MST1.1P  0.97P  0.00P  
01/30/2016 19:30 MST1.1P  0.97P  0.00P  
01/30/2016 19:45 MST1.1P  0.97P  0.00P  
01/30/2016 20:00 MST1.1P  0.97P  0.00P  
01/30/2016 20:15 MST1.1P  0.97P  0.00P  
01/30/2016 20:30 MST1.0P  0.94P  0.00P  
01/30/2016 20:45 MST1.1P  0.97P  0.00P  
01/30/2016 21:00 MST1.1P  0.97P  0.00P  
01/30/2016 21:15 MST1.1P  0.97P  0.00P  
01/30/2016 21:30 MST1.1P  0.96P  0.00P  
01/30/2016 21:45 MST1.1P  0.97P  0.00P  
01/30/2016 22:00 MST1.1P  0.97P  0.00P  
01/30/2016 22:15 MST1.1P  0.97P  0.00P  
01/30/2016 22:30 MST1.1P  0.97P  0.00P  
01/30/2016 22:45 MST1.1P  0.97P  0.00P  
01/30/2016 23:00 MST1.1P  0.97P  0.00P  
01/30/2016 23:15 MST1.1P  0.97P  0.00P  
01/30/2016 23:30 MST1.1P  0.97P  0.00P  
01/30/2016 23:45 MST1.1P  0.97P  0.00P  
01/31/2016 00:00 MST1.1P  0.97P  0.00P  
01/31/2016 00:15 MST1.1P  0.97P  0.00P  
01/31/2016 00:30 MST1.1P  0.97P  0.00P  
01/31/2016 00:45 MST1.2P  0.98P  0.00P  
01/31/2016 01:00 MST1.1P  0.97P  0.00P  
01/31/2016 01:15 MST1.2P  0.98P  0.00P  
01/31/2016 01:30 MST1.1P  0.97P  0.00P  
01/31/2016 01:45 MST1.2P  0.98P  0.00P  
01/31/2016 02:00 MST1.2P  0.98P  0.00P  
01/31/2016 02:15 MST1.2P  0.98P  0.00P  
01/31/2016 02:30 MST1.2P  0.98P  0.00P  
01/31/2016 02:45 MST1.2P  0.98P  0.00P  
01/31/2016 03:00 MST1.1P  0.97P  0.00P  
01/31/2016 03:15 MST1.2P  0.98P  0.00P  
01/31/2016 03:30 MST1.2P  0.98P  0.00P  
01/31/2016 03:45 MST1.2P  0.98P  0.00P  
01/31/2016 04:00 MST1.2P  0.98P  0.00P  
01/31/2016 04:15 MST1.1P  0.97P  0.00P  
01/31/2016 04:30 MST1.2P  0.98P  0.00P  
01/31/2016 04:45 MST1.1P  0.97P  0.00P  
01/31/2016 05:00 MST1.1P  0.97P  0.00P  
01/31/2016 05:15 MST1.2P  0.98P  0.00P  
01/31/2016 05:30 MST1.1P  0.97P  0.00P  
01/31/2016 05:45 MST1.2P  0.98P  0.00P  
01/31/2016 06:00 MST1.2P  0.98P  0.00P  
01/31/2016 06:15 MST1.2P  0.98P  0.00P  
01/31/2016 06:30 MST1.2P  0.98P  0.00P  
01/31/2016 06:45 MST1.2P  0.98P  0.00P  
01/31/2016 07:00 MST1.2P  0.98P  0.00P  
01/31/2016 07:15 MST1.2P  0.98P  0.00P  
01/31/2016 07:30 MST1.2P  0.98P  0.00P  
01/31/2016 07:45 MST1.1P  0.97P  0.00P  
01/31/2016 08:00 MST1.2P  0.98P  0.00P  
01/31/2016 08:15 MST1.1P  0.97P  0.00P  
01/31/2016 08:30 MST1.1P  0.97P  0.00P  
01/31/2016 08:45 MST1.1P  0.97P  0.00P  
01/31/2016 09:00 MST1.1P  0.97P  0.00P  
01/31/2016 09:15 MST1.1P  0.97P  0.00P  
01/31/2016 09:30 MST1.1P  0.97P  0.00P  
01/31/2016 09:45 MST1.1P  0.96P  0.00P  
01/31/2016 10:00 MST1.1P  0.97P  0.00P  
01/31/2016 10:15 MST1.1P  0.97P  0.00P  
01/31/2016 10:30 MST1.1P  0.97P  0.00P  
01/31/2016 10:45 MST1.1P  0.97P  0.00P  
01/31/2016 11:00 MST1.1P  0.97P  0.00P  
01/31/2016 11:15 MST1.1P  0.96P  0.00P  
01/31/2016 11:30 MST1.1P  0.97P  0.00P  
01/31/2016 11:45 MST1.1P  0.96P  0.00P  
01/31/2016 12:00 MST1.2P  0.98P  0.00P  
01/31/2016 12:15 MST1.2P  0.99P  0.00P  
01/31/2016 12:30 MST1.2P  0.99P  0.00P  
01/31/2016 12:45 MST1.2P  0.99P  0.00P  
01/31/2016 13:00 MST1.2P  0.99P  0.00P  
01/31/2016 13:15 MST1.2P  0.99P  0.00P  
01/31/2016 13:30 MST1.1P  0.97P  0.00P  
01/31/2016 13:45 MST1.0P  0.95P  0.00P  
01/31/2016 14:00 MST1.2P  0.99P  0.00P  
01/31/2016 14:15 MST1.2P  0.98P  0.00P  
01/31/2016 14:30 MST1.2P  0.99P  0.00P  
01/31/2016 14:45 MST1.2P  0.99P  0.00P  
01/31/2016 15:00 MST1.2P  0.98P  0.00P  
01/31/2016 15:15 MST1.1P  0.96P  0.00P  
01/31/2016 15:30 MST1.0P  0.95P  0.00P  
01/31/2016 15:45 MST1.1P  0.97P  0.00P  
01/31/2016 16:00 MST1.1P  0.97P  0.00P  
01/31/2016 16:15 MST1.2P  0.98P  0.00P  
01/31/2016 16:30 MST1.2P  0.99P  0.00P  
01/31/2016 16:45 MST1.0P  0.95P  0.00P  
01/31/2016 17:00 MST1.1P  0.97P  0.00P  
01/31/2016 17:15 MST1.2P  0.98P  0.00P  
01/31/2016 17:30 MST1.2P  0.98P  0.00P  
01/31/2016 17:45 MST1.2P  0.99P  0.00P  
01/31/2016 18:00 MST1.2P  0.98P  0.00P  
01/31/2016 18:15 MST1.2P  0.98P  0.00P  
01/31/2016 18:30 MST1.2P  0.99P  0.00P  
01/31/2016 18:45 MST1.2P  0.98P  0.00P  
01/31/2016 19:00 MST1.2P  0.98P  0.00P  
01/31/2016 19:15 MST1.2P  0.98P  0.00P  
01/31/2016 19:30 MST1.1P  0.97P  0.00P  
01/31/2016 19:45 MST1.2P  0.98P  0.00P  
01/31/2016 20:00 MST1.2P  0.99P  0.00P  
01/31/2016 20:15 MST1.2P  0.98P  0.00P  
01/31/2016 20:30 MST1.1P  0.97P  0.00P  
01/31/2016 20:45 MST1.2P  0.98P  0.00P  
01/31/2016 21:00 MST1.2P  0.98P  0.00P  
01/31/2016 21:15 MST1.1P  0.97P  0.00P  
01/31/2016 21:30 MST1.2P  0.98P  0.00P  
01/31/2016 21:45 MST1.1P  0.97P  0.00P  
01/31/2016 22:00 MST1.2P  0.98P  0.00P  
01/31/2016 22:15 MST1.2P  0.98P  0.00P  
01/31/2016 22:30 MST1.2P  0.98P  0.00P  
01/31/2016 22:45 MST1.1P  0.97P  0.00P  
01/31/2016 23:00 MST1.1P  0.97P  0.00P  
01/31/2016 23:15 MST1.2P  0.98P  0.00P  
01/31/2016 23:30 MST1.2P  0.98P  0.00P  
01/31/2016 23:45 MST1.2P  0.98P  0.00P  
02/01/2016 00:00 MST1.1P  0.96P  0.00P  
02/01/2016 00:15 MST1.1P  0.97P  0.00P  
02/01/2016 00:30 MST1.2P  0.98P  0.00P  
02/01/2016 00:45 MST1.2P  0.98P  0.00P  
02/01/2016 01:00 MST1.2P  0.99P  0.00P  
02/01/2016 01:15 MST1.1P  0.97P  0.00P  
02/01/2016 01:30 MST1.2P  0.99P  0.00P  
02/01/2016 01:45 MST1.2P  0.98P  0.00P  
02/01/2016 02:00 MST1.2P  0.99P  0.00P  
02/01/2016 02:15 MST1.2P  0.98P  0.00P  
02/01/2016 02:30 MST1.2P  0.99P  0.00P  
02/01/2016 02:45 MST1.1P  0.97P  0.03P  
02/01/2016 03:00 MST1.2P  0.99P  0.03P  
02/01/2016 03:15 MST1.3P  1.00P  0.01P  
02/01/2016 03:30 MST1.3P  1.00P  0.03P  
02/01/2016 03:45 MST1.3P  1.01P  0.02P  
02/01/2016 04:00 MST1.3P  1.01P  0.03P  
02/01/2016 04:15 MST1.3P  1.01P  0.06P  
02/01/2016 04:30 MST1.4P  1.02P  0.02P  
02/01/2016 04:45 MST1.4P  1.02P  0.01P  
02/01/2016 05:00 MST1.4P  1.02P  0.01P  
02/01/2016 05:15 MST1.3P  1.01P  0.00P  
02/01/2016 05:30 MST1.3P  1.01P  0.00P  
02/01/2016 05:45 MST1.3P  1.00P  0.00P  
02/01/2016 06:00 MST1.3P  1.01P  0.00P  
02/01/2016 06:15 MST1.3P  1.01P  0.00P  
02/01/2016 06:30 MST1.4P  1.02P  0.00P  
02/01/2016 06:45 MST1.4P  1.02P  0.00P  
02/01/2016 07:00 MST1.4P  1.02P  0.00P  
02/01/2016 07:15 MST1.4P  1.02P  0.01P  
02/01/2016 07:30 MST1.4P  1.02P  0.00P  
02/01/2016 07:45 MST1.3P  1.01P  0.00P  
02/01/2016 08:00 MST1.4P  1.03P  0.01P  
02/01/2016 08:15 MST1.4P  1.03P  0.01P  
02/01/2016 08:30 MST1.4P  1.03P  0.00P  
02/01/2016 08:45 MST1.4P  1.03P  0.00P  
02/01/2016 09:00 MST1.4P  1.03P  0.00P  
02/01/2016 09:15 MST1.3P  1.00P  0.00P  
02/01/2016 09:30 MST1.4P  1.03P  0.00P  
02/01/2016 09:45 MST1.4P  1.02P  0.00P  
02/01/2016 10:00 MST1.4P  1.03P  0.00P  
02/01/2016 10:15 MST1.4P  1.02P  0.00P  
02/01/2016 10:30 MST1.4P  1.02P  0.00P  
02/01/2016 10:45 MST1.3P  1.01P  0.00P  
02/01/2016 11:00 MST1.4P  1.02P  0.00P  
02/01/2016 11:15 MST1.4P  1.02P  0.00P  
02/01/2016 11:30 MST1.4P  1.03P  0.00P  
02/01/2016 11:45 MST1.4P  1.02P  0.00P  
02/01/2016 12:00 MST1.4P  1.02P  0.00P  
02/01/2016 12:15 MST1.2P  0.99P  0.00P  
02/01/2016 12:30 MST1.3P  1.01P  0.00P  
02/01/2016 12:45 MST1.3P  1.01P  0.00P  
02/01/2016 13:00 MST1.3P  1.01P  0.00P  
02/01/2016 13:15 MST1.3P  1.01P  0.00P  
02/01/2016 13:30 MST1.3P  1.01P  0.00P  
02/01/2016 13:45 MST1.2P  0.99P  0.00P  
02/01/2016 14:00 MST1.3P  1.01P  0.00P  
02/01/2016 14:15 MST1.3P  1.01P  0.00P  
02/01/2016 14:30 MST1.3P  1.00P  0.00P  
02/01/2016 14:45 MST1.3P  1.01P  0.00P  
02/01/2016 15:00 MST1.3P  1.00P  0.00P  
02/01/2016 15:15 MST1.3P  1.01P  0.00P  
02/01/2016 15:30 MST1.3P  1.00P  0.00P  
02/01/2016 15:45 MST1.3P  1.00P  0.00P  
02/01/2016 16:00 MST1.3P  1.00P  0.00P  
02/01/2016 16:15 MST1.1P  0.97P  0.00P  
02/01/2016 16:30 MST1.3P  1.00P  0.00P  
02/01/2016 16:45 MST1.3P  1.00P  0.00P  
02/01/2016 17:00 MST1.2P  0.99P  0.00P  
02/01/2016 17:15 MST1.3P  1.00P  0.00P  
02/01/2016 17:30 MST1.3P  1.00P  0.00P  
02/01/2016 17:45 MST1.2P  0.99P  0.00P  
02/01/2016 18:00 MST1.2P  0.99P  0.01P  
02/01/2016 18:15 MST1.3P  1.00P  0.00P  
02/01/2016 18:30 MST1.3P  1.00P  0.00P  
02/01/2016 18:45 MST1.3P  1.00P  0.00P  
02/01/2016 19:00 MST1.3P  1.00P  0.00P  
02/01/2016 19:15 MST1.1P  0.96P  0.00P  
02/01/2016 19:30 MST1.2P  0.99P  0.00P  
02/01/2016 19:45 MST1.2P  0.98P  0.00P  
02/01/2016 20:00 MST1.2P  0.99P  0.00P  
02/01/2016 20:15 MST1.2P  0.99P  0.00P  
02/01/2016 20:30 MST1.3P  1.00P  0.00P  
02/01/2016 20:45 MST1.3P  1.00P  0.00P  
02/01/2016 21:00 MST1.2P  0.99P  0.00P  
02/01/2016 21:15 MST1.3P  1.00P  0.00P  
02/01/2016 21:30 MST1.2P  0.99P  0.00P  
02/01/2016 21:45 MST1.2P  0.99P  0.00P  
02/01/2016 22:00 MST1.2P  0.99P  0.00P  
02/01/2016 22:15 MST1.2P  0.98P  0.00P  
02/01/2016 22:30 MST1.3P  1.00P  0.00P  
02/01/2016 22:45 MST1.3P  1.01P  0.00P  
02/01/2016 23:00 MST1.3P  1.01P  0.00P  
02/01/2016 23:15 MST1.3P  1.01P  0.00P  
02/01/2016 23:30 MST1.2P  0.98P  0.00P  
02/01/2016 23:45 MST1.3P  1.01P  0.00P  
02/02/2016 00:00 MST1.3P  1.00P  0.00P  
02/02/2016 00:15 MST1.3P  1.00P  0.00P  
02/02/2016 00:30 MST1.1P  0.97P  0.00P  
02/02/2016 00:45 MST1.3P  1.00P  0.00P  
02/02/2016 01:00 MST1.3P  1.00P  0.00P  
02/02/2016 01:15 MST1.3P  1.01P  0.00P  
02/02/2016 01:30 MST1.3P  1.00P  0.00P  
02/02/2016 01:45 MST1.3P  1.01P  0.00P  
02/02/2016 02:00 MST1.3P  1.00P  0.00P  
02/02/2016 02:15 MST1.3P  1.00P  0.00P  
02/02/2016 02:30 MST1.3P  1.01P  0.00P  
02/02/2016 02:45 MST1.2P  0.98P  0.00P  
02/02/2016 03:00 MST1.3P  1.00P  0.00P  
02/02/2016 03:15 MST1.3P  1.00P  0.00P  
02/02/2016 03:30 MST1.3P  1.00P  0.00P  
02/02/2016 03:45 MST1.3P  1.01P  0.00P  
02/02/2016 04:00 MST1.2P  0.98P  0.00P  
02/02/2016 04:15 MST1.3P  1.01P  0.00P  
02/02/2016 04:30 MST1.3P  1.00P  0.00P  
02/02/2016 04:45 MST1.2P  0.99P  0.00P  
02/02/2016 05:00 MST1.3P  1.01P  0.00P  
02/02/2016 05:15 MST1.2P  0.98P  0.00P  
02/02/2016 05:30 MST1.1P  0.97P  0.00P  
02/02/2016 05:45 MST1.3P  1.00P  0.00P  
02/02/2016 06:00 MST1.3P  1.00P  0.00P  
02/02/2016 06:15 MST1.3P  1.00P  0.00P  
02/02/2016 06:30 MST1.2P  0.99P  0.00P  
02/02/2016 06:45 MST1.3P  1.01P  0.00P  
02/02/2016 07:00 MST1.3P  1.00P  0.00P  
02/02/2016 07:15 MST1.2P  0.99P  0.00P  
02/02/2016 07:30 MST1.3P  1.00P  0.00P  
02/02/2016 07:45 MST1.3P  1.00P  0.00P  
02/02/2016 08:00 MST1.3P  1.00P  0.00P  
02/02/2016 08:15 MST1.3P  1.00P  0.00P  
02/02/2016 08:30 MST1.2P  0.98P  0.00P  
02/02/2016 08:45 MST1.3P  1.00P  0.00P  
02/02/2016 09:00 MST1.3P  1.00P  0.00P  
02/02/2016 09:15 MST1.3P  1.00P  0.00P  
02/02/2016 09:30 MST1.2P  0.99P  0.00P  
02/02/2016 09:45 MST1.2P  0.99P  0.00P  
02/02/2016 10:00 MST1.3P  1.00P  0.00P  
02/02/2016 10:15 MST1.3P  1.00P  0.00P  
02/02/2016 10:30 MST1.3P  1.00P  0.00P  
02/02/2016 10:45 MST1.2P  0.99P  0.00P  
02/02/2016 11:00 MST1.3P  1.00P  0.00P  
02/02/2016 11:15 MST1.3P  1.00P  0.00P  
02/02/2016 11:30 MST1.3P  1.00P  0.00P  
02/02/2016 11:45 MST1.2P  0.98P  0.00P  
02/02/2016 12:00 MST1.3P  1.00P  0.00P  
02/02/2016 12:15 MST1.3P  1.00P  0.01P  
02/02/2016 12:30 MST1.3P  1.00P  0.00P  
02/02/2016 12:45 MST1.1P  0.97P  0.00P  
02/02/2016 13:00 MST1.3P  1.00P  0.00P  
02/02/2016 13:15 MST1.3P  1.00P  0.00P  
02/02/2016 13:30 MST1.3P  1.00P  0.00P  
02/02/2016 13:45 MST1.3P  1.00P  0.00P  
02/02/2016 14:00 MST1.3P  1.00P  0.00P  
02/02/2016 14:15 MST1.3P  1.00P  0.00P  
02/02/2016 14:30 MST1.2P  0.99P  0.00P  
02/02/2016 14:45 MST1.3P  1.00P  0.00P  
02/02/2016 15:00 MST1.3P  1.00P  0.00P  
02/02/2016 15:15 MST1.2P  0.99P  0.00P  
02/02/2016 15:30 MST1.3P  1.00P  0.00P  
02/02/2016 15:45 MST1.3P  1.00P  0.00P  
02/02/2016 16:00 MST1.2P  0.98P  0.00P  
02/02/2016 16:15 MST1.3P  1.00P  0.00P  
02/02/2016 16:30 MST1.3P  1.00P  0.00P  
02/02/2016 16:45 MST1.3P  1.00P  0.00P  
02/02/2016 17:00 MST1.3P  1.00P  0.00P  
02/02/2016 17:15 MST1.2P  0.99P  0.00P  
02/02/2016 17:30 MST1.3P  1.00P  0.00P  
02/02/2016 17:45 MST1.2P  0.99P  0.00P  
02/02/2016 18:00 MST1.2P  0.99P  0.00P  
02/02/2016 18:15 MST1.3P  1.00P  0.00P  
02/02/2016 18:30 MST1.2P  0.99P  0.00P  
02/02/2016 18:45 MST1.3P  1.00P  0.00P  
02/02/2016 19:00 MST1.2P  0.99P  0.00P  
02/02/2016 19:15 MST1.3P  1.00P  0.00P  
02/02/2016 19:30 MST1.2P  0.99P  0.00P  
02/02/2016 19:45 MST1.2P  0.99P  0.00P  
02/02/2016 20:00 MST1.2P  0.98P  0.00P  
02/02/2016 20:15 MST1.3P  1.00P  0.00P  
02/02/2016 20:30 MST1.2P  0.99P  0.00P  
02/02/2016 20:45 MST1.2P  0.99P  0.00P  
02/02/2016 21:00 MST1.2P  0.98P  0.00P  
02/02/2016 21:15 MST1.2P  0.99P  0.00P  
02/02/2016 21:30 MST1.1P  0.97P  0.00P  
02/02/2016 21:45 MST1.3P  1.00P  0.00P  
02/02/2016 22:00 MST1.2P  0.99P  0.00P  
02/02/2016 22:15 MST1.2P  0.99P  0.00P  
02/02/2016 22:30 MST1.2P  0.99P  0.00P  
02/02/2016 22:45 MST1.2P  0.99P  0.00P  
02/02/2016 23:00 MST1.2P  0.99P  0.00P  
02/02/2016 23:15 MST1.2P  0.98P  0.00P  
02/02/2016 23:30 MST1.3P  1.00P  0.00P  
02/02/2016 23:45 MST1.2P  0.99P  0.00P  
02/03/2016 00:00 MST1.2P  0.98P  0.00P  
02/03/2016 00:15 MST1.2P  0.99P  0.00P  
02/03/2016 00:30 MST1.0P  0.95P  0.00P  
02/03/2016 00:45 MST1.2P  0.99P  0.00P  
02/03/2016 01:00 MST1.2P  0.99P  0.00P  
02/03/2016 01:15 MST1.2P  0.99P  0.00P  
02/03/2016 01:30 MST1.2P  0.99P  0.00P  
02/03/2016 01:45 MST1.2P  0.99P  0.00P  
02/03/2016 02:00 MST1.2P  0.98P  0.00P  
02/03/2016 02:15 MST1.2P  0.99P  0.00P  
02/03/2016 02:30 MST1.2P  0.99P  0.00P  
02/03/2016 02:45 MST1.2P  0.99P  0.00P  
02/03/2016 03:00 MST1.2P  0.99P  0.00P  
02/03/2016 03:15 MST1.2P  0.98P  0.00P  
02/03/2016 03:30 MST1.2P  0.99P  0.00P  
02/03/2016 03:45 MST1.2P  0.99P  0.00P  
02/03/2016 04:00 MST1.2P  0.99P  0.00P  
02/03/2016 04:15 MST1.2P  0.99P  0.00P  
02/03/2016 04:30 MST1.2P  0.99P  0.00P  
02/03/2016 04:45 MST1.2P  0.99P  0.00P  
02/03/2016 05:00 MST1.2P  0.98P  0.00P  
02/03/2016 05:15 MST1.1P  0.96P  0.00P  
02/03/2016 05:30 MST1.1P  0.97P  0.00P  
02/03/2016 05:45 MST1.1P  0.97P  0.00P  
02/03/2016 06:00 MST1.2P  0.99P  0.00P  
02/03/2016 06:15 MST1.2P  0.98P  0.00P  
02/03/2016 06:30 MST1.2P  0.99P  0.00P  
02/03/2016 06:45 MST1.2P  0.99P  0.00P  
02/03/2016 07:00 MST1.1P  0.96P  0.00P  
02/03/2016 07:15 MST1.2P  0.99P  0.00P  
02/03/2016 07:30 MST1.2P  0.99P  0.00P  
02/03/2016 07:45 MST1.1P  0.97P  0.00P  
02/03/2016 08:00 MST1.1P  0.97P  0.00P  
02/03/2016 08:15 MST1.1P  0.97P  0.00P  
02/03/2016 08:30 MST1.2P  0.98P  0.00P  
02/03/2016 08:45 MST1.2P  0.98P  0.00P  
02/03/2016 09:00 MST1.2P  0.98P  0.00P  
02/03/2016 09:15 MST1.2P  0.98P  0.00P  
02/03/2016 09:30 MST1.1P  0.97P  0.00P  
02/03/2016 09:45 MST1.2P  0.98P  0.00P  
02/03/2016 10:00 MST1.1P  0.97P  0.00P  
02/03/2016 10:15 MST1.2P  0.98P  0.00P  
02/03/2016 10:30 MST1.2P  0.98P  0.00P  
02/03/2016 10:45 MST1.2P  0.98P  0.00P  
02/03/2016 11:00 MST1.2P  0.98P  0.00P  
02/03/2016 11:15 MST1.2P  0.98P  0.00P  
02/03/2016 11:30 MST1.2P  0.98P  0.00P  
02/03/2016 11:45 MST1.2P  0.98P  0.00P  
02/03/2016 12:00 MST1.2P  0.98P  0.00P  
02/03/2016 12:15 MST1.1P  0.97P  0.00P  
02/03/2016 12:30 MST1.1P  0.97P  0.00P  
02/03/2016 12:45 MST1.2P  0.98P  0.00P  
02/03/2016 13:00 MST1.2P  0.98P  0.00P  
02/03/2016 13:15 MST1.2P  0.98P  0.00P  
02/03/2016 13:30 MST1.2P  0.98P  0.00P  
02/03/2016 13:45 MST1.2P  0.98P  0.00P  
02/03/2016 14:00 MST1.2P  0.98P  0.00P  
02/03/2016 14:15 MST1.2P  0.98P  0.00P  
02/03/2016 14:30 MST1.2P  0.98P  0.00P  
02/03/2016 14:45 MST1.2P  0.98P  0.00P  
02/03/2016 15:00 MST1.1P  0.96P  0.00P  
02/03/2016 15:15 MST1.1P  0.97P  0.00P  
02/03/2016 15:30 MST1.2P  0.98P  0.00P  
02/03/2016 15:45 MST1.2P  0.98P  0.00P  
02/03/2016 16:00 MST1.1P  0.96P  0.00P  
02/03/2016 16:15 MST1.2P  0.98P  0.00P  
02/03/2016 16:30 MST1.2P  0.98P  0.00P  
02/03/2016 16:45 MST1.1P  0.97P  0.00P  
02/03/2016 17:00 MST1.1P  0.97P  0.00P  
02/03/2016 17:15 MST1.1P  0.97P  0.00P  
02/03/2016 17:30 MST1.1P  0.97P  0.00P  
02/03/2016 17:45 MST1.1P  0.97P  0.00P  
02/03/2016 18:00 MST1.2P  0.98P  0.00P  
02/03/2016 18:15 MST1.2P  0.98P  0.00P  
02/03/2016 18:30 MST1.2P  0.98P  0.00P  
02/03/2016 18:45 MST1.2P  0.98P  0.00P  
02/03/2016 19:00 MST1.2P  0.98P  0.00P  
02/03/2016 19:15 MST1.1P  0.97P  0.00P  
02/03/2016 19:30 MST1.2P  0.98P  0.00P  
02/03/2016 19:45 MST1.2P  0.98P  0.00P  
02/03/2016 20:00 MST1.1P  0.96P  0.00P  
02/03/2016 20:15 MST1.1P  0.97P  0.00P  
02/03/2016 20:30 MST1.1P  0.97P  0.00P  
02/03/2016 20:45 MST1.1P  0.97P  0.00P  
02/03/2016 21:00 MST1.1P  0.96P  0.00P  
02/03/2016 21:15 MST1.1P  0.96P  0.00P  
02/03/2016 21:30 MST1.0P  0.95P  0.00P  
02/03/2016 21:45 MST1.1P  0.96P  0.00P  
02/03/2016 22:00 MST1.0P  0.95P  0.00P  
02/03/2016 22:15 MST1.0P  0.95P  0.00P  
02/03/2016 22:30 MST1.1P  0.96P  0.00P  
02/03/2016 22:45 MST1.0P  0.95P  0.00P  
02/03/2016 23:00 MST1.1P  0.96P  0.00P  
02/03/2016 23:15 MST1.1P  0.96P  0.00P  
02/03/2016 23:30 MST1.1P  0.96P  0.00P  
02/03/2016 23:45 MST1.1P  0.96P  0.00P  
02/04/2016 00:00 MST1.1P  0.96P  0.00P  
02/04/2016 00:15 MST1.1P  0.96P  0.00P  
02/04/2016 00:30 MST1.1P  0.96P  0.00P  
02/04/2016 00:45 MST1.1P  0.96P  0.00P  
02/04/2016 01:00 MST1.1P  0.96P  0.00P  
02/04/2016 01:15 MST1.1P  0.96P  0.00P  
02/04/2016 01:30 MST1.0P  0.95P  0.00P  
02/04/2016 01:45 MST1.0P  0.95P  0.00P  
02/04/2016 02:00 MST1.1P  0.96P  0.00P  
02/04/2016 02:15 MST1.1P  0.96P  0.00P  
02/04/2016 02:30 MST1.1P  0.96P  0.00P  
02/04/2016 02:45 MST1.0P  0.95P  0.00P  
02/04/2016 03:00 MST1.0P  0.94P  0.00P  
02/04/2016 03:15 MST1.0P  0.95P  0.00P  
02/04/2016 03:30 MST1.0P  0.95P  0.00P  
02/04/2016 03:45 MST1.0P  0.95P  0.00P  
02/04/2016 04:00 MST1.0P  0.95P  0.00P  
02/04/2016 04:15 MST1.0P  0.95P  0.00P  
02/04/2016 04:30 MST1.0P  0.95P  0.00P  
02/04/2016 04:45 MST1.0P  0.95P  0.00P  
02/04/2016 05:00 MST1.0P  0.95P  0.00P  
02/04/2016 05:15 MST1.0P  0.95P  0.00P  
02/04/2016 05:30 MST1.1P  0.96P  0.00P  
02/04/2016 05:45 MST1.1P  0.97P  0.00P  
02/04/2016 06:00 MST1.2P  0.98P  0.00P  
02/04/2016 06:15 MST1.2P  0.98P  0.00P  
02/04/2016 06:30 MST1.1P  0.96P  0.00P  
02/04/2016 06:45 MST1.0P  0.95P  0.00P  
02/04/2016 07:00 MST1.0P  0.95P  0.00P  
02/04/2016 07:15 MST1.1P  0.97P  0.00P  
02/04/2016 07:30 MST1.2P  0.98P  0.00P  
02/04/2016 07:45 MST1.2P  0.99P  0.00P  
02/04/2016 08:00 MST1.1P  0.96P  0.00P  
02/04/2016 08:15 MST1.0P  0.95P  0.00P  
02/04/2016 08:30 MST1.0P  0.95P  0.00P  
02/04/2016 08:45 MST1.1P  0.96P  0.00P  
02/04/2016 09:00 MST1.0P  0.95P  0.00P  
02/04/2016 09:15 MST1.0P  0.94P  0.00P  
02/04/2016 09:30 MST1.0P  0.95P  0.00P  
02/04/2016 09:45 MST1.1P  0.96P  0.00P  
02/04/2016 10:00 MST1.2P  0.98P  0.00P  
02/04/2016 10:15 MST1.1P  0.96P  0.00P  
02/04/2016 10:30 MST1.1P  0.97P  0.00P  
02/04/2016 10:45 MST1.3P  1.00P  0.00P  
02/04/2016 11:00 MST1.0P  0.95P  0.00P  
02/04/2016 11:15 MST1.1P  0.96P  0.00P  
02/04/2016 11:30 MST1.1P  0.96P  0.00P  
02/04/2016 11:45 MST1.1P  0.96P  0.00P  
02/04/2016 12:00 MST1.1P  0.97P  0.00P  
02/04/2016 12:15 MST1.1P  0.96P  0.00P  
02/04/2016 12:30 MST1.1P  0.96P  0.00P  
02/04/2016 12:45 MST1.1P  0.96P  0.00P  
02/04/2016 13:00 MST1.1P  0.96P  0.00P  
02/04/2016 13:15 MST1.1P  0.96P  0.00P  
02/04/2016 13:30 MST1.1P  0.96P  0.00P  
02/04/2016 13:45 MST1.0P  0.95P  0.00P  
02/04/2016 14:00 MST1.1P  0.96P  0.00P  
02/04/2016 14:15 MST1.1P  0.96P  0.00P  
02/04/2016 14:30 MST1.1P  0.96P  0.00P  
02/04/2016 14:45 MST1.1P  0.96P  0.00P  
02/04/2016 15:00 MST1.1P  0.97P  0.00P  
02/04/2016 15:15 MST1.1P  0.97P  0.00P  
02/04/2016 15:30 MST1.1P  0.97P  0.00P  
02/04/2016 15:45 MST1.1P  0.97P  0.00P  
02/04/2016 16:00 MST1.1P  0.96P  0.00P  
02/04/2016 16:15 MST1.1P  0.97P  0.00P  
02/04/2016 16:30 MST1.1P  0.96P  0.00P  
02/04/2016 16:45 MST1.1P  0.97P  0.00P  
02/04/2016 17:00 MST1.1P  0.97P  0.00P  
02/04/2016 17:15 MST1.1P  0.96P  0.00P  
02/04/2016 17:30 MST1.1P  0.97P  0.00P  
02/04/2016 17:45 MST1.1P  0.97P  0.00P  
02/04/2016 18:00 MST1.1P  0.97P  0.00P  
02/04/2016 18:15 MST1.1P  0.97P  0.00P  
02/04/2016 18:30 MST1.1P  0.97P  0.00P  
02/04/2016 18:45 MST1.1P  0.96P  0.00P  
02/04/2016 19:00 MST1.2P  0.98P  0.00P  
02/04/2016 19:15 MST1.2P  0.98P  0.00P  
02/04/2016 19:30 MST1.2P  0.98P  0.00P  
02/04/2016 19:45 MST1.3P  1.00P  0.00P  
02/04/2016 20:00 MST1.2P  0.98P  0.00P  
02/04/2016 20:15 MST1.2P  0.98P  0.00P  
02/04/2016 20:30 MST1.2P  0.98P  0.00P  
02/04/2016 20:45 MST1.2P  0.98P  0.00P  
02/04/2016 21:00 MST1.1P  0.96P  0.00P  
02/04/2016 21:15 MST1.2P  0.99P  0.00P  
02/04/2016 21:30 MST1.3P  1.01P  0.00P  
02/04/2016 21:45 MST1.1P  0.96P  0.00P  
02/04/2016 22:00 MST1.3P  1.00P  0.00P  
02/04/2016 22:15 MST1.2P  0.99P  0.00P  
02/04/2016 22:30 MST1.1P  0.96P  0.00P  
02/04/2016 22:45 MST1.3P  1.00P  0.00P  
02/04/2016 23:00 MST1.3P  1.00P  0.00P  
02/04/2016 23:15 MST1.2P  0.99P  0.00P  
02/04/2016 23:30 MST1.2P  0.99P  0.00P  
02/04/2016 23:45 MST1.2P  0.99P  0.00P  
02/05/2016 00:00 MST1.2P  0.99P  0.00P  
02/05/2016 00:15 MST1.2P  0.99P  0.00P  
02/05/2016 00:30 MST1.2P  0.99P  0.00P  
02/05/2016 00:45 MST1.2P  0.99P  0.00P  
02/05/2016 01:00 MST1.2P  0.99P  0.00P  
02/05/2016 01:15 MST1.2P  0.98P  0.00P  
02/05/2016 01:30 MST1.2P  0.99P  0.00P  
02/05/2016 01:45 MST1.2P  0.98P  0.00P  
02/05/2016 02:00 MST1.2P  0.98P  0.00P  
02/05/2016 02:15 MST1.2P  0.98P  0.00P  
02/05/2016 02:30 MST1.2P  0.99P  0.00P  
02/05/2016 02:45 MST1.2P  0.99P  0.00P  
02/05/2016 03:00 MST1.2P  0.98P  0.00P  
02/05/2016 03:15 MST1.2P  0.98P  0.00P  
02/05/2016 03:30 MST1.2P  0.98P  0.00P  
02/05/2016 03:45 MST1.2P  0.98P  0.00P  
02/05/2016 04:00 MST1.2P  0.98P  0.00P  
02/05/2016 04:15 MST1.2P  0.98P  0.00P  
02/05/2016 04:30 MST1.1P  0.96P  0.00P  
02/05/2016 04:45 MST1.2P  0.98P  0.00P  
02/05/2016 05:00 MST1.2P  0.98P  0.00P  
02/05/2016 05:15 MST1.1P  0.97P  0.00P  
02/05/2016 05:30 MST1.1P  0.96P  0.00P  
02/05/2016 05:45 MST1.1P  0.96P  0.00P  
02/05/2016 06:00 MST1.2P  0.98P  0.00P  
02/05/2016 06:15 MST1.1P  0.97P  0.00P  
02/05/2016 06:30 MST1.2P  0.98P  0.00P  
02/05/2016 06:45 MST1.1P  0.96P  0.00P  
02/05/2016 07:00 MST1.1P  0.97P  0.00P  
02/05/2016 07:15 MST1.1P  0.96P  0.00P  
02/05/2016 07:30 MST1.1P  0.97P  0.00P  
02/05/2016 07:45 MST1.1P  0.96P  0.00P  
02/05/2016 08:00 MST1.1P  0.97P  0.00P  
02/05/2016 08:15 MST1.1P  0.96P  0.00P  
02/05/2016 08:30 MST1.1P  0.96P  0.00P  
02/05/2016 08:45 MST1.1P  0.96P  0.00P  
02/05/2016 09:00 MST1.1P  0.96P  0.00P  
02/05/2016 09:15 MST1.1P  0.96P  0.00P  
02/05/2016 09:30 MST1.1P  0.97P  0.00P  
02/05/2016 09:45 MST1.1P  0.97P  0.00P  
02/05/2016 10:00 MST1.1P  0.96P  0.00P  
02/05/2016 10:15 MST1.2P  0.98P  0.00P  
02/05/2016 10:30 MST1.0P  0.95P  0.00P  
02/05/2016 10:45 MST1.1P  0.97P  0.00P  
02/05/2016 11:00 MST1.1P  0.97P  0.00P  
02/05/2016 11:15 MST1.1P  0.96P  0.00P  
02/05/2016 11:30 MST1.1P  0.97P  0.00P  
02/05/2016 11:45 MST1.1P  0.97P  0.00P  
02/05/2016 12:00 MST1.1P  0.97P  0.00P  
02/05/2016 12:15 MST1.1P  0.97P  0.00P  
02/05/2016 12:30 MST1.1P  0.96P  0.00P  
02/05/2016 12:45 MST1.1P  0.97P  0.00P  
02/05/2016 13:00 MST1.1P  0.97P  0.00P  
02/05/2016 13:15 MST1.1P  0.97P  0.00P  
02/05/2016 13:30 MST1.2P  0.99P  0.00P  
02/05/2016 13:45 MST1.2P  0.99P  0.00P  
02/05/2016 14:00 MST1.2P  0.99P  0.00P  
02/05/2016 14:15 MST1.2P  0.99P  0.00P  
02/05/2016 14:30 MST1.2P  0.99P  0.00P  
02/05/2016 14:45 MST1.2P  0.99P  0.00P  
02/05/2016 15:00 MST1.2P  0.99P  0.00P  
02/05/2016 15:15 MST1.2P  0.99P  0.00P  
02/05/2016 15:30 MST1.2P  0.99P  0.00P  
02/05/2016 15:45 MST1.0P  0.95P  0.00P  
02/05/2016 16:00 MST1.2P  0.98P  0.00P  
02/05/2016 16:15 MST1.3P  1.00P  0.00P  
02/05/2016 16:30 MST1.2P  0.99P  0.00P  
02/05/2016 16:45 MST1.3P  1.00P  0.00P  
02/05/2016 17:00 MST1.2P  0.99P  0.00P  
02/05/2016 17:15 MST1.2P  0.99P  0.00P  
02/05/2016 17:30 MST1.2P  0.99P  0.00P  
02/05/2016 17:45 MST1.2P  0.99P  0.00P  
02/05/2016 18:00 MST1.2P  0.99P  0.00P  
02/05/2016 18:15 MST1.2P  0.99P  0.00P  
02/05/2016 18:30 MST1.2P  0.99P  0.00P  
02/05/2016 18:45 MST1.2P  0.99P  0.00P  
02/05/2016 19:00 MST1.2P  0.99P  0.00P  
02/05/2016 19:15 MST1.2P  0.99P  0.00P  
02/05/2016 19:30 MST1.2P  0.99P  0.00P  
02/05/2016 19:45 MST1.2P  0.99P  0.00P  
02/05/2016 20:00 MST1.2P  0.99P  0.00P  
02/05/2016 20:15 MST1.2P  0.99P  0.00P  
02/05/2016 20:30 MST1.2P  0.99P  0.00P  
02/05/2016 20:45 MST1.2P  0.99P  0.00P  
02/05/2016 21:00 MST1.2P  0.99P  0.00P  
02/05/2016 21:15 MST1.2P  0.99P  0.00P  
02/05/2016 21:30 MST1.2P  0.99P  0.00P  
02/05/2016 21:45 MST1.2P  0.99P  0.00P  
02/05/2016 22:00 MST1.2P  0.99P  0.00P  
02/05/2016 22:15 MST1.2P  0.99P  0.00P  
02/05/2016 22:30 MST1.2P  0.99P  0.00P  
02/05/2016 22:45 MST1.2P  0.99P  0.00P  
02/05/2016 23:00 MST1.2P  0.99P  0.00P  
02/05/2016 23:15 MST1.2P  0.99P  0.00P  
02/05/2016 23:30 MST1.2P  0.98P  0.00P  
02/05/2016 23:45 MST1.2P  0.99P  0.00P  
02/06/2016 00:00 MST1.2P  0.99P  0.00P  
02/06/2016 00:15 MST1.1P  0.96P  0.00P  
02/06/2016 00:30 MST1.2P  0.99P  0.00P  
02/06/2016 00:45 MST1.2P  0.99P  0.00P  
02/06/2016 01:00 MST1.2P  0.98P  0.00P  
02/06/2016 01:15 MST1.2P  0.99P  0.00P  
02/06/2016 01:30 MST1.2P  0.99P  0.00P  
02/06/2016 01:45 MST1.2P  0.99P  0.00P  
02/06/2016 02:00 MST1.2P  0.99P  0.00P  
02/06/2016 02:15 MST1.2P  0.99P  0.00P  
02/06/2016 02:30 MST1.2P  0.99P  0.00P  
02/06/2016 02:45 MST1.2P  0.99P  0.00P  
02/06/2016 03:00 MST1.2P  0.99P  0.00P  
02/06/2016 03:15 MST1.2P  0.99P  0.00P  
02/06/2016 03:30 MST1.2P  0.99P  0.00P  
02/06/2016 03:45 MST1.2P  0.99P  0.00P  
02/06/2016 04:00 MST1.2P  0.99P  0.00P  
02/06/2016 04:15 MST1.2P  0.99P  0.00P  
02/06/2016 04:30 MST1.2P  0.99P  0.00P  
02/06/2016 04:45 MST1.2P  0.99P  0.00P  
02/06/2016 05:00 MST1.2P  0.99P  0.00P  
02/06/2016 05:15 MST1.1P  0.97P  0.00P  
02/06/2016 05:30 MST1.0P  0.95P  0.00P  
02/06/2016 05:45 MST1.1P  0.97P  0.00P  
02/06/2016 06:00 MST1.2P  0.99P  0.00P  
02/06/2016 06:15 MST1.2P  0.98P  0.00P  
02/06/2016 06:30 MST1.2P  0.99P  0.00P  
02/06/2016 06:45 MST1.3P  1.01P  0.00P  
02/06/2016 07:00 MST1.1P  0.97P  0.00P  
02/06/2016 07:15 MST1.2P  0.99P  0.00P  
02/06/2016 07:30 MST1.1P  0.97P  0.00P  
02/06/2016 07:45 MST1.2P  0.99P  0.00P  
02/06/2016 08:00 MST1.2P  0.99P  0.00P  
02/06/2016 08:15 MST1.1P  0.97P  0.00P  
02/06/2016 08:30 MST1.2P  0.98P  0.00P  
02/06/2016 08:45 MST1.1P  0.97P  0.00P  
02/06/2016 09:00 MST1.1P  0.97P  0.00P  
02/06/2016 09:15 MST1.1P  0.97P  0.00P  
02/06/2016 09:30 MST1.2P  0.98P  0.00P  
02/06/2016 09:45 MST1.1P  0.97P  0.00P  
02/06/2016 10:00 MST1.2P  0.98P  0.00P  
02/06/2016 10:15 MST1.0P  0.95P  0.00P  
02/06/2016 10:30 MST1.2P  0.99P  0.00P  
02/06/2016 10:45 MST1.2P  0.99P  0.00P  
02/06/2016 11:00 MST1.2P  0.99P  0.00P  
02/06/2016 11:15 MST1.2P  0.98P  0.00P  
02/06/2016 11:30 MST1.2P  0.99P  0.00P  
02/06/2016 11:45 MST1.2P  0.99P  0.00P  
02/06/2016 12:00 MST1.2P  0.98P  0.00P  
02/06/2016 12:15 MST1.2P  0.99P  0.00P  
02/06/2016 12:30 MST1.2P  0.99P  0.00P  
02/06/2016 12:45 MST1.2P  0.99P  0.00P  
02/06/2016 13:00 MST1.2P  0.99P  0.00P  
02/06/2016 13:15 MST1.2P  0.99P  0.00P  
02/06/2016 13:30 MST1.2P  0.99P  0.00P  
02/06/2016 13:45 MST1.2P  0.99P  0.00P  
02/06/2016 14:00 MST1.2P  0.99P  0.00P  
02/06/2016 14:15 MST1.2P  0.99P  0.00P  
02/06/2016 14:30 MST1.2P  0.99P  0.00P  
02/06/2016 14:45 MST1.2P  0.98P  0.00P  
02/06/2016 15:00 MST1.2P  0.99P  0.00P  
02/06/2016 15:15 MST1.2P  0.99P  0.00P  
02/06/2016 15:30 MST1.2P  0.99P  0.00P  
02/06/2016 15:45 MST1.2P  0.99P  0.00P  
02/06/2016 16:00 MST1.2P  0.99P  0.00P  
02/06/2016 16:15 MST1.1P  0.96P  0.00P  
02/06/2016 16:30 MST1.2P  0.99P  0.00P  
02/06/2016 16:45 MST1.2P  0.99P  0.00P  
02/06/2016 17:00 MST1.3P  1.00P  0.00P  
02/06/2016 17:15 MST1.2P  0.99P  0.00P  
02/06/2016 17:30 MST1.2P  0.99P  0.00P  
02/06/2016 17:45 MST1.2P  0.99P  0.00P  
02/06/2016 18:00 MST1.2P  0.99P  0.00P  
02/06/2016 18:15 MST1.2P  0.99P  0.00P  
02/06/2016 18:30 MST1.2P  0.99P  0.00P  
02/06/2016 18:45 MST1.2P  0.99P  0.00P  
02/06/2016 19:00 MST1.2P  0.99P  0.00P  
02/06/2016 19:15 MST1.3P  1.00P  0.00P  
02/06/2016 19:30 MST1.2P  0.99P  0.00P  
02/06/2016 19:45 MST1.2P  0.99P  0.00P  
02/06/2016 20:00 MST1.2P  0.99P  0.00P  
02/06/2016 20:15 MST1.2P  0.99P  0.00P  
02/06/2016 20:30 MST1.2P  0.99P  0.00P  
02/06/2016 20:45 MST1.1P  0.97P  0.00P  
02/06/2016 21:00 MST1.2P  0.99P  0.00P  
02/06/2016 21:15 MST1.1P  0.97P  0.00P  
02/06/2016 21:30 MST1.2P  0.98P  0.00P  
02/06/2016 21:45 MST1.2P  0.99P  0.00P  
02/06/2016 22:00 MST1.2P  0.98P  0.00P  
02/06/2016 22:15 MST1.2P  0.99P  0.00P  
02/06/2016 22:30 MST1.2P  0.98P  0.00P  
02/06/2016 22:45 MST1.2P  0.99P  0.00P  
02/06/2016 23:00 MST1.1P  0.97P  0.00P  
02/06/2016 23:15 MST1.2P  0.99P  0.00P  
02/06/2016 23:30 MST1.2P  0.99P  0.00P  
02/06/2016 23:45 MST1.2P  0.99P  0.00P  
02/07/2016 00:00 MST1.2P  0.99P  0.00P  
02/07/2016 00:15 MST1.2P  0.99P  0.00P  
02/07/2016 00:30 MST1.2P  0.99P  0.00P  
02/07/2016 00:45 MST1.2P  0.99P  0.00P  
02/07/2016 01:00 MST1.2P  0.98P  0.00P  
02/07/2016 01:15 MST1.2P  0.99P  0.00P  
02/07/2016 01:30 MST1.2P  0.99P  0.00P  
02/07/2016 01:45 MST1.2P  0.99P  0.00P  
02/07/2016 02:00 MST1.2P  0.99P  0.00P  
02/07/2016 02:15 MST1.2P  0.99P  0.00P  
02/07/2016 02:30 MST1.2P  0.99P  0.00P  
02/07/2016 02:45 MST1.2P  0.99P  0.00P  
02/07/2016 03:00 MST1.2P  0.99P  0.00P  
02/07/2016 03:15 MST1.2P  0.99P  0.00P  
02/07/2016 03:30 MST1.1P  0.97P  0.00P  
02/07/2016 03:45 MST1.2P  0.99P  0.00P  
02/07/2016 04:00 MST1.2P  0.99P  0.00P  
02/07/2016 04:15 MST1.2P  0.99P  0.00P  
02/07/2016 04:30 MST1.2P  0.99P  0.00P  
02/07/2016 04:45 MST1.2P  0.99P  0.00P  
02/07/2016 05:00 MST1.2P  0.99P  0.00P  
02/07/2016 05:15 MST1.2P  0.98P  0.00P  
02/07/2016 05:30 MST1.2P  0.98P  0.00P  
02/07/2016 05:45 MST1.2P  0.98P  0.00P  
02/07/2016 06:00 MST1.2P  0.99P  0.00P  
02/07/2016 06:15 MST1.2P  0.99P  0.00P  
02/07/2016 06:30 MST1.2P  0.99P  0.00P  
02/07/2016 06:45 MST1.2P  0.99P  0.00P  
02/07/2016 07:00 MST1.2P  0.99P  0.00P  
02/07/2016 07:15 MST1.2P  0.99P  0.00P  
02/07/2016 07:30 MST1.2P  0.99P  0.00P  
02/07/2016 07:45 MST1.2P  0.99P  0.00P  
02/07/2016 08:00 MST1.2P  0.98P  0.00P  
02/07/2016 08:15 MST1.2P  0.99P  0.00P  
02/07/2016 08:30 MST1.2P  0.98P  0.00P  
02/07/2016 08:45 MST1.2P  0.99P  0.00P  
02/07/2016 09:00 MST1.2P  0.99P  0.00P  
02/07/2016 09:15 MST1.2P  0.99P  0.00P  
02/07/2016 09:30 MST1.2P  0.99P  0.00P  
02/07/2016 09:45 MST1.2P  0.99P  0.00P  
02/07/2016 10:00 MST1.2P  0.99P  0.00P  
02/07/2016 10:15 MST1.2P  0.99P  0.00P  
02/07/2016 10:30 MST1.2P  0.99P  0.00P  
02/07/2016 10:45 MST1.2P  0.99P  0.00P  
02/07/2016 11:00 MST1.2P  0.99P  0.00P  
02/07/2016 11:15 MST1.2P  0.98P  0.00P  
02/07/2016 11:30 MST1.2P  0.99P  0.00P  
02/07/2016 11:45 MST1.2P  0.99P  0.00P  
02/07/2016 12:00 MST1.2P  0.99P  0.00P  
02/07/2016 12:15 MST1.1P  0.97P  0.00P  
02/07/2016 12:30 MST1.2P  0.99P  0.00P  
02/07/2016 12:45 MST1.2P  0.99P  0.00P  
02/07/2016 13:00 MST1.2P  0.99P  0.00P  
02/07/2016 13:15 MST1.2P  0.99P  0.00P  
02/07/2016 13:30 MST1.2P  0.99P  0.00P  
02/07/2016 13:45 MST1.2P  0.99P  0.00P  
02/07/2016 14:00 MST1.2P  0.99P  0.00P  
02/07/2016 14:15 MST1.2P  0.99P  0.00P  
02/07/2016 14:30 MST1.2P  0.99P  0.00P  
02/07/2016 14:45 MST1.3P  1.00P  0.00P  
02/07/2016 15:00 MST1.3P  1.00P  0.00P  
02/07/2016 15:15 MST1.2P  0.99P  0.00P  
02/07/2016 15:30 MST1.1P  0.96P  0.00P  
02/07/2016 15:45 MST1.2P  0.99P  0.00P  
02/07/2016 16:00 MST1.2P  0.99P  0.00P  
02/07/2016 16:15 MST1.2P  0.99P  0.00P  
02/07/2016 16:30 MST1.2P  0.99P  0.00P  
02/07/2016 16:45 MST1.2P  0.99P  0.00P  
02/07/2016 17:00 MST1.2P  0.99P  0.00P  
02/07/2016 17:15 MST1.2P  0.99P  0.00P  
02/07/2016 17:30 MST1.2P  0.99P  0.00P  
02/07/2016 17:45 MST1.2P  0.98P  0.00P  
02/07/2016 18:00 MST1.2P  0.99P  0.00P  
02/07/2016 18:15 MST1.2P  0.99P  0.00P  
02/07/2016 18:30 MST1.2P  0.99P  0.00P  
02/07/2016 18:45 MST1.2P  0.99P  0.00P  
02/07/2016 19:00 MST1.2P  0.98P  0.00P  
02/07/2016 19:15 MST1.2P  0.99P  0.00P  
02/07/2016 19:30 MST1.2P  0.99P  0.00P  
02/07/2016 19:45 MST1.2P  0.99P  0.00P  
02/07/2016 20:00 MST1.2P  0.98P  0.00P  
02/07/2016 20:15 MST1.2P  0.99P  0.00P  
02/07/2016 20:30 MST1.2P  0.99P  0.00P  
02/07/2016 20:45 MST1.2P  0.99P  0.00P  
02/07/2016 21:00 MST1.2P  0.99P  0.00P  
02/07/2016 21:15 MST1.1P  0.96P  0.00P  
02/07/2016 21:30 MST1.2P  0.99P  0.00P  
02/07/2016 21:45 MST1.2P  0.99P  0.00P  
02/07/2016 22:00 MST1.2P  0.99P  0.00P  
02/07/2016 22:15 MST1.2P  0.99P  0.00P  
02/07/2016 22:30 MST1.2P  0.99P  0.00P  
02/07/2016 22:45 MST1.2P  0.98P  0.00P  
02/07/2016 23:00 MST1.2P  0.99P  0.00P  
02/07/2016 23:15 MST1.2P  0.99P  0.00P  
02/07/2016 23:30 MST1.2P  0.99P  0.00P  
02/07/2016 23:45 MST1.2P  0.99P  0.00P  
02/08/2016 00:00 MST1.2P  0.99P  0.00P  
02/08/2016 00:15 MST1.2P  0.99P  0.00P  
02/08/2016 00:30 MST1.2P  0.99P  0.00P  
02/08/2016 00:45 MST1.2P  0.99P  0.00P  
02/08/2016 01:00 MST1.3P  1.00P  0.00P  
02/08/2016 01:15 MST1.2P  0.99P  0.00P  
02/08/2016 01:30 MST1.2P  0.99P  0.00P  
02/08/2016 01:45 MST1.2P  0.99P  0.00P  
02/08/2016 02:00 MST1.2P  0.99P  0.00P  
02/08/2016 02:15 MST1.2P  0.99P  0.00P  
02/08/2016 02:30 MST1.2P  0.99P  0.00P  
02/08/2016 02:45 MST1.2P  0.99P  0.00P  
02/08/2016 03:00 MST1.2P  0.99P  0.00P  
02/08/2016 03:15 MST1.3P  1.00P  0.00P  
02/08/2016 03:30 MST1.2P  0.99P  0.00P  
02/08/2016 03:45 MST1.2P  0.99P  0.00P  
02/08/2016 04:00 MST1.2P  0.99P  0.00P  
02/08/2016 04:15 MST1.2P  0.99P  0.00P  
02/08/2016 04:30 MST1.2P  0.99P  0.00P  
02/08/2016 04:45 MST1.2P  0.99P  0.00P  
02/08/2016 05:00 MST1.2P  0.99P  0.00P  
02/08/2016 05:15 MST1.1P  0.97P  0.00P  
02/08/2016 05:30 MST1.2P  0.98P  0.00P  
02/08/2016 05:45 MST1.2P  0.98P  0.00P  
02/08/2016 06:00 MST1.2P  0.99P  0.00P  
02/08/2016 06:15 MST1.0P  0.95P  0.00P  
02/08/2016 06:30 MST1.2P  0.99P  0.00P  
02/08/2016 06:45 MST1.2P  0.99P  0.00P  
02/08/2016 07:00 MST1.2P  0.99P  0.00P  
02/08/2016 07:15 MST1.2P  0.98P  0.00P  
02/08/2016 07:30 MST1.2P  0.98P  0.00P  
02/08/2016 07:45 MST1.2P  0.99P  0.00P  
02/08/2016 08:00 MST1.2P  0.98P  0.00P  
02/08/2016 08:15 MST1.1P  0.97P  0.00P  
02/08/2016 08:30 MST1.2P  0.98P  0.00P  
02/08/2016 08:45 MST1.2P  0.99P  0.00P  
02/08/2016 09:00 MST1.2P  0.99P  0.00P  
02/08/2016 09:15 MST1.2P  0.99P  0.00P  
02/08/2016 09:30 MST1.2P  0.98P  0.00P  
02/08/2016 09:45 MST1.2P  0.99P  0.00P  
02/08/2016 10:00 MST1.2P  0.99P  0.00P  
02/08/2016 10:15 MST1.2P  0.99P  0.00P  
02/08/2016 10:30 MST1.2P  0.99P  0.00P  
02/08/2016 10:45 MST1.2P  0.99P  0.00P  
02/08/2016 11:00 MST1.2P  0.98P  0.00P  
02/08/2016 11:15 MST1.2P  0.99P  0.00P  
02/08/2016 11:30 MST1.2P  0.99P  0.00P  
02/08/2016 11:45 MST1.2P  0.98P  0.00P  
02/08/2016 12:00 MST1.2P  0.99P  0.00P  
02/08/2016 12:15 MST1.2P  0.99P  0.00P  
02/08/2016 12:30 MST1.2P  0.99P  0.00P  
02/08/2016 12:45 MST1.2P  0.99P  0.00P  
02/08/2016 13:00 MST1.2P  0.99P  0.00P  
02/08/2016 13:15 MST1.2P  0.99P  0.00P  
02/08/2016 13:30 MST1.2P  0.99P  0.00P  
02/08/2016 13:45 MST1.2P  0.99P  0.00P  
02/08/2016 14:00 MST1.2P  0.99P  0.00P  
02/08/2016 14:15 MST1.2P  0.99P  0.00P  
02/08/2016 14:30 MST1.2P  0.99P  0.00P  
02/08/2016 14:45 MST1.2P  0.99P  0.00P  
02/08/2016 15:00 MST1.2P  0.98P  0.00P  
02/08/2016 15:15 MST1.2P  0.99P  0.00P  
02/08/2016 15:30 MST1.2P  0.99P  0.00P  
02/08/2016 15:45 MST1.0P  0.95P  0.00P  
02/08/2016 16:00 MST1.2P  0.99P  0.00P  
02/08/2016 16:15 MST1.2P  0.99P  0.00P  
02/08/2016 16:30 MST1.2P  0.99P  0.00P  
02/08/2016 16:45 MST1.2P  0.98P  0.00P  
02/08/2016 17:00 MST1.2P  0.99P  0.00P  
02/08/2016 17:15 MST1.2P  0.98P  0.00P  
02/08/2016 17:30 MST1.2P  0.99P  0.00P  
02/08/2016 17:45 MST1.2P  0.99P  0.00P  
02/08/2016 18:00 MST1.2P  0.99P  0.00P  
02/08/2016 18:15 MST1.2P  0.99P  0.00P  
02/08/2016 18:30 MST1.2P  0.99P  0.00P  
02/08/2016 18:45 MST1.2P  0.99P  0.00P  
02/08/2016 19:00 MST1.2P  0.98P  0.00P  
02/08/2016 19:15 MST1.2P  0.99P  0.00P  
02/08/2016 19:30 MST1.2P  0.99P  0.00P  
02/08/2016 19:45 MST1.2P  0.99P  0.00P  
02/08/2016 20:00 MST1.2P  0.99P  0.00P  
02/08/2016 20:15 MST1.2P  0.99P  0.00P  
02/08/2016 20:30 MST1.0P  0.95P  0.00P  
02/08/2016 20:45 MST1.2P  0.99P  0.00P  
02/08/2016 21:00 MST1.2P  0.99P  0.00P  
02/08/2016 21:15 MST1.2P  0.98P  0.00P  
02/08/2016 21:30 MST1.2P  0.98P  0.00P  
02/08/2016 21:45 MST1.2P  0.99P  0.00P  
02/08/2016 22:00 MST1.2P  0.99P  0.00P  
02/08/2016 22:15 MST1.2P  0.99P  0.00P  
02/08/2016 22:30 MST1.0P  0.94P  0.00P  
02/08/2016 22:45 MST1.2P  0.99P  0.00P  
02/08/2016 23:00 MST1.2P  0.99P  0.00P  
02/08/2016 23:15 MST1.2P  0.99P  0.00P  
02/08/2016 23:30 MST1.2P  0.99P  0.00P  
02/08/2016 23:45 MST1.2P  0.99P  0.00P  
02/09/2016 00:00 MST1.2P  0.99P  0.00P  
02/09/2016 00:15 MST1.2P  0.98P  0.00P  
02/09/2016 00:30 MST1.2P  0.99P  0.00P  
02/09/2016 00:45 MST1.2P  0.99P  0.00P  
02/09/2016 01:00 MST1.2P  0.99P  0.00P  
02/09/2016 01:15 MST1.1P  0.96P  0.00P  
02/09/2016 01:30 MST1.2P  0.99P  0.00P  
02/09/2016 01:45 MST1.2P  0.99P  0.00P  
02/09/2016 02:00 MST1.0P  0.95P  0.00P  
02/09/2016 02:15 MST1.2P  0.99P  0.00P  
02/09/2016 02:30 MST1.2P  0.98P  0.00P  
02/09/2016 02:45 MST1.2P  0.99P  0.00P  
02/09/2016 03:00 MST1.2P  0.99P  0.00P  
02/09/2016 03:15 MST1.2P  0.99P  0.00P  
02/09/2016 03:30 MST1.2P  0.99P  0.00P  
02/09/2016 03:45 MST1.2P  0.99P  0.00P  
02/09/2016 04:00 MST1.2P  0.99P  0.00P  
02/09/2016 04:15 MST1.2P  0.99P  0.00P  
02/09/2016 04:30 MST1.0P  0.94P  0.00P  
02/09/2016 04:45 MST1.2P  0.99P  0.00P  
02/09/2016 05:00 MST1.0P  0.95P  0.00P  
02/09/2016 05:15 MST1.1P  0.97P  0.00P  
02/09/2016 05:30 MST1.2P  0.98P  0.00P  
02/09/2016 05:45 MST1.2P  0.98P  0.00P  
02/09/2016 06:00 MST1.2P  0.99P  0.00P  
02/09/2016 06:15 MST1.2P  0.99P  0.00P  
02/09/2016 06:30 MST1.2P  0.99P  0.00P  
02/09/2016 06:45 MST1.2P  0.99P  0.00P  
02/09/2016 07:00 MST1.2P  0.99P  0.00P  
02/09/2016 07:15 MST1.2P  0.99P  0.00P  
02/09/2016 07:30 MST1.2P  0.99P  0.00P  
02/09/2016 07:45 MST1.1P  0.96P  0.00P  
02/09/2016 08:00 MST1.2P  0.99P  0.00P  
02/09/2016 08:15 MST1.2P  0.99P  0.00P  
02/09/2016 08:30 MST1.2P  0.99P  0.00P  
02/09/2016 08:45 MST1.2P  0.99P  0.00P  
02/09/2016 09:00 MST1.2P  0.99P  0.00P  
02/09/2016 09:15 MST1.2P  0.98P  0.00P  
02/09/2016 09:30 MST1.2P  0.98P  0.00P  
02/09/2016 09:45 MST1.2P  0.98P  0.00P  
02/09/2016 10:00 MST1.2P  0.99P  0.00P  
02/09/2016 10:15 MST1.2P  0.99P  0.00P  
02/09/2016 10:30 MST1.2P  0.99P  0.00P  
02/09/2016 10:45 MST1.2P  0.99P  0.00P  
02/09/2016 11:00 MST1.2P  0.99P  0.00P  
02/09/2016 11:15 MST1.2P  0.99P  0.00P  
02/09/2016 11:30 MST1.2P  0.99P  0.00P  
02/09/2016 11:45 MST1.2P  0.99P  0.00P  
02/09/2016 12:00 MST1.2P  0.99P  0.00P  
02/09/2016 12:15 MST1.2P  0.99P  0.00P  
02/09/2016 12:30 MST1.2P  0.99P  0.00P  
02/09/2016 12:45 MST1.2P  0.99P  0.00P  
02/09/2016 13:00 MST1.2P  0.99P  0.00P  
02/09/2016 13:15 MST1.2P  0.98P  0.00P  
02/09/2016 13:30 MST1.2P  0.98P  0.00P  
02/09/2016 13:45 MST1.2P  0.99P  0.00P  
02/09/2016 14:00 MST1.2P  0.99P  0.00P  
02/09/2016 14:15 MST1.2P  0.99P  0.00P  
02/09/2016 14:30 MST1.2P  0.99P  0.00P  
02/09/2016 14:45 MST1.2P  0.99P  0.00P  
02/09/2016 15:00 MST1.2P  0.99P  0.00P  
02/09/2016 15:15 MST1.0P  0.95P  0.00P  
02/09/2016 15:30 MST1.2P  0.99P  0.00P  
02/09/2016 15:45 MST1.2P  0.99P  0.00P  
02/09/2016 16:00 MST1.1P  0.96P  0.00P  
02/09/2016 16:15 MST1.2P  0.99P  0.00P  
02/09/2016 16:30 MST1.2P  0.99P  0.00P  
02/09/2016 16:45 MST1.2P  0.99P  0.00P  
02/09/2016 17:00 MST1.2P  0.99P  0.00P  
02/09/2016 17:15 MST1.2P  0.98P  0.00P  
02/09/2016 17:30 MST1.2P  0.99P  0.00P  
02/09/2016 17:45 MST1.2P  0.99P  0.00P  
02/09/2016 18:00 MST1.2P  0.99P  0.00P  
02/09/2016 18:15 MST1.2P  0.99P  0.00P  
02/09/2016 18:30 MST1.2P  0.99P  0.00P  
02/09/2016 18:45 MST1.0P  0.95P  0.00P  
02/09/2016 19:00 MST1.2P  0.99P  0.00P  
02/09/2016 19:15 MST1.2P  0.98P  0.00P  
02/09/2016 19:30 MST1.2P  0.98P  0.00P  
02/09/2016 19:45 MST1.2P  0.98P  0.00P  
02/09/2016 20:00 MST1.2P  0.99P  0.00P  
02/09/2016 20:15 MST1.2P  0.98P  0.00P  
02/09/2016 20:30 MST1.2P  0.99P  0.00P  
02/09/2016 20:45 MST1.2P  0.99P  0.00P  
02/09/2016 21:00 MST1.2P  0.98P  0.00P  
02/09/2016 21:15 MST1.2P  0.98P  0.00P  
02/09/2016 21:30 MST1.2P  0.99P  0.00P  
02/09/2016 21:45 MST1.2P  0.99P  0.00P  
02/09/2016 22:00 MST1.2P  0.98P  0.00P  
02/09/2016 22:15 MST1.2P  0.99P  0.00P  
02/09/2016 22:30 MST1.2P  0.99P  0.00P  
02/09/2016 22:45 MST1.2P  0.99P  0.00P  
02/09/2016 23:00 MST1.2P  0.99P  0.00P  
02/09/2016 23:15 MST1.2P  0.99P  0.00P  
02/09/2016 23:30 MST1.1P  0.96P  0.00P  
02/09/2016 23:45 MST1.2P  0.99P  0.00P  
02/10/2016 00:00 MST1.2P  0.99P  0.00P  
02/10/2016 00:15 MST1.2P  0.99P  0.00P  
02/10/2016 00:30 MST1.2P  0.99P  0.00P  
02/10/2016 00:45 MST1.2P  0.99P  0.00P  
02/10/2016 01:00 MST1.2P  0.99P  0.00P  
02/10/2016 01:15 MST1.1P  0.97P  0.00P  
02/10/2016 01:30 MST1.2P  0.99P  0.00P  
02/10/2016 01:45 MST1.2P  0.98P  0.00P  
02/10/2016 02:00 MST1.2P  0.99P  0.00P  
02/10/2016 02:15 MST1.2P  0.99P  0.00P  
02/10/2016 02:30 MST1.2P  0.99P  0.00P  
02/10/2016 02:45 MST1.2P  0.99P  0.00P  
02/10/2016 03:00 MST1.2P  0.99P  0.00P  
02/10/2016 03:15 MST1.2P  0.98P  0.00P  
02/10/2016 03:30 MST1.2P  0.99P  0.00P  
02/10/2016 03:45 MST1.2P  0.99P  0.00P  
02/10/2016 04:00 MST1.2P  0.98P  0.00P  
02/10/2016 04:15 MST1.2P  0.99P  0.00P  
02/10/2016 04:30 MST1.2P  0.99P  0.00P  
02/10/2016 04:45 MST1.2P  0.99P  0.00P  
02/10/2016 05:00 MST1.2P  0.99P  0.00P  
02/10/2016 05:15 MST1.1P  0.97P  0.00P  
02/10/2016 05:30 MST1.2P  0.99P  0.00P  
02/10/2016 05:45 MST1.2P  0.99P  0.00P  
02/10/2016 06:00 MST1.1P  0.97P  0.00P  
02/10/2016 06:15 MST1.2P  0.99P  0.00P  
02/10/2016 06:30 MST1.2P  0.98P  0.00P  
02/10/2016 06:45 MST1.2P  0.99P  0.00P  
02/10/2016 07:00 MST1.2P  0.99P  0.00P  
02/10/2016 07:15 MST1.2P  0.99P  0.00P  
02/10/2016 07:30 MST1.2P  0.99P  0.00P  
02/10/2016 07:45 MST1.2P  0.99P  0.00P  
02/10/2016 08:00 MST1.2P  0.99P  0.00P  
02/10/2016 08:15 MST1.2P  0.99P  0.00P  
02/10/2016 08:30 MST1.2P  0.98P  0.00P  
02/10/2016 08:45 MST1.2P  0.98P  0.00P  
02/10/2016 09:00 MST1.2P  0.99P  0.00P  
02/10/2016 09:15 MST1.2P  0.99P  0.00P  
02/10/2016 09:30 MST1.2P  0.99P  0.00P  
02/10/2016 09:45 MST1.2P  0.99P  0.00P  
02/10/2016 10:00 MST1.2P  0.99P  0.00P  
02/10/2016 10:15 MST1.2P  0.99P  0.00P  
02/10/2016 10:30 MST1.2P  0.99P  0.00P  
02/10/2016 10:45 MST1.2P  0.99P  0.00P  
02/10/2016 11:00 MST1.2P  0.99P  0.00P  
02/10/2016 11:15 MST1.2P  0.99P  0.00P  
02/10/2016 11:30 MST1.2P  0.99P  0.00P  
02/10/2016 11:45 MST1.2P  0.99P  0.00P  
02/10/2016 12:00 MST1.2P  0.99P  0.00P  
02/10/2016 12:15 MST1.2P  0.98P  0.00P  
02/10/2016 12:30 MST1.2P  0.99P  0.00P  
02/10/2016 12:45 MST1.2P  0.99P  0.00P  
02/10/2016 13:00 MST1.2P  0.99P  0.00P  
02/10/2016 13:15 MST1.2P  0.99P  0.00P  
02/10/2016 13:30 MST1.2P  0.99P  0.00P  
02/10/2016 13:45 MST1.2P  0.99P  0.00P  
02/10/2016 14:00 MST1.2P  0.98P  0.00P  
02/10/2016 14:15 MST1.2P  0.99P  0.00P  
02/10/2016 14:30 MST1.2P  0.99P  0.00P  
02/10/2016 14:45 MST1.2P  0.99P  0.00P  
02/10/2016 15:00 MST1.2P  0.99P  0.00P  
02/10/2016 15:15 MST1.2P  0.99P  0.00P  
02/10/2016 15:30 MST1.2P  0.99P  0.00P  
02/10/2016 15:45 MST1.2P  0.99P  0.00P  
02/10/2016 16:00 MST1.2P  0.98P  0.00P  
02/10/2016 16:15 MST1.2P  0.99P  0.00P  
02/10/2016 16:30 MST1.2P  0.99P  0.00P  
02/10/2016 16:45 MST1.2P  0.99P  0.00P  
02/10/2016 17:00 MST1.2P  0.99P  0.00P  
02/10/2016 17:15 MST1.2P  0.98P  0.00P  
02/10/2016 17:30 MST1.2P  0.99P  0.00P  
02/10/2016 17:45 MST1.0P  0.94P  0.00P  
02/10/2016 18:00 MST1.2P  0.98P  0.00P  
02/10/2016 18:15 MST1.1P  0.96P  0.00P  
02/10/2016 18:30 MST1.2P  0.99P  0.00P  
02/10/2016 18:45 MST1.2P  0.99P  0.00P  
02/10/2016 19:00 MST1.2P  0.99P  0.00P  
02/10/2016 19:15 MST1.2P  0.99P  0.00P  
02/10/2016 19:30 MST1.1P  0.97P  0.00P  
02/10/2016 19:45 MST1.2P  0.99P  0.00P  
02/10/2016 20:00 MST1.2P  0.99P  0.00P  
02/10/2016 20:15 MST1.2P  0.99P  0.00P  
02/10/2016 20:30 MST1.2P  0.99P  0.00P  
02/10/2016 20:45 MST1.2P  0.99P  0.00P  
02/10/2016 21:00 MST1.2P  0.98P  0.00P  
02/10/2016 21:15 MST1.2P  0.98P  0.00P  
02/10/2016 21:30 MST1.2P  0.99P  0.00P  
02/10/2016 21:45 MST1.2P  0.99P  0.00P  
02/10/2016 22:00 MST1.2P  0.98P  0.00P  
02/10/2016 22:15 MST1.0P  0.95P  0.00P  
02/10/2016 22:30 MST1.2P  0.99P  0.00P  
02/10/2016 22:45 MST1.1P  0.96P  0.00P  
02/10/2016 23:00 MST1.2P  0.98P  0.00P  
02/10/2016 23:15 MST1.2P  0.99P  0.00P  
02/10/2016 23:30 MST1.2P  0.99P  0.00P  
02/10/2016 23:45 MST1.2P  0.99P  0.00P  
02/11/2016 00:00 MST1.2P  0.99P  0.00P  
02/11/2016 00:15 MST1.2P  0.99P  0.00P  
02/11/2016 00:30 MST1.2P  0.98P  0.00P  
02/11/2016 00:45 MST1.2P  0.99P  0.00P  
02/11/2016 01:00 MST1.0P  0.95P  0.00P  
02/11/2016 01:15 MST1.2P  0.99P  0.00P  
02/11/2016 01:30 MST1.2P  0.99P  0.00P  
02/11/2016 01:45 MST1.1P  0.96P  0.00P  
02/11/2016 02:00 MST1.2P  0.99P  0.00P  
02/11/2016 02:15 MST1.2P  0.99P  0.00P  
02/11/2016 02:30 MST1.2P  0.99P  0.00P  
02/11/2016 02:45 MST1.2P  0.99P  0.00P  
02/11/2016 03:00 MST1.2P  0.99P  0.00P  
02/11/2016 03:15 MST1.2P  0.99P  0.00P  
02/11/2016 03:30 MST1.2P  0.99P  0.00P  
02/11/2016 03:45 MST1.2P  0.99P  0.00P  
02/11/2016 04:00 MST1.2P  0.99P  0.00P  
02/11/2016 04:15 MST1.2P  0.99P  0.00P  
02/11/2016 04:30 MST1.2P  0.99P  0.00P  
02/11/2016 04:45 MST1.2P  0.99P  0.00P  
02/11/2016 05:00 MST1.2P  0.99P  0.00P  
02/11/2016 05:15 MST1.2P  0.98P  0.00P  
02/11/2016 05:30 MST1.2P  0.99P  0.00P  
02/11/2016 05:45 MST1.2P  0.99P  0.00P  
02/11/2016 06:00 MST1.2P  0.98P  0.00P  
02/11/2016 06:15 MST1.2P  0.99P  0.00P  
02/11/2016 06:30 MST1.2P  0.99P  0.00P  
02/11/2016 06:45 MST1.2P  0.99P  0.00P  
02/11/2016 07:00 MST1.2P  0.99P  0.00P  
02/11/2016 07:15 MST1.2P  0.99P  0.00P  
02/11/2016 07:30 MST1.2P  0.98P  0.00P  
02/11/2016 07:45 MST1.2P  0.99P  0.00P  
02/11/2016 08:00 MST1.2P  0.98P  0.00P  
02/11/2016 08:15 MST1.2P  0.99P  0.00P  
02/11/2016 08:30 MST1.2P  0.99P  0.00P  
02/11/2016 08:45 MST1.1P  0.97P  0.00P  
02/11/2016 09:00 MST1.2P  0.99P  0.00P  
02/11/2016 09:15 MST1.2P  0.99P  0.00P  
02/11/2016 09:30 MST1.2P  0.98P  0.00P  
02/11/2016 09:45 MST1.1P  0.96P  0.00P  
02/11/2016 10:00 MST1.2P  0.99P  0.00P  
02/11/2016 10:15 MST1.2P  0.98P  0.00P  
02/11/2016 10:30 MST1.1P  0.97P  0.00P  
02/11/2016 10:45 MST1.2P  0.99P  0.00P  
02/11/2016 11:00 MST1.2P  0.99P  0.00P  
02/11/2016 11:15 MST1.2P  0.99P  0.00P  
02/11/2016 11:30 MST1.2P  0.99P  0.00P  
02/11/2016 11:45 MST1.2P  0.99P  0.00P  
02/11/2016 12:00 MST1.2P  0.99P  0.00P  
02/11/2016 12:15 MST1.2P  0.98P  0.00P  
02/11/2016 12:30 MST1.2P  0.99P  0.00P  
02/11/2016 12:45 MST1.2P  0.99P  0.00P  
02/11/2016 13:00 MST1.2P  0.99P  0.00P  
02/11/2016 13:15 MST1.2P  0.99P  0.00P  
02/11/2016 13:30 MST1.2P  0.99P  0.00P  
02/11/2016 13:45 MST1.2P  0.99P  0.00P  
02/11/2016 14:00 MST1.2P  0.99P  0.00P  
02/11/2016 14:15 MST1.2P  0.99P  0.00P  
02/11/2016 14:30 MST1.2P  0.99P  0.00P  
02/11/2016 14:45 MST1.2P  0.99P  0.00P  
02/11/2016 15:00 MST1.2P  0.98P  0.00P  
02/11/2016 15:15 MST1.2P  0.99P  0.00P  
02/11/2016 15:30 MST1.2P  0.99P  0.00P  
02/11/2016 15:45 MST1.2P  0.99P  0.00P  
02/11/2016 16:00 MST1.2P  0.99P  0.00P  
02/11/2016 16:15 MST1.2P  0.99P  0.00P  
02/11/2016 16:30 MST1.2P  0.99P  0.00P  
02/11/2016 16:45 MST1.2P  0.98P  0.00P  
02/11/2016 17:00 MST1.2P  0.99P  0.00P  
02/11/2016 17:15 MST1.2P  0.99P  0.00P  
02/11/2016 17:30 MST1.2P  0.99P  0.00P  
02/11/2016 17:45 MST1.2P  0.99P  0.00P  
02/11/2016 18:00 MST1.2P  0.99P  0.00P  
02/11/2016 18:15 MST1.2P  0.99P  0.00P  
02/11/2016 18:30 MST1.1P  0.97P  0.00P  
02/11/2016 18:45 MST1.2P  0.99P  0.00P  
02/11/2016 19:00 MST1.1P  0.97P  0.00P  
02/11/2016 19:15 MST1.2P  0.98P  0.00P  
02/11/2016 19:30 MST1.2P  0.99P  0.00P  
02/11/2016 19:45 MST1.2P  0.99P  0.00P  
02/11/2016 20:00 MST1.2P  0.99P  0.00P  
02/11/2016 20:15 MST1.2P  0.99P  0.00P  
02/11/2016 20:30 MST1.2P  0.99P  0.00P  
02/11/2016 20:45 MST1.2P  0.99P  0.00P  
02/11/2016 21:00 MST1.2P  0.98P  0.00P  
02/11/2016 21:15 MST1.2P  0.98P  0.00P  
02/11/2016 21:30 MST1.2P  0.99P  0.00P  
02/11/2016 21:45 MST1.2P  0.98P  0.00P  
02/11/2016 22:00 MST1.2P  0.99P  0.00P  
02/11/2016 22:15 MST1.3P  1.00P  0.00P  
02/11/2016 22:30 MST1.2P  0.98P  0.00P  
02/11/2016 22:45 MST1.2P  0.98P  0.00P  
02/11/2016 23:00 MST1.2P  0.99P  0.00P  
02/11/2016 23:15 MST1.2P  0.99P  0.00P  
02/11/2016 23:30 MST1.2P  0.99P  0.00P  
02/11/2016 23:45 MST1.2P  0.99P  0.00P  
02/12/2016 00:00 MST1.2P  0.99P  0.00P  
02/12/2016 00:15 MST1.1P  0.96P  0.00P  

Explanation
  P  Provisional data subject to revision.